<?xml version="1.0" encoding="UTF-8" standalone="no" ?>
<gpx xmlns="http://www.topografix.com/GPX/1/1" xmlns:xsi="http://www.w3.org/2001/XMLSchema-instance" xsi:schemaLocation="http://www.topografix.com/GPX/1/1 http://www.topografix.com/GPX/1/1/gpx.xsd" version="1.1" creator="VisuGPX - https://www.visugpx.com">
  <metadata>
    <name>mont baron itineraire</name>
    <desc><![CDATA[ballade robert]]></desc>
  </metadata>
  <trk>
    <name><![CDATA[Mont Baron deplacement]]></name>
    <trkseg>
      <trkpt lat="45.88279" lon="6.18278">
        <ele>563.469971</ele>
        <time>2010-11-13T13:52:49Z</time>
      </trkpt>
      <trkpt lat="45.88275" lon="6.18281">
        <ele>563.950439</ele>
        <time>2010-11-13T13:52:56Z</time>
      </trkpt>
      <trkpt lat="45.88265" lon="6.18289">
        <ele>565.392578</ele>
        <time>2010-11-13T13:53:08Z</time>
      </trkpt>
      <trkpt lat="45.88263" lon="6.18302">
        <ele>567.795654</ele>
        <time>2010-11-13T13:53:19Z</time>
      </trkpt>
      <trkpt lat="45.88263" lon="6.18315">
        <ele>569.237793</ele>
        <time>2010-11-13T13:53:30Z</time>
      </trkpt>
      <trkpt lat="45.8826" lon="6.18324">
        <ele>571.1604</ele>
        <time>2010-11-13T13:53:40Z</time>
      </trkpt>
      <trkpt lat="45.88259" lon="6.18333">
        <ele>574.044434</ele>
        <time>2010-11-13T13:53:49Z</time>
      </trkpt>
      <trkpt lat="45.88257" lon="6.18344">
        <ele>575.005859</ele>
        <time>2010-11-13T13:54:00Z</time>
      </trkpt>
      <trkpt lat="45.88253" lon="6.18355">
        <ele>577.889648</ele>
        <time>2010-11-13T13:54:11Z</time>
      </trkpt>
      <trkpt lat="45.88253" lon="6.18364">
        <ele>578.851074</ele>
        <time>2010-11-13T13:54:20Z</time>
      </trkpt>
      <trkpt lat="45.88254" lon="6.18373">
        <ele>580.773682</ele>
        <time>2010-11-13T13:54:30Z</time>
      </trkpt>
      <trkpt lat="45.88256" lon="6.1838">
        <ele>583.176758</ele>
        <time>2010-11-13T13:54:38Z</time>
      </trkpt>
      <trkpt lat="45.88258" lon="6.1839">
        <ele>585.099609</ele>
        <time>2010-11-13T13:54:48Z</time>
      </trkpt>
      <trkpt lat="45.88259" lon="6.18397">
        <ele>586.541504</ele>
        <time>2010-11-13T13:54:57Z</time>
      </trkpt>
      <trkpt lat="45.88261" lon="6.18407">
        <ele>588.464355</ele>
        <time>2010-11-13T13:55:08Z</time>
      </trkpt>
      <trkpt lat="45.88263" lon="6.18414">
        <ele>589.90625</ele>
        <time>2010-11-13T13:55:17Z</time>
      </trkpt>
      <trkpt lat="45.88268" lon="6.18422">
        <ele>590.867432</ele>
        <time>2010-11-13T13:55:27Z</time>
      </trkpt>
      <trkpt lat="45.88271" lon="6.18428">
        <ele>592.790283</ele>
        <time>2010-11-13T13:55:36Z</time>
      </trkpt>
      <trkpt lat="45.88273" lon="6.18436">
        <ele>594.712646</ele>
        <time>2010-11-13T13:55:48Z</time>
      </trkpt>
      <trkpt lat="45.88276" lon="6.18441">
        <ele>596.154785</ele>
        <time>2010-11-13T13:55:57Z</time>
      </trkpt>
      <trkpt lat="45.88279" lon="6.18447">
        <ele>598.077393</ele>
        <time>2010-11-13T13:56:07Z</time>
      </trkpt>
      <trkpt lat="45.88282" lon="6.18452">
        <ele>600</ele>
        <time>2010-11-13T13:56:17Z</time>
      </trkpt>
      <trkpt lat="45.88285" lon="6.18457">
        <ele>601.441895</ele>
        <time>2010-11-13T13:56:26Z</time>
      </trkpt>
      <trkpt lat="45.88287" lon="6.18464">
        <ele>602.883789</ele>
        <time>2010-11-13T13:56:37Z</time>
      </trkpt>
      <trkpt lat="45.88289" lon="6.1847">
        <ele>605.287354</ele>
        <time>2010-11-13T13:56:48Z</time>
      </trkpt>
      <trkpt lat="45.8829" lon="6.18474">
        <ele>607.209961</ele>
        <time>2010-11-13T13:56:57Z</time>
      </trkpt>
      <trkpt lat="45.88293" lon="6.18478">
        <ele>609.613281</ele>
        <time>2010-11-13T13:57:05Z</time>
      </trkpt>
      <trkpt lat="45.88297" lon="6.18483">
        <ele>610.574463</ele>
        <time>2010-11-13T13:57:13Z</time>
      </trkpt>
      <trkpt lat="45.883" lon="6.1849">
        <ele>612.977783</ele>
        <time>2010-11-13T13:57:22Z</time>
      </trkpt>
      <trkpt lat="45.88303" lon="6.18496">
        <ele>613.458496</ele>
        <time>2010-11-13T13:57:31Z</time>
      </trkpt>
      <trkpt lat="45.88304" lon="6.18499">
        <ele>614.419678</ele>
        <time>2010-11-13T13:57:39Z</time>
      </trkpt>
      <trkpt lat="45.88307" lon="6.18504">
        <ele>615.381104</ele>
        <time>2010-11-13T13:57:47Z</time>
      </trkpt>
      <trkpt lat="45.88313" lon="6.18511">
        <ele>617.78418</ele>
        <time>2010-11-13T13:57:58Z</time>
      </trkpt>
      <trkpt lat="45.88313" lon="6.18514">
        <ele>619.707031</ele>
        <time>2010-11-13T13:58:05Z</time>
      </trkpt>
      <trkpt lat="45.88315" lon="6.1852">
        <ele>622.110352</ele>
        <time>2010-11-13T13:58:14Z</time>
      </trkpt>
      <trkpt lat="45.8832" lon="6.18522">
        <ele>624.032959</ele>
        <time>2010-11-13T13:58:22Z</time>
      </trkpt>
      <trkpt lat="45.88321" lon="6.18525">
        <ele>625.955566</ele>
        <time>2010-11-13T13:58:29Z</time>
      </trkpt>
      <trkpt lat="45.88323" lon="6.18529">
        <ele>626.916992</ele>
        <time>2010-11-13T13:58:37Z</time>
      </trkpt>
      <trkpt lat="45.88326" lon="6.18531">
        <ele>628.358887</ele>
        <time>2010-11-13T13:58:46Z</time>
      </trkpt>
      <trkpt lat="45.8833" lon="6.18536">
        <ele>629.800781</ele>
        <time>2010-11-13T13:58:55Z</time>
      </trkpt>
      <trkpt lat="45.88328" lon="6.18538">
        <ele>630.762207</ele>
        <time>2010-11-13T13:59:02Z</time>
      </trkpt>
      <trkpt lat="45.88332" lon="6.18541">
        <ele>632.204102</ele>
        <time>2010-11-13T13:59:11Z</time>
      </trkpt>
      <trkpt lat="45.88332" lon="6.18545">
        <ele>635.088135</ele>
        <time>2010-11-13T13:59:25Z</time>
      </trkpt>
      <trkpt lat="45.88335" lon="6.18547">
        <ele>636.049561</ele>
        <time>2010-11-13T13:59:33Z</time>
      </trkpt>
      <trkpt lat="45.8834" lon="6.18546">
        <ele>637.010742</ele>
        <time>2010-11-13T13:59:40Z</time>
      </trkpt>
      <trkpt lat="45.88349" lon="6.18547">
        <ele>638.933594</ele>
        <time>2010-11-13T13:59:50Z</time>
      </trkpt>
      <trkpt lat="45.8835" lon="6.1855">
        <ele>641.33667</ele>
        <time>2010-11-13T13:59:58Z</time>
      </trkpt>
      <trkpt lat="45.88356" lon="6.1854">
        <ele>642.778809</ele>
        <time>2010-11-13T14:00:10Z</time>
      </trkpt>
      <trkpt lat="45.88357" lon="6.18536">
        <ele>644.220703</ele>
        <time>2010-11-13T14:00:19Z</time>
      </trkpt>
      <trkpt lat="45.88356" lon="6.18543">
        <ele>644.220703</ele>
        <time>2010-11-13T14:00:25Z</time>
      </trkpt>
      <trkpt lat="45.88356" lon="6.1855">
        <ele>646.624023</ele>
        <time>2010-11-13T14:00:33Z</time>
      </trkpt>
      <trkpt lat="45.88359" lon="6.18553">
        <ele>647.585205</ele>
        <time>2010-11-13T14:00:40Z</time>
      </trkpt>
      <trkpt lat="45.88367" lon="6.18554">
        <ele>649.507813</ele>
        <time>2010-11-13T14:00:50Z</time>
      </trkpt>
      <trkpt lat="45.88369" lon="6.18546">
        <ele>650.949707</ele>
        <time>2010-11-13T14:00:58Z</time>
      </trkpt>
      <trkpt lat="45.88371" lon="6.18541">
        <ele>652.872559</ele>
        <time>2010-11-13T14:01:05Z</time>
      </trkpt>
      <trkpt lat="45.88372" lon="6.18538">
        <ele>653.833984</ele>
        <time>2010-11-13T14:01:13Z</time>
      </trkpt>
      <trkpt lat="45.88372" lon="6.1854">
        <ele>654.795166</ele>
        <time>2010-11-13T14:01:19Z</time>
      </trkpt>
      <trkpt lat="45.88375" lon="6.18535">
        <ele>656.717773</ele>
        <time>2010-11-13T14:01:28Z</time>
      </trkpt>
      <trkpt lat="45.88381" lon="6.18534">
        <ele>658.159912</ele>
        <time>2010-11-13T14:01:37Z</time>
      </trkpt>
      <trkpt lat="45.88388" lon="6.18535">
        <ele>659.121094</ele>
        <time>2010-11-13T14:01:43Z</time>
      </trkpt>
      <trkpt lat="45.88395" lon="6.18536">
        <ele>660.562988</ele>
        <time>2010-11-13T14:01:49Z</time>
      </trkpt>
      <trkpt lat="45.88401" lon="6.18533">
        <ele>662.005127</ele>
        <time>2010-11-13T14:01:57Z</time>
      </trkpt>
      <trkpt lat="45.88405" lon="6.18533">
        <ele>663.447021</ele>
        <time>2010-11-13T14:02:04Z</time>
      </trkpt>
      <trkpt lat="45.88412" lon="6.18532">
        <ele>664.408203</ele>
        <time>2010-11-13T14:02:12Z</time>
      </trkpt>
      <trkpt lat="45.88419" lon="6.1853">
        <ele>665.850342</ele>
        <time>2010-11-13T14:02:21Z</time>
      </trkpt>
      <trkpt lat="45.88418" lon="6.18532">
        <ele>666.330811</ele>
        <time>2010-11-13T14:02:30Z</time>
      </trkpt>
      <trkpt lat="45.88412" lon="6.18537">
        <ele>667.292236</ele>
        <time>2010-11-13T14:02:38Z</time>
      </trkpt>
      <trkpt lat="45.8841" lon="6.18539">
        <ele>669.215088</ele>
        <time>2010-11-13T14:02:41Z</time>
      </trkpt>
      <trkpt lat="45.88404" lon="6.18541">
        <ele>670.17627</ele>
        <time>2010-11-13T14:02:49Z</time>
      </trkpt>
      <trkpt lat="45.88399" lon="6.18544">
        <ele>671.137695</ele>
        <time>2010-11-13T14:02:55Z</time>
      </trkpt>
      <trkpt lat="45.88403" lon="6.18549">
        <ele>672.098877</ele>
        <time>2010-11-13T14:03:02Z</time>
      </trkpt>
      <trkpt lat="45.88408" lon="6.18552">
        <ele>674.021484</ele>
        <time>2010-11-13T14:03:10Z</time>
      </trkpt>
      <trkpt lat="45.88414" lon="6.18553">
        <ele>674.98291</ele>
        <time>2010-11-13T14:03:17Z</time>
      </trkpt>
      <trkpt lat="45.88415" lon="6.18553">
        <ele>676.424805</ele>
        <time>2010-11-13T14:03:24Z</time>
      </trkpt>
      <trkpt lat="45.88412" lon="6.18557">
        <ele>677.38623</ele>
        <time>2010-11-13T14:03:31Z</time>
      </trkpt>
      <trkpt lat="45.88408" lon="6.1856">
        <ele>678.828125</ele>
        <time>2010-11-13T14:03:38Z</time>
      </trkpt>
      <trkpt lat="45.88408" lon="6.18569">
        <ele>680.27002</ele>
        <time>2010-11-13T14:03:46Z</time>
      </trkpt>
      <trkpt lat="45.88411" lon="6.1857">
        <ele>681.711914</ele>
        <time>2010-11-13T14:03:52Z</time>
      </trkpt>
      <trkpt lat="45.88417" lon="6.1857">
        <ele>682.67334</ele>
        <time>2010-11-13T14:04:01Z</time>
      </trkpt>
      <trkpt lat="45.88415" lon="6.1857">
        <ele>684.115479</ele>
        <time>2010-11-13T14:04:08Z</time>
      </trkpt>
      <trkpt lat="45.88411" lon="6.18576">
        <ele>684.596191</ele>
        <time>2010-11-13T14:04:17Z</time>
      </trkpt>
      <trkpt lat="45.8841" lon="6.18581">
        <ele>686.038086</ele>
        <time>2010-11-13T14:04:25Z</time>
      </trkpt>
      <trkpt lat="45.88414" lon="6.18575">
        <ele>686.518799</ele>
        <time>2010-11-13T14:04:33Z</time>
      </trkpt>
      <trkpt lat="45.88419" lon="6.18573">
        <ele>687.960693</ele>
        <time>2010-11-13T14:04:40Z</time>
      </trkpt>
      <trkpt lat="45.88426" lon="6.18571">
        <ele>689.402588</ele>
        <time>2010-11-13T14:04:49Z</time>
      </trkpt>
      <trkpt lat="45.88432" lon="6.18568">
        <ele>691.325195</ele>
        <time>2010-11-13T14:04:56Z</time>
      </trkpt>
      <trkpt lat="45.88439" lon="6.1857">
        <ele>693.247803</ele>
        <time>2010-11-13T14:05:04Z</time>
      </trkpt>
      <trkpt lat="45.88443" lon="6.18565">
        <ele>694.209229</ele>
        <time>2010-11-13T14:05:12Z</time>
      </trkpt>
      <trkpt lat="45.88447" lon="6.18562">
        <ele>696.131836</ele>
        <time>2010-11-13T14:05:19Z</time>
      </trkpt>
      <trkpt lat="45.88455" lon="6.18556">
        <ele>697.57373</ele>
        <time>2010-11-13T14:05:29Z</time>
      </trkpt>
      <trkpt lat="45.88457" lon="6.18549">
        <ele>699.496338</ele>
        <time>2010-11-13T14:05:35Z</time>
      </trkpt>
      <trkpt lat="45.88465" lon="6.18546">
        <ele>700.458008</ele>
        <time>2010-11-13T14:05:42Z</time>
      </trkpt>
      <trkpt lat="45.88471" lon="6.18543">
        <ele>701.419189</ele>
        <time>2010-11-13T14:05:49Z</time>
      </trkpt>
      <trkpt lat="45.88475" lon="6.18541">
        <ele>701.899902</ele>
        <time>2010-11-13T14:05:55Z</time>
      </trkpt>
      <trkpt lat="45.88477" lon="6.18544">
        <ele>702.861084</ele>
        <time>2010-11-13T14:06:02Z</time>
      </trkpt>
      <trkpt lat="45.88476" lon="6.18549">
        <ele>704.783691</ele>
        <time>2010-11-13T14:06:10Z</time>
      </trkpt>
      <trkpt lat="45.88479" lon="6.18551">
        <ele>705.264404</ele>
        <time>2010-11-13T14:06:17Z</time>
      </trkpt>
      <trkpt lat="45.88484" lon="6.18549">
        <ele>707.187012</ele>
        <time>2010-11-13T14:06:26Z</time>
      </trkpt>
      <trkpt lat="45.88489" lon="6.18542">
        <ele>708.148438</ele>
        <time>2010-11-13T14:06:34Z</time>
      </trkpt>
      <trkpt lat="45.88495" lon="6.18536">
        <ele>708.628906</ele>
        <time>2010-11-13T14:06:42Z</time>
      </trkpt>
      <trkpt lat="45.88499" lon="6.18531">
        <ele>709.109619</ele>
        <time>2010-11-13T14:06:47Z</time>
      </trkpt>
      <trkpt lat="45.88506" lon="6.18526">
        <ele>710.551514</ele>
        <time>2010-11-13T14:06:54Z</time>
      </trkpt>
      <trkpt lat="45.88515" lon="6.18523">
        <ele>711.993652</ele>
        <time>2010-11-13T14:07:01Z</time>
      </trkpt>
      <trkpt lat="45.88523" lon="6.18519">
        <ele>713.435547</ele>
        <time>2010-11-13T14:07:11Z</time>
      </trkpt>
      <trkpt lat="45.88522" lon="6.18523">
        <ele>714.877441</ele>
        <time>2010-11-13T14:07:17Z</time>
      </trkpt>
      <trkpt lat="45.8852" lon="6.18527">
        <ele>715.358154</ele>
        <time>2010-11-13T14:07:24Z</time>
      </trkpt>
      <trkpt lat="45.88524" lon="6.18528">
        <ele>716.800293</ele>
        <time>2010-11-13T14:07:31Z</time>
      </trkpt>
      <trkpt lat="45.88528" lon="6.18529">
        <ele>717.761475</ele>
        <time>2010-11-13T14:07:38Z</time>
      </trkpt>
      <trkpt lat="45.88526" lon="6.1853">
        <ele>719.203613</ele>
        <time>2010-11-13T14:07:42Z</time>
      </trkpt>
      <trkpt lat="45.88522" lon="6.18535">
        <ele>719.684326</ele>
        <time>2010-11-13T14:07:50Z</time>
      </trkpt>
      <trkpt lat="45.88521" lon="6.18538">
        <ele>721.126221</ele>
        <time>2010-11-13T14:07:53Z</time>
      </trkpt>
      <trkpt lat="45.88519" lon="6.18546">
        <ele>723.048828</ele>
        <time>2010-11-13T14:08:00Z</time>
      </trkpt>
      <trkpt lat="45.88516" lon="6.18548">
        <ele>724.490723</ele>
        <time>2010-11-13T14:08:07Z</time>
      </trkpt>
      <trkpt lat="45.88509" lon="6.18553">
        <ele>725.451904</ele>
        <time>2010-11-13T14:08:16Z</time>
      </trkpt>
      <trkpt lat="45.8851" lon="6.18557">
        <ele>727.374756</ele>
        <time>2010-11-13T14:08:23Z</time>
      </trkpt>
      <trkpt lat="45.88512" lon="6.18559">
        <ele>729.297119</ele>
        <time>2010-11-13T14:08:28Z</time>
      </trkpt>
      <trkpt lat="45.8852" lon="6.1856">
        <ele>730.739258</ele>
        <time>2010-11-13T14:08:37Z</time>
      </trkpt>
      <trkpt lat="45.88525" lon="6.18559">
        <ele>732.181396</ele>
        <time>2010-11-13T14:08:45Z</time>
      </trkpt>
      <trkpt lat="45.88527" lon="6.1856">
        <ele>733.623291</ele>
        <time>2010-11-13T14:08:53Z</time>
      </trkpt>
      <trkpt lat="45.88523" lon="6.1856">
        <ele>734.584717</ele>
        <time>2010-11-13T14:09:00Z</time>
      </trkpt>
      <trkpt lat="45.8852" lon="6.18565">
        <ele>736.026611</ele>
        <time>2010-11-13T14:09:07Z</time>
      </trkpt>
      <trkpt lat="45.88517" lon="6.18572">
        <ele>736.507324</ele>
        <time>2010-11-13T14:09:12Z</time>
      </trkpt>
      <trkpt lat="45.88512" lon="6.1858">
        <ele>737.468506</ele>
        <time>2010-11-13T14:09:21Z</time>
      </trkpt>
      <trkpt lat="45.8851" lon="6.18585">
        <ele>739.391113</ele>
        <time>2010-11-13T14:09:28Z</time>
      </trkpt>
      <trkpt lat="45.88505" lon="6.18602">
        <ele>740.833008</ele>
        <time>2010-11-13T14:09:38Z</time>
      </trkpt>
      <trkpt lat="45.88497" lon="6.1861">
        <ele>741.794434</ele>
        <time>2010-11-13T14:09:47Z</time>
      </trkpt>
      <trkpt lat="45.88493" lon="6.18617">
        <ele>743.717041</ele>
        <time>2010-11-13T14:09:54Z</time>
      </trkpt>
      <trkpt lat="45.88487" lon="6.18627">
        <ele>745.639648</ele>
        <time>2010-11-13T14:10:03Z</time>
      </trkpt>
      <trkpt lat="45.88486" lon="6.18631">
        <ele>746.120361</ele>
        <time>2010-11-13T14:10:06Z</time>
      </trkpt>
      <trkpt lat="45.88485" lon="6.18636">
        <ele>747.081543</ele>
        <time>2010-11-13T14:10:14Z</time>
      </trkpt>
      <trkpt lat="45.88486" lon="6.18635">
        <ele>749.004395</ele>
        <time>2010-11-13T14:10:21Z</time>
      </trkpt>
      <trkpt lat="45.8849" lon="6.18635">
        <ele>750.927002</ele>
        <time>2010-11-13T14:10:30Z</time>
      </trkpt>
      <trkpt lat="45.88494" lon="6.1863">
        <ele>751.888428</ele>
        <time>2010-11-13T14:10:37Z</time>
      </trkpt>
      <trkpt lat="45.88498" lon="6.18623">
        <ele>752.849609</ele>
        <time>2010-11-13T14:10:43Z</time>
      </trkpt>
      <trkpt lat="45.885" lon="6.18621">
        <ele>754.291748</ele>
        <time>2010-11-13T14:10:50Z</time>
      </trkpt>
      <trkpt lat="45.885" lon="6.18628">
        <ele>755.733643</ele>
        <time>2010-11-13T14:10:59Z</time>
      </trkpt>
      <trkpt lat="45.88498" lon="6.18636">
        <ele>757.65625</ele>
        <time>2010-11-13T14:11:07Z</time>
      </trkpt>
      <trkpt lat="45.88495" lon="6.18647">
        <ele>759.098145</ele>
        <time>2010-11-13T14:11:15Z</time>
      </trkpt>
      <trkpt lat="45.88493" lon="6.18661">
        <ele>760.059326</ele>
        <time>2010-11-13T14:11:25Z</time>
      </trkpt>
      <trkpt lat="45.88491" lon="6.18669">
        <ele>761.501465</ele>
        <time>2010-11-13T14:11:32Z</time>
      </trkpt>
      <trkpt lat="45.88489" lon="6.18678">
        <ele>763.424072</ele>
        <time>2010-11-13T14:11:39Z</time>
      </trkpt>
      <trkpt lat="45.88485" lon="6.18683">
        <ele>764.866211</ele>
        <time>2010-11-13T14:11:46Z</time>
      </trkpt>
      <trkpt lat="45.88487" lon="6.18683">
        <ele>766.788818</ele>
        <time>2010-11-13T14:11:54Z</time>
      </trkpt>
      <trkpt lat="45.88492" lon="6.18676">
        <ele>767.269531</ele>
        <time>2010-11-13T14:12:05Z</time>
      </trkpt>
      <trkpt lat="45.88494" lon="6.18672">
        <ele>768.711426</ele>
        <time>2010-11-13T14:12:08Z</time>
      </trkpt>
      <trkpt lat="45.88498" lon="6.18663">
        <ele>770.15332</ele>
        <time>2010-11-13T14:12:15Z</time>
      </trkpt>
      <trkpt lat="45.88503" lon="6.18659">
        <ele>771.114746</ele>
        <time>2010-11-13T14:12:21Z</time>
      </trkpt>
      <trkpt lat="45.88507" lon="6.18656">
        <ele>772.075928</ele>
        <time>2010-11-13T14:12:27Z</time>
      </trkpt>
      <trkpt lat="45.88517" lon="6.18644">
        <ele>773.518066</ele>
        <time>2010-11-13T14:12:40Z</time>
      </trkpt>
      <trkpt lat="45.8852" lon="6.18639">
        <ele>773.998535</ele>
        <time>2010-11-13T14:12:45Z</time>
      </trkpt>
      <trkpt lat="45.88529" lon="6.18634">
        <ele>775.44043</ele>
        <time>2010-11-13T14:12:54Z</time>
      </trkpt>
      <trkpt lat="45.8854" lon="6.18635">
        <ele>777.363281</ele>
        <time>2010-11-13T14:13:03Z</time>
      </trkpt>
      <trkpt lat="45.88546" lon="6.18637">
        <ele>778.805176</ele>
        <time>2010-11-13T14:13:09Z</time>
      </trkpt>
      <trkpt lat="45.88554" lon="6.18637">
        <ele>780.728027</ele>
        <time>2010-11-13T14:13:17Z</time>
      </trkpt>
      <trkpt lat="45.88568" lon="6.18631">
        <ele>784.092529</ele>
        <time>2010-11-13T14:13:34Z</time>
      </trkpt>
      <trkpt lat="45.88574" lon="6.18633">
        <ele>785.053955</ele>
        <time>2010-11-13T14:13:41Z</time>
      </trkpt>
      <trkpt lat="45.88583" lon="6.18636">
        <ele>786.015137</ele>
        <time>2010-11-13T14:13:49Z</time>
      </trkpt>
      <trkpt lat="45.88588" lon="6.18637">
        <ele>786.015137</ele>
        <time>2010-11-13T14:14:00Z</time>
      </trkpt>
      <trkpt lat="45.88594" lon="6.1864">
        <ele>786.015137</ele>
        <time>2010-11-13T14:14:14Z</time>
      </trkpt>
      <trkpt lat="45.88601" lon="6.18645">
        <ele>786.015137</ele>
        <time>2010-11-13T14:14:23Z</time>
      </trkpt>
      <trkpt lat="45.88584" lon="6.18639">
        <ele>786.49585</ele>
        <time>2010-11-13T14:21:24Z</time>
      </trkpt>
      <trkpt lat="45.88581" lon="6.18646">
        <ele>787.937744</ele>
        <time>2010-11-13T14:21:32Z</time>
      </trkpt>
      <trkpt lat="45.88579" lon="6.18649">
        <ele>787.937744</ele>
        <time>2010-11-13T14:21:36Z</time>
      </trkpt>
      <trkpt lat="45.88575" lon="6.18653">
        <ele>789.860352</ele>
        <time>2010-11-13T14:21:42Z</time>
      </trkpt>
      <trkpt lat="45.88572" lon="6.18657">
        <ele>790.821533</ele>
        <time>2010-11-13T14:21:47Z</time>
      </trkpt>
      <trkpt lat="45.88566" lon="6.18662">
        <ele>790.821533</ele>
        <time>2010-11-13T14:21:54Z</time>
      </trkpt>
      <trkpt lat="45.88553" lon="6.18666">
        <ele>791.782959</ele>
        <time>2010-11-13T14:22:04Z</time>
      </trkpt>
      <trkpt lat="45.88549" lon="6.18671">
        <ele>792.263672</ele>
        <time>2010-11-13T14:22:10Z</time>
      </trkpt>
      <trkpt lat="45.88545" lon="6.18686">
        <ele>792.744385</ele>
        <time>2010-11-13T14:22:19Z</time>
      </trkpt>
      <trkpt lat="45.8854" lon="6.18702">
        <ele>794.186279</ele>
        <time>2010-11-13T14:22:28Z</time>
      </trkpt>
      <trkpt lat="45.88534" lon="6.18711">
        <ele>795.147461</ele>
        <time>2010-11-13T14:22:36Z</time>
      </trkpt>
      <trkpt lat="45.88533" lon="6.18716">
        <ele>795.628174</ele>
        <time>2010-11-13T14:22:40Z</time>
      </trkpt>
      <trkpt lat="45.8853" lon="6.18722">
        <ele>797.070313</ele>
        <time>2010-11-13T14:22:45Z</time>
      </trkpt>
      <trkpt lat="45.88525" lon="6.18732">
        <ele>798.031738</ele>
        <time>2010-11-13T14:22:55Z</time>
      </trkpt>
      <trkpt lat="45.88519" lon="6.18741">
        <ele>799.473633</ele>
        <time>2010-11-13T14:23:03Z</time>
      </trkpt>
      <trkpt lat="45.88512" lon="6.18745">
        <ele>800.435059</ele>
        <time>2010-11-13T14:23:10Z</time>
      </trkpt>
      <trkpt lat="45.88508" lon="6.18759">
        <ele>800.915527</ele>
        <time>2010-11-13T14:23:19Z</time>
      </trkpt>
      <trkpt lat="45.88504" lon="6.18771">
        <ele>801.876953</ele>
        <time>2010-11-13T14:23:28Z</time>
      </trkpt>
      <trkpt lat="45.88498" lon="6.1878">
        <ele>802.357422</ele>
        <time>2010-11-13T14:23:36Z</time>
      </trkpt>
      <trkpt lat="45.88494" lon="6.18792">
        <ele>803.799561</ele>
        <time>2010-11-13T14:23:45Z</time>
      </trkpt>
      <trkpt lat="45.88489" lon="6.188">
        <ele>805.722168</ele>
        <time>2010-11-13T14:23:54Z</time>
      </trkpt>
      <trkpt lat="45.8849" lon="6.18816">
        <ele>806.202637</ele>
        <time>2010-11-13T14:24:01Z</time>
      </trkpt>
      <trkpt lat="45.88488" lon="6.18826">
        <ele>807.644775</ele>
        <time>2010-11-13T14:24:09Z</time>
      </trkpt>
      <trkpt lat="45.88486" lon="6.18832">
        <ele>807.644775</ele>
        <time>2010-11-13T14:24:12Z</time>
      </trkpt>
      <trkpt lat="45.88484" lon="6.18837">
        <ele>809.567383</ele>
        <time>2010-11-13T14:24:18Z</time>
      </trkpt>
      <trkpt lat="45.88478" lon="6.18841">
        <ele>809.567383</ele>
        <time>2010-11-13T14:24:24Z</time>
      </trkpt>
      <trkpt lat="45.88471" lon="6.18853">
        <ele>810.528564</ele>
        <time>2010-11-13T14:24:33Z</time>
      </trkpt>
      <trkpt lat="45.88466" lon="6.18863">
        <ele>811.970703</ele>
        <time>2010-11-13T14:24:40Z</time>
      </trkpt>
      <trkpt lat="45.88461" lon="6.18878">
        <ele>812.932129</ele>
        <time>2010-11-13T14:24:50Z</time>
      </trkpt>
      <trkpt lat="45.88461" lon="6.18894">
        <ele>813.893311</ele>
        <time>2010-11-13T14:24:58Z</time>
      </trkpt>
      <trkpt lat="45.88456" lon="6.18908">
        <ele>815.335449</ele>
        <time>2010-11-13T14:25:07Z</time>
      </trkpt>
      <trkpt lat="45.88454" lon="6.18918">
        <ele>816.296631</ele>
        <time>2010-11-13T14:25:15Z</time>
      </trkpt>
      <trkpt lat="45.8845" lon="6.18921">
        <ele>817.738525</ele>
        <time>2010-11-13T14:25:24Z</time>
      </trkpt>
      <trkpt lat="45.88446" lon="6.18926">
        <ele>819.180664</ele>
        <time>2010-11-13T14:25:31Z</time>
      </trkpt>
      <trkpt lat="45.88444" lon="6.18936">
        <ele>819.661377</ele>
        <time>2010-11-13T14:25:39Z</time>
      </trkpt>
      <trkpt lat="45.88441" lon="6.18944">
        <ele>821.58374</ele>
        <time>2010-11-13T14:25:48Z</time>
      </trkpt>
      <trkpt lat="45.88436" lon="6.18951">
        <ele>823.987061</ele>
        <time>2010-11-13T14:25:57Z</time>
      </trkpt>
      <trkpt lat="45.88435" lon="6.1896">
        <ele>824.948486</ele>
        <time>2010-11-13T14:26:05Z</time>
      </trkpt>
      <trkpt lat="45.88436" lon="6.18966">
        <ele>826.390381</ele>
        <time>2010-11-13T14:26:13Z</time>
      </trkpt>
      <trkpt lat="45.88436" lon="6.18972">
        <ele>828.313232</ele>
        <time>2010-11-13T14:26:20Z</time>
      </trkpt>
      <trkpt lat="45.8844" lon="6.18974">
        <ele>829.755127</ele>
        <time>2010-11-13T14:26:29Z</time>
      </trkpt>
      <trkpt lat="45.88444" lon="6.18974">
        <ele>831.197266</ele>
        <time>2010-11-13T14:26:37Z</time>
      </trkpt>
      <trkpt lat="45.88445" lon="6.18979">
        <ele>832.63916</ele>
        <time>2010-11-13T14:26:44Z</time>
      </trkpt>
      <trkpt lat="45.8844" lon="6.18982">
        <ele>833.119629</ele>
        <time>2010-11-13T14:26:55Z</time>
      </trkpt>
      <trkpt lat="45.88438" lon="6.18984">
        <ele>833.600342</ele>
        <time>2010-11-13T14:27:00Z</time>
      </trkpt>
      <trkpt lat="45.88437" lon="6.18991">
        <ele>836.003662</ele>
        <time>2010-11-13T14:27:07Z</time>
      </trkpt>
      <trkpt lat="45.88444" lon="6.19">
        <ele>837.92627</ele>
        <time>2010-11-13T14:27:17Z</time>
      </trkpt>
      <trkpt lat="45.88444" lon="6.19009">
        <ele>839.368164</ele>
        <time>2010-11-13T14:27:27Z</time>
      </trkpt>
      <trkpt lat="45.88443" lon="6.19017">
        <ele>840.810059</ele>
        <time>2010-11-13T14:27:33Z</time>
      </trkpt>
      <trkpt lat="45.88442" lon="6.19024">
        <ele>841.771484</ele>
        <time>2010-11-13T14:27:40Z</time>
      </trkpt>
      <trkpt lat="45.8844" lon="6.19027">
        <ele>842.73291</ele>
        <time>2010-11-13T14:27:48Z</time>
      </trkpt>
      <trkpt lat="45.88431" lon="6.19035">
        <ele>843.694092</ele>
        <time>2010-11-13T14:27:57Z</time>
      </trkpt>
      <trkpt lat="45.88424" lon="6.19033">
        <ele>846.097656</ele>
        <time>2010-11-13T14:28:05Z</time>
      </trkpt>
      <trkpt lat="45.88421" lon="6.19032">
        <ele>847.539551</ele>
        <time>2010-11-13T14:28:12Z</time>
      </trkpt>
      <trkpt lat="45.88418" lon="6.19029">
        <ele>848.500732</ele>
        <time>2010-11-13T14:28:20Z</time>
      </trkpt>
      <trkpt lat="45.88412" lon="6.19026">
        <ele>849.462158</ele>
        <time>2010-11-13T14:28:27Z</time>
      </trkpt>
      <trkpt lat="45.8841" lon="6.19033">
        <ele>849.942871</ele>
        <time>2010-11-13T14:28:34Z</time>
      </trkpt>
      <trkpt lat="45.88411" lon="6.19041">
        <ele>851.384766</ele>
        <time>2010-11-13T14:28:42Z</time>
      </trkpt>
      <trkpt lat="45.88411" lon="6.1905">
        <ele>852.82666</ele>
        <time>2010-11-13T14:28:53Z</time>
      </trkpt>
      <trkpt lat="45.88415" lon="6.19061">
        <ele>854.268799</ele>
        <time>2010-11-13T14:29:02Z</time>
      </trkpt>
      <trkpt lat="45.88421" lon="6.19071">
        <ele>854.749268</ele>
        <time>2010-11-13T14:29:10Z</time>
      </trkpt>
      <trkpt lat="45.88427" lon="6.19075">
        <ele>854.749268</ele>
        <time>2010-11-13T14:29:18Z</time>
      </trkpt>
      <trkpt lat="45.88431" lon="6.19079">
        <ele>857.152588</ele>
        <time>2010-11-13T14:29:25Z</time>
      </trkpt>
      <trkpt lat="45.88436" lon="6.19082">
        <ele>858.594482</ele>
        <time>2010-11-13T14:29:32Z</time>
      </trkpt>
      <trkpt lat="45.88441" lon="6.19082">
        <ele>860.036621</ele>
        <time>2010-11-13T14:29:38Z</time>
      </trkpt>
      <trkpt lat="45.8845" lon="6.19081">
        <ele>860.517334</ele>
        <time>2010-11-13T14:29:47Z</time>
      </trkpt>
      <trkpt lat="45.88454" lon="6.19083">
        <ele>860.517334</ele>
        <time>2010-11-13T14:29:52Z</time>
      </trkpt>
      <trkpt lat="45.88459" lon="6.19082">
        <ele>860.998047</ele>
        <time>2010-11-13T14:29:58Z</time>
      </trkpt>
      <trkpt lat="45.88471" lon="6.1908">
        <ele>862.920654</ele>
        <time>2010-11-13T14:30:15Z</time>
      </trkpt>
      <trkpt lat="45.88477" lon="6.19086">
        <ele>863.881836</ele>
        <time>2010-11-13T14:30:22Z</time>
      </trkpt>
      <trkpt lat="45.88481" lon="6.19093">
        <ele>865.323975</ele>
        <time>2010-11-13T14:30:30Z</time>
      </trkpt>
      <trkpt lat="45.8849" lon="6.19102">
        <ele>867.727051</ele>
        <time>2010-11-13T14:30:38Z</time>
      </trkpt>
      <trkpt lat="45.88491" lon="6.19109">
        <ele>869.649902</ele>
        <time>2010-11-13T14:30:46Z</time>
      </trkpt>
      <trkpt lat="45.88491" lon="6.19109">
        <ele>872.052979</ele>
        <time>2010-11-13T14:30:58Z</time>
      </trkpt>
      <trkpt lat="45.88483" lon="6.19108">
        <ele>873.975586</ele>
        <time>2010-11-13T14:31:06Z</time>
      </trkpt>
      <trkpt lat="45.88481" lon="6.19119">
        <ele>875.898193</ele>
        <time>2010-11-13T14:31:14Z</time>
      </trkpt>
      <trkpt lat="45.88484" lon="6.1913">
        <ele>876.859863</ele>
        <time>2010-11-13T14:31:22Z</time>
      </trkpt>
      <trkpt lat="45.88494" lon="6.19135">
        <ele>877.821045</ele>
        <time>2010-11-13T14:31:29Z</time>
      </trkpt>
      <trkpt lat="45.88498" lon="6.19139">
        <ele>878.782471</ele>
        <time>2010-11-13T14:31:34Z</time>
      </trkpt>
      <trkpt lat="45.88504" lon="6.19139">
        <ele>880.705078</ele>
        <time>2010-11-13T14:31:44Z</time>
      </trkpt>
      <trkpt lat="45.88509" lon="6.19137">
        <ele>881.185791</ele>
        <time>2010-11-13T14:31:50Z</time>
      </trkpt>
      <trkpt lat="45.88517" lon="6.19135">
        <ele>883.108154</ele>
        <time>2010-11-13T14:31:58Z</time>
      </trkpt>
      <trkpt lat="45.88527" lon="6.19131">
        <ele>884.06958</ele>
        <time>2010-11-13T14:32:08Z</time>
      </trkpt>
      <trkpt lat="45.88539" lon="6.19131">
        <ele>885.992188</ele>
        <time>2010-11-13T14:32:17Z</time>
      </trkpt>
      <trkpt lat="45.88542" lon="6.19133">
        <ele>887.434082</ele>
        <time>2010-11-13T14:32:23Z</time>
      </trkpt>
      <trkpt lat="45.88539" lon="6.19136">
        <ele>889.837402</ele>
        <time>2010-11-13T14:32:31Z</time>
      </trkpt>
      <trkpt lat="45.88535" lon="6.1914">
        <ele>889.837402</ele>
        <time>2010-11-13T14:32:37Z</time>
      </trkpt>
      <trkpt lat="45.88528" lon="6.19138">
        <ele>891.76001</ele>
        <time>2010-11-13T14:32:45Z</time>
      </trkpt>
      <trkpt lat="45.88533" lon="6.19138">
        <ele>893.202148</ele>
        <time>2010-11-13T14:32:52Z</time>
      </trkpt>
      <trkpt lat="45.88537" lon="6.19139">
        <ele>894.163574</ele>
        <time>2010-11-13T14:32:59Z</time>
      </trkpt>
      <trkpt lat="45.88543" lon="6.19138">
        <ele>895.124756</ele>
        <time>2010-11-13T14:33:04Z</time>
      </trkpt>
      <trkpt lat="45.8855" lon="6.19136">
        <ele>898.008789</ele>
        <time>2010-11-13T14:33:19Z</time>
      </trkpt>
      <trkpt lat="45.88557" lon="6.19136">
        <ele>898.969971</ele>
        <time>2010-11-13T14:33:25Z</time>
      </trkpt>
      <trkpt lat="45.88563" lon="6.19133">
        <ele>900.892578</ele>
        <time>2010-11-13T14:33:34Z</time>
      </trkpt>
      <trkpt lat="45.88571" lon="6.1913">
        <ele>901.854004</ele>
        <time>2010-11-13T14:33:40Z</time>
      </trkpt>
      <trkpt lat="45.88579" lon="6.19128">
        <ele>903.295898</ele>
        <time>2010-11-13T14:33:48Z</time>
      </trkpt>
      <trkpt lat="45.88585" lon="6.19125">
        <ele>903.776611</ele>
        <time>2010-11-13T14:33:56Z</time>
      </trkpt>
      <trkpt lat="45.88589" lon="6.1912">
        <ele>905.218506</ele>
        <time>2010-11-13T14:34:02Z</time>
      </trkpt>
      <trkpt lat="45.88596" lon="6.19115">
        <ele>906.179688</ele>
        <time>2010-11-13T14:34:09Z</time>
      </trkpt>
      <trkpt lat="45.88605" lon="6.19113">
        <ele>907.621826</ele>
        <time>2010-11-13T14:34:19Z</time>
      </trkpt>
      <trkpt lat="45.88609" lon="6.19114">
        <ele>910.025146</ele>
        <time>2010-11-13T14:34:27Z</time>
      </trkpt>
      <trkpt lat="45.88607" lon="6.19114">
        <ele>910.505859</ele>
        <time>2010-11-13T14:34:34Z</time>
      </trkpt>
      <trkpt lat="45.88604" lon="6.19111">
        <ele>912.428467</ele>
        <time>2010-11-13T14:34:42Z</time>
      </trkpt>
      <trkpt lat="45.88606" lon="6.19114">
        <ele>914.351074</ele>
        <time>2010-11-13T14:34:50Z</time>
      </trkpt>
      <trkpt lat="45.8861" lon="6.19116">
        <ele>916.754395</ele>
        <time>2010-11-13T14:34:59Z</time>
      </trkpt>
      <trkpt lat="45.8861" lon="6.1912">
        <ele>917.715576</ele>
        <time>2010-11-13T14:35:05Z</time>
      </trkpt>
      <trkpt lat="45.88608" lon="6.1912">
        <ele>918.196289</ele>
        <time>2010-11-13T14:35:10Z</time>
      </trkpt>
      <trkpt lat="45.88606" lon="6.19125">
        <ele>918.677002</ele>
        <time>2010-11-13T14:35:16Z</time>
      </trkpt>
      <trkpt lat="45.88601" lon="6.19127">
        <ele>919.157715</ele>
        <time>2010-11-13T14:35:22Z</time>
      </trkpt>
      <trkpt lat="45.88594" lon="6.19131">
        <ele>919.638428</ele>
        <time>2010-11-13T14:35:30Z</time>
      </trkpt>
      <trkpt lat="45.88595" lon="6.19136">
        <ele>921.560791</ele>
        <time>2010-11-13T14:35:38Z</time>
      </trkpt>
      <trkpt lat="45.88599" lon="6.1914">
        <ele>923.483643</ele>
        <time>2010-11-13T14:35:47Z</time>
      </trkpt>
      <trkpt lat="45.88613" lon="6.19132">
        <ele>925.40625</ele>
        <time>2010-11-13T14:36:06Z</time>
      </trkpt>
      <trkpt lat="45.88627" lon="6.19128">
        <ele>927.329102</ele>
        <time>2010-11-13T14:36:18Z</time>
      </trkpt>
      <trkpt lat="45.88631" lon="6.19129">
        <ele>928.770996</ele>
        <time>2010-11-13T14:36:24Z</time>
      </trkpt>
      <trkpt lat="45.88636" lon="6.19126">
        <ele>930.212891</ele>
        <time>2010-11-13T14:36:30Z</time>
      </trkpt>
      <trkpt lat="45.88639" lon="6.19123">
        <ele>930.693604</ele>
        <time>2010-11-13T14:36:35Z</time>
      </trkpt>
      <trkpt lat="45.88646" lon="6.19119">
        <ele>932.135498</ele>
        <time>2010-11-13T14:36:50Z</time>
      </trkpt>
      <trkpt lat="45.88649" lon="6.19109">
        <ele>935.980713</ele>
        <time>2010-11-13T14:37:02Z</time>
      </trkpt>
      <trkpt lat="45.88655" lon="6.19098">
        <ele>936.941895</ele>
        <time>2010-11-13T14:37:11Z</time>
      </trkpt>
      <trkpt lat="45.88654" lon="6.19088">
        <ele>938.384033</ele>
        <time>2010-11-13T14:37:21Z</time>
      </trkpt>
      <trkpt lat="45.88654" lon="6.19082">
        <ele>939.825928</ele>
        <time>2010-11-13T14:37:27Z</time>
      </trkpt>
      <trkpt lat="45.88653" lon="6.19076">
        <ele>941.268066</ele>
        <time>2010-11-13T14:37:34Z</time>
      </trkpt>
      <trkpt lat="45.88644" lon="6.19068">
        <ele>942.229492</ele>
        <time>2010-11-13T14:37:46Z</time>
      </trkpt>
      <trkpt lat="45.8864" lon="6.19064">
        <ele>943.190674</ele>
        <time>2010-11-13T14:37:53Z</time>
      </trkpt>
      <trkpt lat="45.88636" lon="6.19059">
        <ele>945.113281</ele>
        <time>2010-11-13T14:38:00Z</time>
      </trkpt>
      <trkpt lat="45.88632" lon="6.19058">
        <ele>947.035889</ele>
        <time>2010-11-13T14:38:07Z</time>
      </trkpt>
      <trkpt lat="45.88631" lon="6.19053">
        <ele>947.035889</ele>
        <time>2010-11-13T14:38:13Z</time>
      </trkpt>
      <trkpt lat="45.88633" lon="6.19053">
        <ele>948.958496</ele>
        <time>2010-11-13T14:38:19Z</time>
      </trkpt>
      <trkpt lat="45.88636" lon="6.19054">
        <ele>949.439209</ele>
        <time>2010-11-13T14:38:26Z</time>
      </trkpt>
      <trkpt lat="45.88638" lon="6.19058">
        <ele>949.919922</ele>
        <time>2010-11-13T14:38:33Z</time>
      </trkpt>
      <trkpt lat="45.88642" lon="6.19062">
        <ele>950.881104</ele>
        <time>2010-11-13T14:38:40Z</time>
      </trkpt>
      <trkpt lat="45.88644" lon="6.19064">
        <ele>951.361816</ele>
        <time>2010-11-13T14:38:45Z</time>
      </trkpt>
      <trkpt lat="45.8865" lon="6.19063">
        <ele>952.322998</ele>
        <time>2010-11-13T14:38:52Z</time>
      </trkpt>
      <trkpt lat="45.88656" lon="6.19067">
        <ele>954.726318</ele>
        <time>2010-11-13T14:39:04Z</time>
      </trkpt>
      <trkpt lat="45.88662" lon="6.19072">
        <ele>955.687744</ele>
        <time>2010-11-13T14:39:10Z</time>
      </trkpt>
      <trkpt lat="45.88667" lon="6.19076">
        <ele>956.64917</ele>
        <time>2010-11-13T14:39:18Z</time>
      </trkpt>
      <trkpt lat="45.88669" lon="6.1908">
        <ele>958.091309</ele>
        <time>2010-11-13T14:39:25Z</time>
      </trkpt>
      <trkpt lat="45.88672" lon="6.19083">
        <ele>959.05249</ele>
        <time>2010-11-13T14:39:28Z</time>
      </trkpt>
      <trkpt lat="45.88676" lon="6.19093">
        <ele>960.013672</ele>
        <time>2010-11-13T14:39:38Z</time>
      </trkpt>
      <trkpt lat="45.88678" lon="6.19106">
        <ele>960.975098</ele>
        <time>2010-11-13T14:39:51Z</time>
      </trkpt>
      <trkpt lat="45.8868" lon="6.1911">
        <ele>961.936523</ele>
        <time>2010-11-13T14:39:57Z</time>
      </trkpt>
      <trkpt lat="45.88682" lon="6.19117">
        <ele>963.378418</ele>
        <time>2010-11-13T14:40:04Z</time>
      </trkpt>
      <trkpt lat="45.88681" lon="6.19122">
        <ele>963.858887</ele>
        <time>2010-11-13T14:40:09Z</time>
      </trkpt>
      <trkpt lat="45.88677" lon="6.19127">
        <ele>964.820313</ele>
        <time>2010-11-13T14:40:17Z</time>
      </trkpt>
      <trkpt lat="45.88677" lon="6.19136">
        <ele>965.781738</ele>
        <time>2010-11-13T14:40:24Z</time>
      </trkpt>
      <trkpt lat="45.88677" lon="6.1914">
        <ele>965.781738</ele>
        <time>2010-11-13T14:40:27Z</time>
      </trkpt>
      <trkpt lat="45.88673" lon="6.19147">
        <ele>967.223633</ele>
        <time>2010-11-13T14:40:34Z</time>
      </trkpt>
      <trkpt lat="45.88672" lon="6.19149">
        <ele>967.704102</ele>
        <time>2010-11-13T14:40:39Z</time>
      </trkpt>
      <trkpt lat="45.88668" lon="6.19153">
        <ele>968.665527</ele>
        <time>2010-11-13T14:40:45Z</time>
      </trkpt>
      <trkpt lat="45.88662" lon="6.1916">
        <ele>970.107422</ele>
        <time>2010-11-13T14:40:53Z</time>
      </trkpt>
      <trkpt lat="45.88662" lon="6.1917">
        <ele>971.549316</ele>
        <time>2010-11-13T14:40:59Z</time>
      </trkpt>
      <trkpt lat="45.88659" lon="6.19174">
        <ele>971.549316</ele>
        <time>2010-11-13T14:41:06Z</time>
      </trkpt>
      <trkpt lat="45.88653" lon="6.19178">
        <ele>972.510986</ele>
        <time>2010-11-13T14:41:14Z</time>
      </trkpt>
      <trkpt lat="45.88651" lon="6.19185">
        <ele>973.472412</ele>
        <time>2010-11-13T14:41:20Z</time>
      </trkpt>
      <trkpt lat="45.88654" lon="6.19191">
        <ele>974.914307</ele>
        <time>2010-11-13T14:41:26Z</time>
      </trkpt>
      <trkpt lat="45.88659" lon="6.19194">
        <ele>977.317627</ele>
        <time>2010-11-13T14:41:35Z</time>
      </trkpt>
      <trkpt lat="45.88663" lon="6.19194">
        <ele>978.759521</ele>
        <time>2010-11-13T14:41:42Z</time>
      </trkpt>
      <trkpt lat="45.88669" lon="6.19194">
        <ele>980.201416</ele>
        <time>2010-11-13T14:41:50Z</time>
      </trkpt>
      <trkpt lat="45.88675" lon="6.19193">
        <ele>982.124023</ele>
        <time>2010-11-13T14:41:59Z</time>
      </trkpt>
      <trkpt lat="45.8868" lon="6.19192">
        <ele>983.565918</ele>
        <time>2010-11-13T14:42:06Z</time>
      </trkpt>
      <trkpt lat="45.8868" lon="6.19192">
        <ele>983.565918</ele>
        <time>2010-11-13T14:42:07Z</time>
      </trkpt>
      <trkpt lat="45.88685" lon="6.19192">
        <ele>985.008057</ele>
        <time>2010-11-13T14:42:14Z</time>
      </trkpt>
      <trkpt lat="45.88693" lon="6.19191">
        <ele>987.411133</ele>
        <time>2010-11-13T14:42:23Z</time>
      </trkpt>
      <trkpt lat="45.88704" lon="6.19191">
        <ele>989.333984</ele>
        <time>2010-11-13T14:42:35Z</time>
      </trkpt>
      <trkpt lat="45.88709" lon="6.19188">
        <ele>990.29541</ele>
        <time>2010-11-13T14:42:39Z</time>
      </trkpt>
      <trkpt lat="45.88714" lon="6.19185">
        <ele>992.69873</ele>
        <time>2010-11-13T14:42:48Z</time>
      </trkpt>
      <trkpt lat="45.88721" lon="6.19179">
        <ele>995.101807</ele>
        <time>2010-11-13T14:42:59Z</time>
      </trkpt>
      <trkpt lat="45.88726" lon="6.1918">
        <ele>996.063232</ele>
        <time>2010-11-13T14:43:06Z</time>
      </trkpt>
      <trkpt lat="45.88731" lon="6.19179">
        <ele>997.98584</ele>
        <time>2010-11-13T14:43:14Z</time>
      </trkpt>
      <trkpt lat="45.88735" lon="6.19172">
        <ele>1000.38916</ele>
        <time>2010-11-13T14:43:23Z</time>
      </trkpt>
      <trkpt lat="45.88739" lon="6.19169">
        <ele>1001.831055</ele>
        <time>2010-11-13T14:43:31Z</time>
      </trkpt>
      <trkpt lat="45.88744" lon="6.19169">
        <ele>1003.272949</ele>
        <time>2010-11-13T14:43:39Z</time>
      </trkpt>
      <trkpt lat="45.88748" lon="6.1917">
        <ele>1005.195801</ele>
        <time>2010-11-13T14:43:46Z</time>
      </trkpt>
      <trkpt lat="45.88756" lon="6.19167">
        <ele>1006.637695</ele>
        <time>2010-11-13T14:43:54Z</time>
      </trkpt>
      <trkpt lat="45.88759" lon="6.19163">
        <ele>1006.637695</ele>
        <time>2010-11-13T14:44:01Z</time>
      </trkpt>
      <trkpt lat="45.88761" lon="6.1915">
        <ele>1007.599121</ele>
        <time>2010-11-13T14:54:15Z</time>
      </trkpt>
      <trkpt lat="45.88762" lon="6.19146">
        <ele>1009.041016</ele>
        <time>2010-11-13T14:54:24Z</time>
      </trkpt>
      <trkpt lat="45.88763" lon="6.19143">
        <ele>1008.079834</ele>
        <time>2010-11-13T14:54:32Z</time>
      </trkpt>
      <trkpt lat="45.88764" lon="6.1914">
        <ele>1009.521729</ele>
        <time>2010-11-13T14:54:41Z</time>
      </trkpt>
      <trkpt lat="45.88767" lon="6.19133">
        <ele>1010.48291</ele>
        <time>2010-11-13T14:54:49Z</time>
      </trkpt>
      <trkpt lat="45.88767" lon="6.19126">
        <ele>1010.963623</ele>
        <time>2010-11-13T14:55:00Z</time>
      </trkpt>
      <trkpt lat="45.88769" lon="6.19121">
        <ele>1012.405518</ele>
        <time>2010-11-13T14:55:18Z</time>
      </trkpt>
      <trkpt lat="45.8877" lon="6.19109">
        <ele>1013.366943</ele>
        <time>2010-11-13T14:55:29Z</time>
      </trkpt>
      <trkpt lat="45.88771" lon="6.19101">
        <ele>1014.808838</ele>
        <time>2010-11-13T14:55:38Z</time>
      </trkpt>
      <trkpt lat="45.88773" lon="6.19091">
        <ele>1015.289551</ele>
        <time>2010-11-13T14:55:48Z</time>
      </trkpt>
      <trkpt lat="45.88772" lon="6.19083">
        <ele>1015.289551</ele>
        <time>2010-11-13T14:55:56Z</time>
      </trkpt>
      <trkpt lat="45.88774" lon="6.19075">
        <ele>1016.250732</ele>
        <time>2010-11-13T14:56:04Z</time>
      </trkpt>
      <trkpt lat="45.8877" lon="6.19073">
        <ele>1017.212158</ele>
        <time>2010-11-13T14:56:10Z</time>
      </trkpt>
      <trkpt lat="45.88765" lon="6.19066">
        <ele>1018.17334</ele>
        <time>2010-11-13T14:56:17Z</time>
      </trkpt>
      <trkpt lat="45.88758" lon="6.19057">
        <ele>1019.134766</ele>
        <time>2010-11-13T14:56:25Z</time>
      </trkpt>
      <trkpt lat="45.88757" lon="6.19051">
        <ele>1019.615479</ele>
        <time>2010-11-13T14:56:31Z</time>
      </trkpt>
      <trkpt lat="45.8876" lon="6.19035">
        <ele>1021.538086</ele>
        <time>2010-11-13T14:56:42Z</time>
      </trkpt>
      <trkpt lat="45.88764" lon="6.19025">
        <ele>1023.460938</ele>
        <time>2010-11-13T14:56:50Z</time>
      </trkpt>
      <trkpt lat="45.88769" lon="6.19022">
        <ele>1025.383301</ele>
        <time>2010-11-13T14:56:59Z</time>
      </trkpt>
      <trkpt lat="45.88772" lon="6.19022">
        <ele>1027.306152</ele>
        <time>2010-11-13T14:57:09Z</time>
      </trkpt>
      <trkpt lat="45.88771" lon="6.1902">
        <ele>1029.228516</ele>
        <time>2010-11-13T14:57:14Z</time>
      </trkpt>
      <trkpt lat="45.88771" lon="6.19016">
        <ele>1030.670654</ele>
        <time>2010-11-13T14:57:20Z</time>
      </trkpt>
      <trkpt lat="45.88773" lon="6.19008">
        <ele>1032.112549</ele>
        <time>2010-11-13T14:57:29Z</time>
      </trkpt>
      <trkpt lat="45.88772" lon="6.19">
        <ele>1033.07373</ele>
        <time>2010-11-13T14:57:37Z</time>
      </trkpt>
      <trkpt lat="45.88772" lon="6.18993">
        <ele>1034.515869</ele>
        <time>2010-11-13T14:57:46Z</time>
      </trkpt>
      <trkpt lat="45.88772" lon="6.18989">
        <ele>1036.438721</ele>
        <time>2010-11-13T14:57:53Z</time>
      </trkpt>
      <trkpt lat="45.88774" lon="6.18982">
        <ele>1037.880615</ele>
        <time>2010-11-13T14:58:00Z</time>
      </trkpt>
      <trkpt lat="45.88776" lon="6.18973">
        <ele>1038.842041</ele>
        <time>2010-11-13T14:58:09Z</time>
      </trkpt>
      <trkpt lat="45.8878" lon="6.1897">
        <ele>1040.764404</ele>
        <time>2010-11-13T14:58:16Z</time>
      </trkpt>
      <trkpt lat="45.88784" lon="6.18969">
        <ele>1041.72583</ele>
        <time>2010-11-13T14:58:23Z</time>
      </trkpt>
      <trkpt lat="45.88786" lon="6.18962">
        <ele>1042.206543</ele>
        <time>2010-11-13T14:58:29Z</time>
      </trkpt>
      <trkpt lat="45.88794" lon="6.18954">
        <ele>1044.609619</ele>
        <time>2010-11-13T14:58:40Z</time>
      </trkpt>
      <trkpt lat="45.88797" lon="6.18951">
        <ele>1046.051758</ele>
        <time>2010-11-13T14:58:47Z</time>
      </trkpt>
      <trkpt lat="45.88803" lon="6.18942">
        <ele>1046.532471</ele>
        <time>2010-11-13T14:58:55Z</time>
      </trkpt>
      <trkpt lat="45.88812" lon="6.18933">
        <ele>1047.012939</ele>
        <time>2010-11-13T14:59:04Z</time>
      </trkpt>
      <trkpt lat="45.88817" lon="6.18927">
        <ele>1047.012939</ele>
        <time>2010-11-13T14:59:10Z</time>
      </trkpt>
      <trkpt lat="45.88824" lon="6.18922">
        <ele>1048.454834</ele>
        <time>2010-11-13T14:59:17Z</time>
      </trkpt>
      <trkpt lat="45.88827" lon="6.18924">
        <ele>1048.935547</ele>
        <time>2010-11-13T14:59:23Z</time>
      </trkpt>
      <trkpt lat="45.88831" lon="6.18931">
        <ele>1050.377686</ele>
        <time>2010-11-13T14:59:29Z</time>
      </trkpt>
      <trkpt lat="45.88833" lon="6.18944">
        <ele>1052.300293</ele>
        <time>2010-11-13T14:59:38Z</time>
      </trkpt>
      <trkpt lat="45.88833" lon="6.18953">
        <ele>1053.261719</ele>
        <time>2010-11-13T14:59:47Z</time>
      </trkpt>
      <trkpt lat="45.88831" lon="6.18959">
        <ele>1054.223145</ele>
        <time>2010-11-13T14:59:55Z</time>
      </trkpt>
      <trkpt lat="45.88831" lon="6.18965">
        <ele>1055.184326</ele>
        <time>2010-11-13T15:00:02Z</time>
      </trkpt>
      <trkpt lat="45.88829" lon="6.18974">
        <ele>1056.145508</ele>
        <time>2010-11-13T15:00:10Z</time>
      </trkpt>
      <trkpt lat="45.88828" lon="6.18986">
        <ele>1057.106934</ele>
        <time>2010-11-13T15:00:19Z</time>
      </trkpt>
      <trkpt lat="45.88828" lon="6.18996">
        <ele>1059.029541</ele>
        <time>2010-11-13T15:00:27Z</time>
      </trkpt>
      <trkpt lat="45.88828" lon="6.19002">
        <ele>1059.990723</ele>
        <time>2010-11-13T15:00:36Z</time>
      </trkpt>
      <trkpt lat="45.8883" lon="6.19001">
        <ele>1062.394043</ele>
        <time>2010-11-13T15:00:44Z</time>
      </trkpt>
      <trkpt lat="45.88832" lon="6.18997">
        <ele>1063.835938</ele>
        <time>2010-11-13T15:00:52Z</time>
      </trkpt>
      <trkpt lat="45.88836" lon="6.18993">
        <ele>1066.239258</ele>
        <time>2010-11-13T15:01:01Z</time>
      </trkpt>
      <trkpt lat="45.8884" lon="6.18985">
        <ele>1066.719971</ele>
        <time>2010-11-13T15:01:11Z</time>
      </trkpt>
      <trkpt lat="45.88844" lon="6.18984">
        <ele>1069.123535</ele>
        <time>2010-11-13T15:01:19Z</time>
      </trkpt>
      <trkpt lat="45.8885" lon="6.18981">
        <ele>1070.56543</ele>
        <time>2010-11-13T15:01:27Z</time>
      </trkpt>
      <trkpt lat="45.88856" lon="6.18977">
        <ele>1071.526611</ele>
        <time>2010-11-13T15:01:35Z</time>
      </trkpt>
      <trkpt lat="45.88858" lon="6.18975">
        <ele>1072.96875</ele>
        <time>2010-11-13T15:01:42Z</time>
      </trkpt>
      <trkpt lat="45.88854" lon="6.18978">
        <ele>1074.410645</ele>
        <time>2010-11-13T15:01:51Z</time>
      </trkpt>
      <trkpt lat="45.88854" lon="6.18983">
        <ele>1076.813965</ele>
        <time>2010-11-13T15:02:01Z</time>
      </trkpt>
      <trkpt lat="45.88857" lon="6.18991">
        <ele>1078.255859</ele>
        <time>2010-11-13T15:02:12Z</time>
      </trkpt>
      <trkpt lat="45.88856" lon="6.18994">
        <ele>1078.255859</ele>
        <time>2010-11-13T15:02:37Z</time>
      </trkpt>
      <trkpt lat="45.88856" lon="6.18997">
        <ele>1078.736572</ele>
        <time>2010-11-13T15:05:37Z</time>
      </trkpt>
      <trkpt lat="45.88857" lon="6.19003">
        <ele>1080.178467</ele>
        <time>2010-11-13T15:05:47Z</time>
      </trkpt>
      <trkpt lat="45.88859" lon="6.19013">
        <ele>1081.620361</ele>
        <time>2010-11-13T15:05:57Z</time>
      </trkpt>
      <trkpt lat="45.88861" lon="6.19021">
        <ele>1082.581787</ele>
        <time>2010-11-13T15:06:07Z</time>
      </trkpt>
      <trkpt lat="45.88865" lon="6.19025">
        <ele>1082.101074</ele>
        <time>2010-11-13T15:06:15Z</time>
      </trkpt>
      <trkpt lat="45.88869" lon="6.19029">
        <ele>1082.581787</ele>
        <time>2010-11-13T15:06:24Z</time>
      </trkpt>
      <trkpt lat="45.88874" lon="6.19033">
        <ele>1084.023926</ele>
        <time>2010-11-13T15:06:34Z</time>
      </trkpt>
      <trkpt lat="45.88881" lon="6.19038">
        <ele>1085.946533</ele>
        <time>2010-11-13T15:06:44Z</time>
      </trkpt>
      <trkpt lat="45.88885" lon="6.19041">
        <ele>1086.427246</ele>
        <time>2010-11-13T15:06:51Z</time>
      </trkpt>
      <trkpt lat="45.88888" lon="6.19045">
        <ele>1087.388428</ele>
        <time>2010-11-13T15:06:59Z</time>
      </trkpt>
      <trkpt lat="45.88893" lon="6.19057">
        <ele>1087.388428</ele>
        <time>2010-11-13T15:07:09Z</time>
      </trkpt>
      <trkpt lat="45.88898" lon="6.19067">
        <ele>1087.869141</ele>
        <time>2010-11-13T15:07:17Z</time>
      </trkpt>
      <trkpt lat="45.88904" lon="6.19075">
        <ele>1089.311035</ele>
        <time>2010-11-13T15:07:27Z</time>
      </trkpt>
      <trkpt lat="45.88908" lon="6.19079">
        <ele>1091.233643</ele>
        <time>2010-11-13T15:07:35Z</time>
      </trkpt>
      <trkpt lat="45.88909" lon="6.1908">
        <ele>1092.195068</ele>
        <time>2010-11-13T15:07:39Z</time>
      </trkpt>
      <trkpt lat="45.88915" lon="6.19082">
        <ele>1094.117676</ele>
        <time>2010-11-13T15:07:48Z</time>
      </trkpt>
      <trkpt lat="45.88921" lon="6.19084">
        <ele>1095.55957</ele>
        <time>2010-11-13T15:07:57Z</time>
      </trkpt>
      <trkpt lat="45.88925" lon="6.19089">
        <ele>1095.55957</ele>
        <time>2010-11-13T15:08:05Z</time>
      </trkpt>
      <trkpt lat="45.88931" lon="6.19094">
        <ele>1096.040283</ele>
        <time>2010-11-13T15:08:15Z</time>
      </trkpt>
      <trkpt lat="45.88935" lon="6.19101">
        <ele>1097.482178</ele>
        <time>2010-11-13T15:08:25Z</time>
      </trkpt>
      <trkpt lat="45.88941" lon="6.19109">
        <ele>1098.924072</ele>
        <time>2010-11-13T15:08:32Z</time>
      </trkpt>
      <trkpt lat="45.88944" lon="6.19113">
        <ele>1100.366455</ele>
        <time>2010-11-13T15:08:39Z</time>
      </trkpt>
      <trkpt lat="45.88948" lon="6.19119">
        <ele>1101.80835</ele>
        <time>2010-11-13T15:08:50Z</time>
      </trkpt>
      <trkpt lat="45.8895" lon="6.19125">
        <ele>1103.730957</ele>
        <time>2010-11-13T15:08:58Z</time>
      </trkpt>
      <trkpt lat="45.88954" lon="6.19131">
        <ele>1105.172852</ele>
        <time>2010-11-13T15:09:08Z</time>
      </trkpt>
      <trkpt lat="45.88964" lon="6.19127">
        <ele>1108.537354</ele>
        <time>2010-11-13T15:09:28Z</time>
      </trkpt>
      <trkpt lat="45.88968" lon="6.19128">
        <ele>1109.018066</ele>
        <time>2010-11-13T15:09:36Z</time>
      </trkpt>
      <trkpt lat="45.88974" lon="6.19135">
        <ele>1110.459961</ele>
        <time>2010-11-13T15:09:44Z</time>
      </trkpt>
      <trkpt lat="45.88979" lon="6.19143">
        <ele>1112.382568</ele>
        <time>2010-11-13T15:09:52Z</time>
      </trkpt>
      <trkpt lat="45.88982" lon="6.19147">
        <ele>1113.343994</ele>
        <time>2010-11-13T15:10:00Z</time>
      </trkpt>
      <trkpt lat="45.88983" lon="6.19145">
        <ele>1115.266602</ele>
        <time>2010-11-13T15:10:09Z</time>
      </trkpt>
      <trkpt lat="45.88983" lon="6.1914">
        <ele>1118.150635</ele>
        <time>2010-11-13T15:10:23Z</time>
      </trkpt>
      <trkpt lat="45.88986" lon="6.19138">
        <ele>1119.112061</ele>
        <time>2010-11-13T15:10:33Z</time>
      </trkpt>
      <trkpt lat="45.88995" lon="6.19143">
        <ele>1121.99585</ele>
        <time>2010-11-13T15:10:47Z</time>
      </trkpt>
      <trkpt lat="45.89001" lon="6.19147">
        <ele>1122.476563</ele>
        <time>2010-11-13T15:10:55Z</time>
      </trkpt>
      <trkpt lat="45.89004" lon="6.19155">
        <ele>1123.918457</ele>
        <time>2010-11-13T15:11:02Z</time>
      </trkpt>
      <trkpt lat="45.8901" lon="6.19155">
        <ele>1125.841064</ele>
        <time>2010-11-13T15:11:13Z</time>
      </trkpt>
      <trkpt lat="45.8901" lon="6.1915">
        <ele>1126.80249</ele>
        <time>2010-11-13T15:11:22Z</time>
      </trkpt>
      <trkpt lat="45.89009" lon="6.19145">
        <ele>1127.763672</ele>
        <time>2010-11-13T15:11:30Z</time>
      </trkpt>
      <trkpt lat="45.89007" lon="6.19146">
        <ele>1129.205566</ele>
        <time>2010-11-13T15:11:41Z</time>
      </trkpt>
      <trkpt lat="45.89012" lon="6.19146">
        <ele>1129.686279</ele>
        <time>2010-11-13T15:11:48Z</time>
      </trkpt>
      <trkpt lat="45.89016" lon="6.19147">
        <ele>1130.647705</ele>
        <time>2010-11-13T15:11:56Z</time>
      </trkpt>
      <trkpt lat="45.89018" lon="6.19144">
        <ele>1132.570557</ele>
        <time>2010-11-13T15:12:06Z</time>
      </trkpt>
      <trkpt lat="45.89018" lon="6.19144">
        <ele>1133.531738</ele>
        <time>2010-11-13T15:12:14Z</time>
      </trkpt>
      <trkpt lat="45.89026" lon="6.19142">
        <ele>1135.935059</ele>
        <time>2010-11-13T15:12:26Z</time>
      </trkpt>
      <trkpt lat="45.89031" lon="6.19142">
        <ele>1137.376953</ele>
        <time>2010-11-13T15:12:33Z</time>
      </trkpt>
      <trkpt lat="45.89034" lon="6.19139">
        <ele>1138.819092</ele>
        <time>2010-11-13T15:12:41Z</time>
      </trkpt>
      <trkpt lat="45.89035" lon="6.19135">
        <ele>1140.260986</ele>
        <time>2010-11-13T15:12:50Z</time>
      </trkpt>
      <trkpt lat="45.89039" lon="6.1914">
        <ele>1142.183594</ele>
        <time>2010-11-13T15:12:57Z</time>
      </trkpt>
      <trkpt lat="45.89042" lon="6.19146">
        <ele>1142.183594</ele>
        <time>2010-11-13T15:13:06Z</time>
      </trkpt>
      <trkpt lat="45.89046" lon="6.19152">
        <ele>1144.58667</ele>
        <time>2010-11-13T15:13:16Z</time>
      </trkpt>
      <trkpt lat="45.8905" lon="6.19153">
        <ele>1145.067383</ele>
        <time>2010-11-13T15:13:24Z</time>
      </trkpt>
      <trkpt lat="45.89055" lon="6.19152">
        <ele>1145.548096</ele>
        <time>2010-11-13T15:13:32Z</time>
      </trkpt>
      <trkpt lat="45.89061" lon="6.19147">
        <ele>1146.98999</ele>
        <time>2010-11-13T15:15:36Z</time>
      </trkpt>
      <trkpt lat="45.89062" lon="6.19141">
        <ele>1148.432129</ele>
        <time>2010-11-13T15:15:45Z</time>
      </trkpt>
      <trkpt lat="45.89063" lon="6.19132">
        <ele>1149.393555</ele>
        <time>2010-11-13T15:15:54Z</time>
      </trkpt>
      <trkpt lat="45.89065" lon="6.19132">
        <ele>1151.316162</ele>
        <time>2010-11-13T15:16:01Z</time>
      </trkpt>
      <trkpt lat="45.8907" lon="6.19133">
        <ele>1154.200195</ele>
        <time>2010-11-13T15:16:11Z</time>
      </trkpt>
      <trkpt lat="45.89075" lon="6.19132">
        <ele>1155.161377</ele>
        <time>2010-11-13T15:16:21Z</time>
      </trkpt>
      <trkpt lat="45.89079" lon="6.19127">
        <ele>1156.122559</ele>
        <time>2010-11-13T15:16:28Z</time>
      </trkpt>
      <trkpt lat="45.89084" lon="6.19125">
        <ele>1157.083984</ele>
        <time>2010-11-13T15:16:36Z</time>
      </trkpt>
      <trkpt lat="45.89089" lon="6.19121">
        <ele>1158.525879</ele>
        <time>2010-11-13T15:16:43Z</time>
      </trkpt>
      <trkpt lat="45.89091" lon="6.19116">
        <ele>1159.006592</ele>
        <time>2010-11-13T15:16:50Z</time>
      </trkpt>
      <trkpt lat="45.89088" lon="6.19116">
        <ele>1159.967773</ele>
        <time>2010-11-13T15:16:59Z</time>
      </trkpt>
      <trkpt lat="45.89086" lon="6.19113">
        <ele>1160.929199</ele>
        <time>2010-11-13T15:17:06Z</time>
      </trkpt>
      <trkpt lat="45.89083" lon="6.19113">
        <ele>1162.851807</ele>
        <time>2010-11-13T15:17:16Z</time>
      </trkpt>
      <trkpt lat="45.89088" lon="6.19109">
        <ele>1163.812988</ele>
        <time>2010-11-13T15:17:24Z</time>
      </trkpt>
      <trkpt lat="45.89093" lon="6.19108">
        <ele>1165.255371</ele>
        <time>2010-11-13T15:17:32Z</time>
      </trkpt>
      <trkpt lat="45.891" lon="6.19103">
        <ele>1167.658447</ele>
        <time>2010-11-13T15:17:42Z</time>
      </trkpt>
      <trkpt lat="45.89096" lon="6.19102">
        <ele>1169.100586</ele>
        <time>2010-11-13T15:17:49Z</time>
      </trkpt>
      <trkpt lat="45.89093" lon="6.19101">
        <ele>1170.061768</ele>
        <time>2010-11-13T15:17:57Z</time>
      </trkpt>
      <trkpt lat="45.89096" lon="6.19099">
        <ele>1171.503662</ele>
        <time>2010-11-13T15:18:05Z</time>
      </trkpt>
      <trkpt lat="45.891" lon="6.19095">
        <ele>1171.984375</ele>
        <time>2010-11-13T15:18:12Z</time>
      </trkpt>
      <trkpt lat="45.89105" lon="6.19094">
        <ele>1173.426514</ele>
        <time>2010-11-13T15:18:18Z</time>
      </trkpt>
      <trkpt lat="45.89111" lon="6.19092">
        <ele>1174.387695</ele>
        <time>2010-11-13T15:18:25Z</time>
      </trkpt>
      <trkpt lat="45.89116" lon="6.19089">
        <ele>1175.82959</ele>
        <time>2010-11-13T15:18:32Z</time>
      </trkpt>
      <trkpt lat="45.89117" lon="6.19085">
        <ele>1177.752197</ele>
        <time>2010-11-13T15:18:40Z</time>
      </trkpt>
      <trkpt lat="45.89115" lon="6.19085">
        <ele>1179.674805</ele>
        <time>2010-11-13T15:18:47Z</time>
      </trkpt>
      <trkpt lat="45.89109" lon="6.19089">
        <ele>1181.597656</ele>
        <time>2010-11-13T15:18:57Z</time>
      </trkpt>
      <trkpt lat="45.89103" lon="6.1909">
        <ele>1183.039551</ele>
        <time>2010-11-13T15:19:06Z</time>
      </trkpt>
      <trkpt lat="45.891" lon="6.19088">
        <ele>1184.481689</ele>
        <time>2010-11-13T15:19:14Z</time>
      </trkpt>
      <trkpt lat="45.89093" lon="6.19087">
        <ele>1185.923584</ele>
        <time>2010-11-13T15:19:23Z</time>
      </trkpt>
      <trkpt lat="45.89087" lon="6.19085">
        <ele>1188.807617</ele>
        <time>2010-11-13T15:19:31Z</time>
      </trkpt>
      <trkpt lat="45.89081" lon="6.19083">
        <ele>1189.768799</ele>
        <time>2010-11-13T15:19:38Z</time>
      </trkpt>
      <trkpt lat="45.89077" lon="6.19076">
        <ele>1190.72998</ele>
        <time>2010-11-13T15:19:47Z</time>
      </trkpt>
      <trkpt lat="45.89073" lon="6.19071">
        <ele>1192.172119</ele>
        <time>2010-11-13T15:19:55Z</time>
      </trkpt>
      <trkpt lat="45.89068" lon="6.19069">
        <ele>1193.614014</ele>
        <time>2010-11-13T15:20:03Z</time>
      </trkpt>
      <trkpt lat="45.89068" lon="6.19061">
        <ele>1195.055908</ele>
        <time>2010-11-13T15:20:12Z</time>
      </trkpt>
      <trkpt lat="45.89063" lon="6.19061">
        <ele>1197.459473</ele>
        <time>2010-11-13T15:20:20Z</time>
      </trkpt>
      <trkpt lat="45.89057" lon="6.1906">
        <ele>1198.420654</ele>
        <time>2010-11-13T15:20:28Z</time>
      </trkpt>
      <trkpt lat="45.89059" lon="6.19055">
        <ele>1199.38208</ele>
        <time>2010-11-13T15:20:34Z</time>
      </trkpt>
      <trkpt lat="45.89056" lon="6.1905">
        <ele>1200.343506</ele>
        <time>2010-11-13T15:20:42Z</time>
      </trkpt>
      <trkpt lat="45.89056" lon="6.19047">
        <ele>1202.265869</ele>
        <time>2010-11-13T15:20:47Z</time>
      </trkpt>
      <trkpt lat="45.89054" lon="6.1904">
        <ele>1203.708008</ele>
        <time>2010-11-13T15:20:56Z</time>
      </trkpt>
      <trkpt lat="45.89054" lon="6.19035">
        <ele>1205.630615</ele>
        <time>2010-11-13T15:21:03Z</time>
      </trkpt>
      <trkpt lat="45.89057" lon="6.19026">
        <ele>1208.033936</ele>
        <time>2010-11-13T15:21:13Z</time>
      </trkpt>
      <trkpt lat="45.89061" lon="6.19022">
        <ele>1209.47583</ele>
        <time>2010-11-13T15:21:22Z</time>
      </trkpt>
      <trkpt lat="45.89063" lon="6.1903">
        <ele>1210.437012</ele>
        <time>2010-11-13T15:21:30Z</time>
      </trkpt>
      <trkpt lat="45.89071" lon="6.19033">
        <ele>1212.359863</ele>
        <time>2010-11-13T15:21:40Z</time>
      </trkpt>
      <trkpt lat="45.89072" lon="6.19029">
        <ele>1213.321289</ele>
        <time>2010-11-13T15:21:48Z</time>
      </trkpt>
      <trkpt lat="45.89069" lon="6.19022">
        <ele>1214.763184</ele>
        <time>2010-11-13T15:21:57Z</time>
      </trkpt>
      <trkpt lat="45.89073" lon="6.1902">
        <ele>1216.685791</ele>
        <time>2010-11-13T15:22:05Z</time>
      </trkpt>
      <trkpt lat="45.89079" lon="6.1902">
        <ele>1219.089111</ele>
        <time>2010-11-13T15:22:14Z</time>
      </trkpt>
      <trkpt lat="45.89084" lon="6.19017">
        <ele>1220.531006</ele>
        <time>2010-11-13T15:22:22Z</time>
      </trkpt>
      <trkpt lat="45.89081" lon="6.19013">
        <ele>1222.453613</ele>
        <time>2010-11-13T15:22:25Z</time>
      </trkpt>
      <trkpt lat="45.89078" lon="6.19005">
        <ele>1223.895508</ele>
        <time>2010-11-13T15:22:34Z</time>
      </trkpt>
      <trkpt lat="45.8908" lon="6.19">
        <ele>1224.856934</ele>
        <time>2010-11-13T15:22:44Z</time>
      </trkpt>
      <trkpt lat="45.89083" lon="6.19004">
        <ele>1226.779541</ele>
        <time>2010-11-13T15:22:52Z</time>
      </trkpt>
      <trkpt lat="45.89084" lon="6.18998">
        <ele>1228.22168</ele>
        <time>2010-11-13T15:23:00Z</time>
      </trkpt>
      <trkpt lat="45.89086" lon="6.18992">
        <ele>1229.663574</ele>
        <time>2010-11-13T15:23:08Z</time>
      </trkpt>
      <trkpt lat="45.8909" lon="6.18985">
        <ele>1231.586182</ele>
        <time>2010-11-13T15:23:17Z</time>
      </trkpt>
      <trkpt lat="45.89094" lon="6.18978">
        <ele>1233.508789</ele>
        <time>2010-11-13T15:23:27Z</time>
      </trkpt>
      <trkpt lat="45.89096" lon="6.18972">
        <ele>1235.912109</ele>
        <time>2010-11-13T15:23:37Z</time>
      </trkpt>
      <trkpt lat="45.89096" lon="6.18968">
        <ele>1237.834717</ele>
        <time>2010-11-13T15:23:45Z</time>
      </trkpt>
      <trkpt lat="45.89097" lon="6.18966">
        <ele>1238.796143</ele>
        <time>2010-11-13T15:23:56Z</time>
      </trkpt>
      <trkpt lat="45.89099" lon="6.18965">
        <ele>1240.238037</ele>
        <time>2010-11-13T15:24:05Z</time>
      </trkpt>
      <trkpt lat="45.89102" lon="6.18962">
        <ele>1244.083496</ele>
        <time>2010-11-13T15:24:14Z</time>
      </trkpt>
      <trkpt lat="45.89105" lon="6.18957">
        <ele>1246.006104</ele>
        <time>2010-11-13T15:24:24Z</time>
      </trkpt>
      <trkpt lat="45.8911" lon="6.18954">
        <ele>1247.928711</ele>
        <time>2010-11-13T15:24:33Z</time>
      </trkpt>
      <trkpt lat="45.89113" lon="6.18951">
        <ele>1247.928711</ele>
        <time>2010-11-13T15:24:36Z</time>
      </trkpt>
      <trkpt lat="45.89122" lon="6.18946">
        <ele>1248.40918</ele>
        <time>2010-11-13T15:24:47Z</time>
      </trkpt>
      <trkpt lat="45.8913" lon="6.18944">
        <ele>1249.370605</ele>
        <time>2010-11-13T15:24:57Z</time>
      </trkpt>
      <trkpt lat="45.89133" lon="6.18953">
        <ele>1251.293213</ele>
        <time>2010-11-13T15:25:05Z</time>
      </trkpt>
      <trkpt lat="45.89131" lon="6.18963">
        <ele>1252.254395</ele>
        <time>2010-11-13T15:25:15Z</time>
      </trkpt>
      <trkpt lat="45.89135" lon="6.18958">
        <ele>1253.696533</ele>
        <time>2010-11-13T15:25:23Z</time>
      </trkpt>
      <trkpt lat="45.89139" lon="6.18955">
        <ele>1255.138428</ele>
        <time>2010-11-13T15:25:32Z</time>
      </trkpt>
      <trkpt lat="45.89141" lon="6.18951">
        <ele>1256.580322</ele>
        <time>2010-11-13T15:25:39Z</time>
      </trkpt>
      <trkpt lat="45.89145" lon="6.18946">
        <ele>1258.022461</ele>
        <time>2010-11-13T15:25:48Z</time>
      </trkpt>
      <trkpt lat="45.89151" lon="6.18941">
        <ele>1260.425781</ele>
        <time>2010-11-13T15:25:58Z</time>
      </trkpt>
      <trkpt lat="45.89159" lon="6.18936">
        <ele>1262.348389</ele>
        <time>2010-11-13T15:26:09Z</time>
      </trkpt>
      <trkpt lat="45.89166" lon="6.18933">
        <ele>1263.309814</ele>
        <time>2010-11-13T15:26:19Z</time>
      </trkpt>
      <trkpt lat="45.89169" lon="6.18934">
        <ele>1262.829102</ele>
        <time>2010-11-13T15:40:08Z</time>
      </trkpt>
      <trkpt lat="45.89175" lon="6.18938">
        <ele>1261.86792</ele>
        <time>2010-11-13T15:40:17Z</time>
      </trkpt>
      <trkpt lat="45.89182" lon="6.18935">
        <ele>1262.348389</ele>
        <time>2010-11-13T15:40:25Z</time>
      </trkpt>
      <trkpt lat="45.89189" lon="6.18928">
        <ele>1261.86792</ele>
        <time>2010-11-13T15:40:35Z</time>
      </trkpt>
      <trkpt lat="45.89193" lon="6.18928">
        <ele>1261.387207</ele>
        <time>2010-11-13T15:40:39Z</time>
      </trkpt>
      <trkpt lat="45.89202" lon="6.18929">
        <ele>1261.387207</ele>
        <time>2010-11-13T15:40:51Z</time>
      </trkpt>
      <trkpt lat="45.89208" lon="6.18929">
        <ele>1261.387207</ele>
        <time>2010-11-13T15:43:06Z</time>
      </trkpt>
      <trkpt lat="45.89222" lon="6.1892">
        <ele>1261.387207</ele>
        <time>2010-11-13T15:43:20Z</time>
      </trkpt>
      <trkpt lat="45.89233" lon="6.18913">
        <ele>1260.425781</ele>
        <time>2010-11-13T15:43:32Z</time>
      </trkpt>
      <trkpt lat="45.89244" lon="6.18903">
        <ele>1258.983643</ele>
        <time>2010-11-13T15:43:45Z</time>
      </trkpt>
      <trkpt lat="45.89255" lon="6.18903">
        <ele>1257.541748</ele>
        <time>2010-11-13T15:43:56Z</time>
      </trkpt>
      <trkpt lat="45.8926" lon="6.18903">
        <ele>1256.099609</ele>
        <time>2010-11-13T15:44:05Z</time>
      </trkpt>
      <trkpt lat="45.89267" lon="6.18902">
        <ele>1253.696533</ele>
        <time>2010-11-13T15:44:15Z</time>
      </trkpt>
      <trkpt lat="45.89271" lon="6.18897">
        <ele>1251.293213</ele>
        <time>2010-11-13T15:44:24Z</time>
      </trkpt>
      <trkpt lat="45.89279" lon="6.18896">
        <ele>1250.332031</ele>
        <time>2010-11-13T15:44:32Z</time>
      </trkpt>
      <trkpt lat="45.89286" lon="6.18893">
        <ele>1248.889893</ele>
        <time>2010-11-13T15:44:41Z</time>
      </trkpt>
      <trkpt lat="45.89293" lon="6.18887">
        <ele>1247.928711</ele>
        <time>2010-11-13T15:44:50Z</time>
      </trkpt>
      <trkpt lat="45.89297" lon="6.18884">
        <ele>1247.447998</ele>
        <time>2010-11-13T15:44:59Z</time>
      </trkpt>
      <trkpt lat="45.893" lon="6.18883">
        <ele>1247.447998</ele>
        <time>2010-11-13T15:45:05Z</time>
      </trkpt>
      <trkpt lat="45.89309" lon="6.18875">
        <ele>1247.928711</ele>
        <time>2010-11-13T15:45:16Z</time>
      </trkpt>
      <trkpt lat="45.8931" lon="6.18874">
        <ele>1248.889893</ele>
        <time>2010-11-13T15:45:18Z</time>
      </trkpt>
      <trkpt lat="45.89313" lon="6.18872">
        <ele>1249.370605</ele>
        <time>2010-11-13T15:45:22Z</time>
      </trkpt>
      <trkpt lat="45.89322" lon="6.1887">
        <ele>1250.332031</ele>
        <time>2010-11-13T15:45:33Z</time>
      </trkpt>
      <trkpt lat="45.89327" lon="6.18869">
        <ele>1248.889893</ele>
        <time>2010-11-13T15:45:38Z</time>
      </trkpt>
      <trkpt lat="45.89334" lon="6.18865">
        <ele>1249.370605</ele>
        <time>2010-11-13T15:45:45Z</time>
      </trkpt>
      <trkpt lat="45.89344" lon="6.18861">
        <ele>1249.370605</ele>
        <time>2010-11-13T15:45:55Z</time>
      </trkpt>
      <trkpt lat="45.89354" lon="6.18859">
        <ele>1248.889893</ele>
        <time>2010-11-13T15:46:05Z</time>
      </trkpt>
      <trkpt lat="45.89364" lon="6.18857">
        <ele>1249.370605</ele>
        <time>2010-11-13T15:46:14Z</time>
      </trkpt>
      <trkpt lat="45.89367" lon="6.18851">
        <ele>1250.332031</ele>
        <time>2010-11-13T15:46:22Z</time>
      </trkpt>
      <trkpt lat="45.8937" lon="6.1885">
        <ele>1251.293213</ele>
        <time>2010-11-13T15:46:25Z</time>
      </trkpt>
      <trkpt lat="45.89376" lon="6.18844">
        <ele>1252.735107</ele>
        <time>2010-11-13T15:46:35Z</time>
      </trkpt>
      <trkpt lat="45.89379" lon="6.18844">
        <ele>1252.735107</ele>
        <time>2010-11-13T15:46:39Z</time>
      </trkpt>
      <trkpt lat="45.89382" lon="6.18844">
        <ele>1252.254395</ele>
        <time>2010-11-13T15:46:42Z</time>
      </trkpt>
      <trkpt lat="45.8939" lon="6.1884">
        <ele>1254.177246</ele>
        <time>2010-11-13T15:46:52Z</time>
      </trkpt>
      <trkpt lat="45.89395" lon="6.18835">
        <ele>1255.619141</ele>
        <time>2010-11-13T15:47:01Z</time>
      </trkpt>
      <trkpt lat="45.89404" lon="6.18831">
        <ele>1256.580322</ele>
        <time>2010-11-13T15:47:11Z</time>
      </trkpt>
      <trkpt lat="45.8941" lon="6.18825">
        <ele>1259.464355</ele>
        <time>2010-11-13T15:47:21Z</time>
      </trkpt>
      <trkpt lat="45.89418" lon="6.18822">
        <ele>1260.906494</ele>
        <time>2010-11-13T15:47:30Z</time>
      </trkpt>
      <trkpt lat="45.89426" lon="6.18818">
        <ele>1259.464355</ele>
        <time>2010-11-13T15:47:39Z</time>
      </trkpt>
      <trkpt lat="45.89434" lon="6.18816">
        <ele>1258.983643</ele>
        <time>2010-11-13T15:47:49Z</time>
      </trkpt>
      <trkpt lat="45.89439" lon="6.18813">
        <ele>1259.464355</ele>
        <time>2010-11-13T15:47:58Z</time>
      </trkpt>
      <trkpt lat="45.89442" lon="6.18811">
        <ele>1258.983643</ele>
        <time>2010-11-13T15:48:04Z</time>
      </trkpt>
      <trkpt lat="45.89447" lon="6.1881">
        <ele>1258.50293</ele>
        <time>2010-11-13T15:48:11Z</time>
      </trkpt>
      <trkpt lat="45.89455" lon="6.18805">
        <ele>1258.983643</ele>
        <time>2010-11-13T15:48:21Z</time>
      </trkpt>
      <trkpt lat="45.89458" lon="6.18802">
        <ele>1257.061035</ele>
        <time>2010-11-13T15:48:28Z</time>
      </trkpt>
      <trkpt lat="45.89463" lon="6.18805">
        <ele>1257.061035</ele>
        <time>2010-11-13T15:48:36Z</time>
      </trkpt>
      <trkpt lat="45.89465" lon="6.18805">
        <ele>1255.619141</ele>
        <time>2010-11-13T15:48:42Z</time>
      </trkpt>
      <trkpt lat="45.89469" lon="6.18804">
        <ele>1254.177246</ele>
        <time>2010-11-13T15:48:49Z</time>
      </trkpt>
      <trkpt lat="45.89471" lon="6.18798">
        <ele>1254.657715</ele>
        <time>2010-11-13T15:48:57Z</time>
      </trkpt>
      <trkpt lat="45.89475" lon="6.18797">
        <ele>1255.138428</ele>
        <time>2010-11-13T15:49:08Z</time>
      </trkpt>
      <trkpt lat="45.89483" lon="6.18797">
        <ele>1257.061035</ele>
        <time>2010-11-13T15:49:19Z</time>
      </trkpt>
      <trkpt lat="45.89489" lon="6.18794">
        <ele>1260.906494</ele>
        <time>2010-11-13T15:49:29Z</time>
      </trkpt>
      <trkpt lat="45.89494" lon="6.18793">
        <ele>1262.348389</ele>
        <time>2010-11-13T15:49:37Z</time>
      </trkpt>
      <trkpt lat="45.89497" lon="6.18788">
        <ele>1264.270996</ele>
        <time>2010-11-13T15:49:47Z</time>
      </trkpt>
      <trkpt lat="45.89493" lon="6.18784">
        <ele>1265.713135</ele>
        <time>2010-11-13T15:49:56Z</time>
      </trkpt>
      <trkpt lat="45.89491" lon="6.1878">
        <ele>1266.674316</ele>
        <time>2010-11-13T15:50:04Z</time>
      </trkpt>
      <trkpt lat="45.89491" lon="6.18774">
        <ele>1269.077637</ele>
        <time>2010-11-13T15:50:13Z</time>
      </trkpt>
      <trkpt lat="45.89494" lon="6.18771">
        <ele>1271.000244</ele>
        <time>2010-11-13T15:50:20Z</time>
      </trkpt>
      <trkpt lat="45.89496" lon="6.18769">
        <ele>1271.480713</ele>
        <time>2010-11-13T15:50:28Z</time>
      </trkpt>
      <trkpt lat="45.89497" lon="6.18772">
        <ele>1272.442139</ele>
        <time>2010-11-13T15:50:37Z</time>
      </trkpt>
      <trkpt lat="45.89501" lon="6.18772">
        <ele>1273.403564</ele>
        <time>2010-11-13T15:50:45Z</time>
      </trkpt>
      <trkpt lat="45.89506" lon="6.18769">
        <ele>1274.364746</ele>
        <time>2010-11-13T15:50:55Z</time>
      </trkpt>
      <trkpt lat="45.8951" lon="6.18763">
        <ele>1276.287598</ele>
        <time>2010-11-13T15:51:04Z</time>
      </trkpt>
      <trkpt lat="45.89514" lon="6.18764">
        <ele>1274.845459</ele>
        <time>2010-11-13T15:51:12Z</time>
      </trkpt>
      <trkpt lat="45.89519" lon="6.18763">
        <ele>1274.364746</ele>
        <time>2010-11-13T15:51:21Z</time>
      </trkpt>
      <trkpt lat="45.89523" lon="6.18764">
        <ele>1271.480713</ele>
        <time>2010-11-13T15:51:30Z</time>
      </trkpt>
      <trkpt lat="45.89524" lon="6.18765">
        <ele>1271.480713</ele>
        <time>2010-11-13T15:51:31Z</time>
      </trkpt>
      <trkpt lat="45.89528" lon="6.18768">
        <ele>1271.000244</ele>
        <time>2010-11-13T15:51:40Z</time>
      </trkpt>
      <trkpt lat="45.89531" lon="6.18767">
        <ele>1271.480713</ele>
        <time>2010-11-13T15:51:50Z</time>
      </trkpt>
      <trkpt lat="45.89541" lon="6.18764">
        <ele>1271.961426</ele>
        <time>2010-11-13T15:52:01Z</time>
      </trkpt>
      <trkpt lat="45.89548" lon="6.1876">
        <ele>1273.403564</ele>
        <time>2010-11-13T15:52:11Z</time>
      </trkpt>
      <trkpt lat="45.89552" lon="6.18755">
        <ele>1274.364746</ele>
        <time>2010-11-13T15:52:20Z</time>
      </trkpt>
      <trkpt lat="45.89557" lon="6.18751">
        <ele>1276.287598</ele>
        <time>2010-11-13T15:52:29Z</time>
      </trkpt>
      <trkpt lat="45.89562" lon="6.1875">
        <ele>1274.845459</ele>
        <time>2010-11-13T15:52:38Z</time>
      </trkpt>
      <trkpt lat="45.89568" lon="6.18745">
        <ele>1274.845459</ele>
        <time>2010-11-13T15:52:45Z</time>
      </trkpt>
      <trkpt lat="45.89576" lon="6.18734">
        <ele>1275.325928</ele>
        <time>2010-11-13T15:52:57Z</time>
      </trkpt>
      <trkpt lat="45.89584" lon="6.18729">
        <ele>1277.249023</ele>
        <time>2010-11-13T15:53:07Z</time>
      </trkpt>
      <trkpt lat="45.89587" lon="6.18729">
        <ele>1279.6521</ele>
        <time>2010-11-13T15:53:14Z</time>
      </trkpt>
      <trkpt lat="45.89588" lon="6.18729">
        <ele>1280.132813</ele>
        <time>2010-11-13T15:53:15Z</time>
      </trkpt>
      <trkpt lat="45.89595" lon="6.18731">
        <ele>1281.574707</ele>
        <time>2010-11-13T15:53:25Z</time>
      </trkpt>
      <trkpt lat="45.89599" lon="6.18731">
        <ele>1283.497314</ele>
        <time>2010-11-13T15:53:34Z</time>
      </trkpt>
      <trkpt lat="45.89601" lon="6.18732">
        <ele>1284.939453</ele>
        <time>2010-11-13T15:53:37Z</time>
      </trkpt>
      <trkpt lat="45.89605" lon="6.18729">
        <ele>1285.900635</ele>
        <time>2010-11-13T15:53:46Z</time>
      </trkpt>
      <trkpt lat="45.8961" lon="6.18726">
        <ele>1288.303955</ele>
        <time>2010-11-13T15:53:55Z</time>
      </trkpt>
      <trkpt lat="45.89614" lon="6.1872">
        <ele>1290.707031</ele>
        <time>2010-11-13T15:54:04Z</time>
      </trkpt>
      <trkpt lat="45.89615" lon="6.18717">
        <ele>1292.149414</ele>
        <time>2010-11-13T15:54:12Z</time>
      </trkpt>
      <trkpt lat="45.89621" lon="6.18713">
        <ele>1294.072021</ele>
        <time>2010-11-13T15:54:21Z</time>
      </trkpt>
      <trkpt lat="45.89625" lon="6.18708">
        <ele>1295.994629</ele>
        <time>2010-11-13T15:54:30Z</time>
      </trkpt>
      <trkpt lat="45.89627" lon="6.18704">
        <ele>1297.436523</ele>
        <time>2010-11-13T15:54:37Z</time>
      </trkpt>
      <trkpt lat="45.89632" lon="6.187">
        <ele>1299.839844</ele>
        <time>2010-11-13T15:54:47Z</time>
      </trkpt>
      <trkpt lat="45.89638" lon="6.18697">
        <ele>1300.320557</ele>
        <time>2010-11-13T15:54:56Z</time>
      </trkpt>
      <trkpt lat="45.89648" lon="6.18695">
        <ele>1299.359131</ele>
        <time>2010-11-13T15:55:06Z</time>
      </trkpt>
      <trkpt lat="45.89654" lon="6.18694">
        <ele>1301.762451</ele>
        <time>2010-11-13T15:55:15Z</time>
      </trkpt>
      <trkpt lat="45.89658" lon="6.18689">
        <ele>1303.204346</ele>
        <time>2010-11-13T15:55:23Z</time>
      </trkpt>
      <trkpt lat="45.89666" lon="6.18688">
        <ele>1303.204346</ele>
        <time>2010-11-13T15:55:31Z</time>
      </trkpt>
      <trkpt lat="45.89673" lon="6.18683">
        <ele>1303.685059</ele>
        <time>2010-11-13T15:55:40Z</time>
      </trkpt>
      <trkpt lat="45.89675" lon="6.18673">
        <ele>1305.607666</ele>
        <time>2010-11-13T15:55:49Z</time>
      </trkpt>
      <trkpt lat="45.89677" lon="6.18665">
        <ele>1306.088135</ele>
        <time>2010-11-13T15:55:56Z</time>
      </trkpt>
      <trkpt lat="45.89679" lon="6.18657">
        <ele>1306.568848</ele>
        <time>2010-11-13T15:56:05Z</time>
      </trkpt>
      <trkpt lat="45.89681" lon="6.18655">
        <ele>1307.049561</ele>
        <time>2010-11-13T15:56:13Z</time>
      </trkpt>
      <trkpt lat="45.8968" lon="6.18656">
        <ele>1307.049561</ele>
        <time>2010-11-13T15:56:25Z</time>
      </trkpt>
      <trkpt lat="45.89677" lon="6.18658">
        <ele>1306.568848</ele>
        <time>2010-11-13T15:56:38Z</time>
      </trkpt>
      <trkpt lat="45.89675" lon="6.18672">
        <ele>1306.568848</ele>
        <time>2010-11-13T16:06:19Z</time>
      </trkpt>
      <trkpt lat="45.89675" lon="6.18676">
        <ele>1306.088135</ele>
        <time>2010-11-13T16:06:27Z</time>
      </trkpt>
      <trkpt lat="45.8967" lon="6.18685">
        <ele>1304.64624</ele>
        <time>2010-11-13T16:06:37Z</time>
      </trkpt>
      <trkpt lat="45.89661" lon="6.18689">
        <ele>1304.165771</ele>
        <time>2010-11-13T16:06:48Z</time>
      </trkpt>
      <trkpt lat="45.89656" lon="6.18691">
        <ele>1302.723633</ele>
        <time>2010-11-13T16:06:57Z</time>
      </trkpt>
      <trkpt lat="45.89652" lon="6.18695">
        <ele>1301.762451</ele>
        <time>2010-11-13T16:07:05Z</time>
      </trkpt>
      <trkpt lat="45.89651" lon="6.18696">
        <ele>1300.801025</ele>
        <time>2010-11-13T16:07:07Z</time>
      </trkpt>
      <trkpt lat="45.89649" lon="6.18696">
        <ele>1300.801025</ele>
        <time>2010-11-13T16:07:09Z</time>
      </trkpt>
      <trkpt lat="45.8964" lon="6.18699">
        <ele>1300.801025</ele>
        <time>2010-11-13T16:07:19Z</time>
      </trkpt>
      <trkpt lat="45.89636" lon="6.18701">
        <ele>1301.281738</ele>
        <time>2010-11-13T16:07:26Z</time>
      </trkpt>
      <trkpt lat="45.89632" lon="6.18703">
        <ele>1300.801025</ele>
        <time>2010-11-13T16:07:34Z</time>
      </trkpt>
      <trkpt lat="45.89629" lon="6.18706">
        <ele>1299.359131</ele>
        <time>2010-11-13T16:07:42Z</time>
      </trkpt>
      <trkpt lat="45.89627" lon="6.18708">
        <ele>1297.917236</ele>
        <time>2010-11-13T16:07:50Z</time>
      </trkpt>
      <trkpt lat="45.89625" lon="6.18711">
        <ele>1296.475342</ele>
        <time>2010-11-13T16:07:58Z</time>
      </trkpt>
      <trkpt lat="45.89623" lon="6.18713">
        <ele>1295.994629</ele>
        <time>2010-11-13T16:08:01Z</time>
      </trkpt>
      <trkpt lat="45.89617" lon="6.18718">
        <ele>1293.591309</ele>
        <time>2010-11-13T16:08:10Z</time>
      </trkpt>
      <trkpt lat="45.89617" lon="6.18719">
        <ele>1293.591309</ele>
        <time>2010-11-13T16:08:22Z</time>
      </trkpt>
      <trkpt lat="45.89616" lon="6.18721">
        <ele>1292.149414</ele>
        <time>2010-11-13T16:08:33Z</time>
      </trkpt>
      <trkpt lat="45.89612" lon="6.18728">
        <ele>1290.226563</ele>
        <time>2010-11-13T16:08:43Z</time>
      </trkpt>
      <trkpt lat="45.89611" lon="6.18729">
        <ele>1289.265137</ele>
        <time>2010-11-13T16:08:45Z</time>
      </trkpt>
      <trkpt lat="45.89605" lon="6.18734">
        <ele>1286.381348</ele>
        <time>2010-11-13T16:08:54Z</time>
      </trkpt>
      <trkpt lat="45.89604" lon="6.18736">
        <ele>1285.900635</ele>
        <time>2010-11-13T16:08:56Z</time>
      </trkpt>
      <trkpt lat="45.89599" lon="6.18735">
        <ele>1283.978027</ele>
        <time>2010-11-13T16:09:04Z</time>
      </trkpt>
      <trkpt lat="45.89593" lon="6.18733">
        <ele>1281.094238</ele>
        <time>2010-11-13T16:09:12Z</time>
      </trkpt>
      <trkpt lat="45.89587" lon="6.18732">
        <ele>1278.690918</ele>
        <time>2010-11-13T16:09:20Z</time>
      </trkpt>
      <trkpt lat="45.89582" lon="6.18734">
        <ele>1277.249023</ele>
        <time>2010-11-13T16:09:27Z</time>
      </trkpt>
      <trkpt lat="45.89578" lon="6.18739">
        <ele>1276.768311</ele>
        <time>2010-11-13T16:09:33Z</time>
      </trkpt>
      <trkpt lat="45.89576" lon="6.18743">
        <ele>1276.768311</ele>
        <time>2010-11-13T16:09:37Z</time>
      </trkpt>
      <trkpt lat="45.89567" lon="6.18751">
        <ele>1276.768311</ele>
        <time>2010-11-13T16:09:47Z</time>
      </trkpt>
      <trkpt lat="45.89561" lon="6.18752">
        <ele>1277.249023</ele>
        <time>2010-11-13T16:09:56Z</time>
      </trkpt>
      <trkpt lat="45.89555" lon="6.18756">
        <ele>1276.287598</ele>
        <time>2010-11-13T16:10:05Z</time>
      </trkpt>
      <trkpt lat="45.89552" lon="6.1876">
        <ele>1274.845459</ele>
        <time>2010-11-13T16:10:13Z</time>
      </trkpt>
      <trkpt lat="45.89543" lon="6.18765">
        <ele>1273.403564</ele>
        <time>2010-11-13T16:10:23Z</time>
      </trkpt>
      <trkpt lat="45.89541" lon="6.18766">
        <ele>1272.922852</ele>
        <time>2010-11-13T16:10:25Z</time>
      </trkpt>
      <trkpt lat="45.89528" lon="6.18765">
        <ele>1272.442139</ele>
        <time>2010-11-13T16:10:37Z</time>
      </trkpt>
      <trkpt lat="45.89524" lon="6.18764">
        <ele>1274.364746</ele>
        <time>2010-11-13T16:10:45Z</time>
      </trkpt>
      <trkpt lat="45.89518" lon="6.18765">
        <ele>1275.325928</ele>
        <time>2010-11-13T16:10:54Z</time>
      </trkpt>
      <trkpt lat="45.89512" lon="6.18764">
        <ele>1276.768311</ele>
        <time>2010-11-13T16:11:03Z</time>
      </trkpt>
      <trkpt lat="45.8951" lon="6.18768">
        <ele>1275.325928</ele>
        <time>2010-11-13T16:11:09Z</time>
      </trkpt>
      <trkpt lat="45.89506" lon="6.18771">
        <ele>1274.845459</ele>
        <time>2010-11-13T16:11:16Z</time>
      </trkpt>
      <trkpt lat="45.89499" lon="6.18773">
        <ele>1272.442139</ele>
        <time>2010-11-13T16:11:25Z</time>
      </trkpt>
      <trkpt lat="45.89497" lon="6.18769">
        <ele>1271.961426</ele>
        <time>2010-11-13T16:11:31Z</time>
      </trkpt>
      <trkpt lat="45.89495" lon="6.18774">
        <ele>1270.519531</ele>
        <time>2010-11-13T16:11:39Z</time>
      </trkpt>
      <trkpt lat="45.89494" lon="6.18775">
        <ele>1270.038818</ele>
        <time>2010-11-13T16:11:50Z</time>
      </trkpt>
      <trkpt lat="45.89494" lon="6.18779">
        <ele>1269.077637</ele>
        <time>2010-11-13T16:11:58Z</time>
      </trkpt>
      <trkpt lat="45.89496" lon="6.18784">
        <ele>1266.674316</ele>
        <time>2010-11-13T16:12:07Z</time>
      </trkpt>
      <trkpt lat="45.89501" lon="6.18788">
        <ele>1265.232422</ele>
        <time>2010-11-13T16:12:15Z</time>
      </trkpt>
      <trkpt lat="45.89501" lon="6.18789">
        <ele>1264.751709</ele>
        <time>2010-11-13T16:12:16Z</time>
      </trkpt>
      <trkpt lat="45.89496" lon="6.18793">
        <ele>1262.348389</ele>
        <time>2010-11-13T16:12:23Z</time>
      </trkpt>
      <trkpt lat="45.89492" lon="6.18795">
        <ele>1260.906494</ele>
        <time>2010-11-13T16:12:31Z</time>
      </trkpt>
      <trkpt lat="45.89489" lon="6.18797">
        <ele>1259.464355</ele>
        <time>2010-11-13T16:12:34Z</time>
      </trkpt>
      <trkpt lat="45.89483" lon="6.18798">
        <ele>1258.022461</ele>
        <time>2010-11-13T16:12:41Z</time>
      </trkpt>
      <trkpt lat="45.89474" lon="6.18799">
        <ele>1255.619141</ele>
        <time>2010-11-13T16:12:52Z</time>
      </trkpt>
      <trkpt lat="45.89474" lon="6.18799">
        <ele>1255.138428</ele>
        <time>2010-11-13T16:12:55Z</time>
      </trkpt>
      <trkpt lat="45.89471" lon="6.18802">
        <ele>1255.619141</ele>
        <time>2010-11-13T16:13:03Z</time>
      </trkpt>
      <trkpt lat="45.89468" lon="6.18803">
        <ele>1255.138428</ele>
        <time>2010-11-13T16:13:15Z</time>
      </trkpt>
      <trkpt lat="45.89469" lon="6.18805">
        <ele>1257.061035</ele>
        <time>2010-11-13T16:13:54Z</time>
      </trkpt>
      <trkpt lat="45.89464" lon="6.18804">
        <ele>1258.50293</ele>
        <time>2010-11-13T16:14:00Z</time>
      </trkpt>
      <trkpt lat="45.89459" lon="6.18802">
        <ele>1259.464355</ele>
        <time>2010-11-13T16:14:08Z</time>
      </trkpt>
      <trkpt lat="45.89456" lon="6.18806">
        <ele>1259.944824</ele>
        <time>2010-11-13T16:14:16Z</time>
      </trkpt>
      <trkpt lat="45.89448" lon="6.18811">
        <ele>1259.944824</ele>
        <time>2010-11-13T16:14:26Z</time>
      </trkpt>
      <trkpt lat="45.89442" lon="6.18812">
        <ele>1260.425781</ele>
        <time>2010-11-13T16:14:35Z</time>
      </trkpt>
      <trkpt lat="45.89437" lon="6.18816">
        <ele>1260.906494</ele>
        <time>2010-11-13T16:14:43Z</time>
      </trkpt>
      <trkpt lat="45.89431" lon="6.18818">
        <ele>1260.425781</ele>
        <time>2010-11-13T16:14:51Z</time>
      </trkpt>
      <trkpt lat="45.89424" lon="6.1882">
        <ele>1260.425781</ele>
        <time>2010-11-13T16:15:00Z</time>
      </trkpt>
      <trkpt lat="45.89418" lon="6.18824">
        <ele>1260.906494</ele>
        <time>2010-11-13T16:15:08Z</time>
      </trkpt>
      <trkpt lat="45.89411" lon="6.18827">
        <ele>1260.906494</ele>
        <time>2010-11-13T16:15:17Z</time>
      </trkpt>
      <trkpt lat="45.89406" lon="6.18832">
        <ele>1259.464355</ele>
        <time>2010-11-13T16:15:25Z</time>
      </trkpt>
      <trkpt lat="45.89403" lon="6.18834">
        <ele>1258.50293</ele>
        <time>2010-11-13T16:15:29Z</time>
      </trkpt>
      <trkpt lat="45.89396" lon="6.18837">
        <ele>1256.099609</ele>
        <time>2010-11-13T16:15:38Z</time>
      </trkpt>
      <trkpt lat="45.89388" lon="6.18844">
        <ele>1254.657715</ele>
        <time>2010-11-13T16:15:48Z</time>
      </trkpt>
      <trkpt lat="45.89379" lon="6.18846">
        <ele>1253.696533</ele>
        <time>2010-11-13T16:15:57Z</time>
      </trkpt>
      <trkpt lat="45.89373" lon="6.18849">
        <ele>1253.21582</ele>
        <time>2010-11-13T16:16:06Z</time>
      </trkpt>
      <trkpt lat="45.89366" lon="6.18852">
        <ele>1252.254395</ele>
        <time>2010-11-13T16:16:14Z</time>
      </trkpt>
      <trkpt lat="45.89366" lon="6.18853">
        <ele>1251.773926</ele>
        <time>2010-11-13T16:16:15Z</time>
      </trkpt>
      <trkpt lat="45.89365" lon="6.18857">
        <ele>1250.332031</ele>
        <time>2010-11-13T16:16:18Z</time>
      </trkpt>
      <trkpt lat="45.89363" lon="6.18859">
        <ele>1249.370605</ele>
        <time>2010-11-13T16:16:20Z</time>
      </trkpt>
      <trkpt lat="45.89361" lon="6.1886">
        <ele>1249.851318</ele>
        <time>2010-11-13T16:16:22Z</time>
      </trkpt>
      <trkpt lat="45.89352" lon="6.18863">
        <ele>1250.332031</ele>
        <time>2010-11-13T16:16:30Z</time>
      </trkpt>
      <trkpt lat="45.89342" lon="6.18864">
        <ele>1251.293213</ele>
        <time>2010-11-13T16:16:41Z</time>
      </trkpt>
      <trkpt lat="45.89333" lon="6.1887">
        <ele>1249.370605</ele>
        <time>2010-11-13T16:16:52Z</time>
      </trkpt>
      <trkpt lat="45.89324" lon="6.18873">
        <ele>1251.293213</ele>
        <time>2010-11-13T16:17:01Z</time>
      </trkpt>
      <trkpt lat="45.89316" lon="6.18876">
        <ele>1249.851318</ele>
        <time>2010-11-13T16:17:09Z</time>
      </trkpt>
      <trkpt lat="45.89313" lon="6.18878">
        <ele>1250.332031</ele>
        <time>2010-11-13T16:17:11Z</time>
      </trkpt>
      <trkpt lat="45.89308" lon="6.18879">
        <ele>1250.332031</ele>
        <time>2010-11-13T16:17:15Z</time>
      </trkpt>
      <trkpt lat="45.89306" lon="6.18881">
        <ele>1248.889893</ele>
        <time>2010-11-13T16:17:18Z</time>
      </trkpt>
      <trkpt lat="45.89298" lon="6.1889">
        <ele>1248.889893</ele>
        <time>2010-11-13T16:17:28Z</time>
      </trkpt>
      <trkpt lat="45.89295" lon="6.18892">
        <ele>1249.370605</ele>
        <time>2010-11-13T16:17:31Z</time>
      </trkpt>
      <trkpt lat="45.89291" lon="6.18896">
        <ele>1250.332031</ele>
        <time>2010-11-13T16:17:37Z</time>
      </trkpt>
      <trkpt lat="45.89279" lon="6.18899">
        <ele>1251.293213</ele>
        <time>2010-11-13T16:17:50Z</time>
      </trkpt>
      <trkpt lat="45.89274" lon="6.189">
        <ele>1253.21582</ele>
        <time>2010-11-13T16:17:57Z</time>
      </trkpt>
      <trkpt lat="45.89269" lon="6.18904">
        <ele>1254.657715</ele>
        <time>2010-11-13T16:18:06Z</time>
      </trkpt>
      <trkpt lat="45.89263" lon="6.18903">
        <ele>1257.061035</ele>
        <time>2010-11-13T16:18:14Z</time>
      </trkpt>
      <trkpt lat="45.8926" lon="6.18903">
        <ele>1257.541748</ele>
        <time>2010-11-13T16:18:20Z</time>
      </trkpt>
      <trkpt lat="45.89252" lon="6.18903">
        <ele>1259.944824</ele>
        <time>2010-11-13T16:18:29Z</time>
      </trkpt>
      <trkpt lat="45.89239" lon="6.18903">
        <ele>1260.425781</ele>
        <time>2010-11-13T16:18:42Z</time>
      </trkpt>
      <trkpt lat="45.89237" lon="6.18905">
        <ele>1261.387207</ele>
        <time>2010-11-13T16:18:45Z</time>
      </trkpt>
      <trkpt lat="45.89229" lon="6.18916">
        <ele>1262.829102</ele>
        <time>2010-11-13T16:18:56Z</time>
      </trkpt>
      <trkpt lat="45.89218" lon="6.1892">
        <ele>1263.309814</ele>
        <time>2010-11-13T16:19:07Z</time>
      </trkpt>
      <trkpt lat="45.89208" lon="6.18923">
        <ele>1263.309814</ele>
        <time>2010-11-13T16:19:19Z</time>
      </trkpt>
      <trkpt lat="45.89206" lon="6.18922">
        <ele>1263.309814</ele>
        <time>2010-11-13T16:19:27Z</time>
      </trkpt>
      <trkpt lat="45.89204" lon="6.18929">
        <ele>1263.309814</ele>
        <time>2010-11-13T16:19:41Z</time>
      </trkpt>
      <trkpt lat="45.89199" lon="6.18931">
        <ele>1261.86792</ele>
        <time>2010-11-13T16:22:33Z</time>
      </trkpt>
      <trkpt lat="45.89193" lon="6.18928">
        <ele>1261.387207</ele>
        <time>2010-11-13T16:22:43Z</time>
      </trkpt>
      <trkpt lat="45.89186" lon="6.1893">
        <ele>1262.829102</ele>
        <time>2010-11-13T16:22:53Z</time>
      </trkpt>
      <trkpt lat="45.89183" lon="6.18934">
        <ele>1263.790283</ele>
        <time>2010-11-13T16:22:58Z</time>
      </trkpt>
      <trkpt lat="45.89179" lon="6.18939">
        <ele>1262.829102</ele>
        <time>2010-11-13T16:23:04Z</time>
      </trkpt>
      <trkpt lat="45.89172" lon="6.18936">
        <ele>1262.829102</ele>
        <time>2010-11-13T16:23:13Z</time>
      </trkpt>
      <trkpt lat="45.89168" lon="6.18935">
        <ele>1264.270996</ele>
        <time>2010-11-13T16:23:19Z</time>
      </trkpt>
      <trkpt lat="45.89159" lon="6.18939">
        <ele>1262.829102</ele>
        <time>2010-11-13T16:23:30Z</time>
      </trkpt>
      <trkpt lat="45.89148" lon="6.18946">
        <ele>1260.425781</ele>
        <time>2010-11-13T16:23:42Z</time>
      </trkpt>
      <trkpt lat="45.89142" lon="6.18951">
        <ele>1258.022461</ele>
        <time>2010-11-13T16:23:51Z</time>
      </trkpt>
      <trkpt lat="45.89141" lon="6.18952">
        <ele>1258.50293</ele>
        <time>2010-11-13T16:23:52Z</time>
      </trkpt>
      <trkpt lat="45.89139" lon="6.18957">
        <ele>1256.580322</ele>
        <time>2010-11-13T16:23:58Z</time>
      </trkpt>
      <trkpt lat="45.89135" lon="6.1896">
        <ele>1254.657715</ele>
        <time>2010-11-13T16:24:06Z</time>
      </trkpt>
      <trkpt lat="45.89135" lon="6.18962">
        <ele>1253.696533</ele>
        <time>2010-11-13T16:24:07Z</time>
      </trkpt>
      <trkpt lat="45.89132" lon="6.18965">
        <ele>1252.735107</ele>
        <time>2010-11-13T16:24:11Z</time>
      </trkpt>
      <trkpt lat="45.8913" lon="6.18962">
        <ele>1252.254395</ele>
        <time>2010-11-13T16:24:15Z</time>
      </trkpt>
      <trkpt lat="45.89132" lon="6.18951">
        <ele>1251.293213</ele>
        <time>2010-11-13T16:24:24Z</time>
      </trkpt>
      <trkpt lat="45.89132" lon="6.1895">
        <ele>1251.773926</ele>
        <time>2010-11-13T16:24:25Z</time>
      </trkpt>
      <trkpt lat="45.89127" lon="6.18946">
        <ele>1249.851318</ele>
        <time>2010-11-13T16:24:34Z</time>
      </trkpt>
      <trkpt lat="45.89124" lon="6.18947">
        <ele>1249.370605</ele>
        <time>2010-11-13T16:24:41Z</time>
      </trkpt>
      <trkpt lat="45.89124" lon="6.18947">
        <ele>1249.370605</ele>
        <time>2010-11-13T16:24:42Z</time>
      </trkpt>
      <trkpt lat="45.89111" lon="6.18954">
        <ele>1247.928711</ele>
        <time>2010-11-13T16:24:55Z</time>
      </trkpt>
      <trkpt lat="45.89104" lon="6.1896">
        <ele>1247.447998</ele>
        <time>2010-11-13T16:25:06Z</time>
      </trkpt>
      <trkpt lat="45.89102" lon="6.18963">
        <ele>1244.083496</ele>
        <time>2010-11-13T16:25:13Z</time>
      </trkpt>
      <trkpt lat="45.89099" lon="6.18968">
        <ele>1241.679932</ele>
        <time>2010-11-13T16:25:25Z</time>
      </trkpt>
      <trkpt lat="45.89097" lon="6.18969">
        <ele>1239.757324</ele>
        <time>2010-11-13T16:25:32Z</time>
      </trkpt>
      <trkpt lat="45.89097" lon="6.18966">
        <ele>1239.276611</ele>
        <time>2010-11-13T16:25:38Z</time>
      </trkpt>
      <trkpt lat="45.89096" lon="6.18969">
        <ele>1237.834717</ele>
        <time>2010-11-13T16:25:46Z</time>
      </trkpt>
      <trkpt lat="45.89096" lon="6.18973">
        <ele>1237.834717</ele>
        <time>2010-11-13T16:25:53Z</time>
      </trkpt>
      <trkpt lat="45.89095" lon="6.18977">
        <ele>1235.912109</ele>
        <time>2010-11-13T16:26:02Z</time>
      </trkpt>
      <trkpt lat="45.89091" lon="6.18987">
        <ele>1232.547607</ele>
        <time>2010-11-13T16:26:12Z</time>
      </trkpt>
      <trkpt lat="45.89086" lon="6.18997">
        <ele>1230.625</ele>
        <time>2010-11-13T16:26:24Z</time>
      </trkpt>
      <trkpt lat="45.89084" lon="6.19005">
        <ele>1228.22168</ele>
        <time>2010-11-13T16:26:32Z</time>
      </trkpt>
      <trkpt lat="45.89084" lon="6.19005">
        <ele>1227.740723</ele>
        <time>2010-11-13T16:26:33Z</time>
      </trkpt>
      <trkpt lat="45.89082" lon="6.19009">
        <ele>1226.298828</ele>
        <time>2010-11-13T16:26:41Z</time>
      </trkpt>
      <trkpt lat="45.8908" lon="6.19004">
        <ele>1225.818115</ele>
        <time>2010-11-13T16:26:49Z</time>
      </trkpt>
      <trkpt lat="45.8908" lon="6.19012">
        <ele>1224.376221</ele>
        <time>2010-11-13T16:26:59Z</time>
      </trkpt>
      <trkpt lat="45.89085" lon="6.19019">
        <ele>1221.492188</ele>
        <time>2010-11-13T16:27:10Z</time>
      </trkpt>
      <trkpt lat="45.89084" lon="6.1902">
        <ele>1221.011719</ele>
        <time>2010-11-13T16:27:17Z</time>
      </trkpt>
      <trkpt lat="45.89079" lon="6.19022">
        <ele>1219.569824</ele>
        <time>2010-11-13T16:27:27Z</time>
      </trkpt>
      <trkpt lat="45.89075" lon="6.19022">
        <ele>1218.608398</ele>
        <time>2010-11-13T16:27:34Z</time>
      </trkpt>
      <trkpt lat="45.8907" lon="6.19022">
        <ele>1217.166504</ele>
        <time>2010-11-13T16:27:42Z</time>
      </trkpt>
      <trkpt lat="45.89071" lon="6.19028">
        <ele>1215.724609</ele>
        <time>2010-11-13T16:27:49Z</time>
      </trkpt>
      <trkpt lat="45.89073" lon="6.19033">
        <ele>1214.282471</ele>
        <time>2010-11-13T16:27:56Z</time>
      </trkpt>
      <trkpt lat="45.89065" lon="6.19034">
        <ele>1211.87915</ele>
        <time>2010-11-13T16:28:05Z</time>
      </trkpt>
      <trkpt lat="45.89061" lon="6.19023">
        <ele>1209.956299</ele>
        <time>2010-11-13T16:28:15Z</time>
      </trkpt>
      <trkpt lat="45.89059" lon="6.1902">
        <ele>1209.956299</ele>
        <time>2010-11-13T16:28:19Z</time>
      </trkpt>
      <trkpt lat="45.89056" lon="6.19031">
        <ele>1208.033936</ele>
        <time>2010-11-13T16:28:29Z</time>
      </trkpt>
      <trkpt lat="45.89055" lon="6.19034">
        <ele>1206.111084</ele>
        <time>2010-11-13T16:28:33Z</time>
      </trkpt>
      <trkpt lat="45.89055" lon="6.1904">
        <ele>1204.188721</ele>
        <time>2010-11-13T16:28:40Z</time>
      </trkpt>
      <trkpt lat="45.89057" lon="6.19049">
        <ele>1202.746582</ele>
        <time>2010-11-13T16:28:48Z</time>
      </trkpt>
      <trkpt lat="45.89059" lon="6.19053">
        <ele>1201.304688</ele>
        <time>2010-11-13T16:28:55Z</time>
      </trkpt>
      <trkpt lat="45.89057" lon="6.19059">
        <ele>1200.343506</ele>
        <time>2010-11-13T16:29:02Z</time>
      </trkpt>
      <trkpt lat="45.8906" lon="6.1906">
        <ele>1199.38208</ele>
        <time>2010-11-13T16:29:09Z</time>
      </trkpt>
      <trkpt lat="45.89063" lon="6.19059">
        <ele>1198.901367</ele>
        <time>2010-11-13T16:29:13Z</time>
      </trkpt>
      <trkpt lat="45.89068" lon="6.19062">
        <ele>1196.498291</ele>
        <time>2010-11-13T16:29:22Z</time>
      </trkpt>
      <trkpt lat="45.89068" lon="6.19066">
        <ele>1194.575195</ele>
        <time>2010-11-13T16:29:30Z</time>
      </trkpt>
      <trkpt lat="45.89074" lon="6.19066">
        <ele>1193.133301</ele>
        <time>2010-11-13T16:29:40Z</time>
      </trkpt>
      <trkpt lat="45.89075" lon="6.19068">
        <ele>1192.172119</ele>
        <time>2010-11-13T16:29:48Z</time>
      </trkpt>
      <trkpt lat="45.89077" lon="6.1907">
        <ele>1191.210693</ele>
        <time>2010-11-13T16:29:54Z</time>
      </trkpt>
      <trkpt lat="45.89078" lon="6.1907">
        <ele>1191.210693</ele>
        <time>2010-11-13T16:29:55Z</time>
      </trkpt>
      <trkpt lat="45.89085" lon="6.19072">
        <ele>1188.807617</ele>
        <time>2010-11-13T16:30:04Z</time>
      </trkpt>
      <trkpt lat="45.8909" lon="6.19072">
        <ele>1186.884766</ele>
        <time>2010-11-13T16:30:11Z</time>
      </trkpt>
      <trkpt lat="45.89091" lon="6.19073">
        <ele>1186.884766</ele>
        <time>2010-11-13T16:30:12Z</time>
      </trkpt>
      <trkpt lat="45.89097" lon="6.19074">
        <ele>1184.962402</ele>
        <time>2010-11-13T16:30:22Z</time>
      </trkpt>
      <trkpt lat="45.89101" lon="6.19076">
        <ele>1182.559082</ele>
        <time>2010-11-13T16:30:30Z</time>
      </trkpt>
      <trkpt lat="45.89105" lon="6.19077">
        <ele>1181.597656</ele>
        <time>2010-11-13T16:30:38Z</time>
      </trkpt>
      <trkpt lat="45.89112" lon="6.19076">
        <ele>1180.636475</ele>
        <time>2010-11-13T16:30:47Z</time>
      </trkpt>
      <trkpt lat="45.89116" lon="6.19077">
        <ele>1179.194092</ele>
        <time>2010-11-13T16:30:55Z</time>
      </trkpt>
      <trkpt lat="45.89119" lon="6.1908">
        <ele>1178.23291</ele>
        <time>2010-11-13T16:31:07Z</time>
      </trkpt>
      <trkpt lat="45.89121" lon="6.19082">
        <ele>1177.271729</ele>
        <time>2010-11-13T16:31:14Z</time>
      </trkpt>
      <trkpt lat="45.89118" lon="6.19086">
        <ele>1175.82959</ele>
        <time>2010-11-13T16:31:22Z</time>
      </trkpt>
      <trkpt lat="45.89114" lon="6.19088">
        <ele>1174.387695</ele>
        <time>2010-11-13T16:31:30Z</time>
      </trkpt>
      <trkpt lat="45.89108" lon="6.1909">
        <ele>1172.945801</ele>
        <time>2010-11-13T16:31:39Z</time>
      </trkpt>
      <trkpt lat="45.89101" lon="6.19092">
        <ele>1170.061768</ele>
        <time>2010-11-13T16:31:49Z</time>
      </trkpt>
      <trkpt lat="45.89098" lon="6.19093">
        <ele>1169.100586</ele>
        <time>2010-11-13T16:31:57Z</time>
      </trkpt>
      <trkpt lat="45.89102" lon="6.19095">
        <ele>1167.658447</ele>
        <time>2010-11-13T16:32:06Z</time>
      </trkpt>
      <trkpt lat="45.89103" lon="6.19103">
        <ele>1167.177979</ele>
        <time>2010-11-13T16:32:19Z</time>
      </trkpt>
      <trkpt lat="45.89104" lon="6.19104">
        <ele>1166.697266</ele>
        <time>2010-11-13T16:32:26Z</time>
      </trkpt>
      <trkpt lat="45.89097" lon="6.19106">
        <ele>1164.774658</ele>
        <time>2010-11-13T16:32:37Z</time>
      </trkpt>
      <trkpt lat="45.89089" lon="6.19106">
        <ele>1163.33252</ele>
        <time>2010-11-13T16:32:45Z</time>
      </trkpt>
      <trkpt lat="45.8909" lon="6.19109">
        <ele>1162.371094</ele>
        <time>2010-11-13T16:32:52Z</time>
      </trkpt>
      <trkpt lat="45.89092" lon="6.19113">
        <ele>1160.929199</ele>
        <time>2010-11-13T16:32:59Z</time>
      </trkpt>
      <trkpt lat="45.89094" lon="6.19116">
        <ele>1159.487305</ele>
        <time>2010-11-13T16:33:05Z</time>
      </trkpt>
      <trkpt lat="45.89097" lon="6.19124">
        <ele>1157.564697</ele>
        <time>2010-11-13T16:33:12Z</time>
      </trkpt>
      <trkpt lat="45.89092" lon="6.1913">
        <ele>1156.603271</ele>
        <time>2010-11-13T16:33:20Z</time>
      </trkpt>
      <trkpt lat="45.89084" lon="6.19136">
        <ele>1154.200195</ele>
        <time>2010-11-13T16:33:30Z</time>
      </trkpt>
      <trkpt lat="45.89079" lon="6.19137">
        <ele>1153.23877</ele>
        <time>2010-11-13T16:33:37Z</time>
      </trkpt>
      <trkpt lat="45.89071" lon="6.19138">
        <ele>1151.316162</ele>
        <time>2010-11-13T16:33:47Z</time>
      </trkpt>
      <trkpt lat="45.89066" lon="6.19137">
        <ele>1149.874268</ele>
        <time>2010-11-13T16:33:54Z</time>
      </trkpt>
      <trkpt lat="45.89065" lon="6.19138">
        <ele>1148.912842</ele>
        <time>2010-11-13T16:34:01Z</time>
      </trkpt>
      <trkpt lat="45.89065" lon="6.19141">
        <ele>1147.951416</ele>
        <time>2010-11-13T16:34:10Z</time>
      </trkpt>
      <trkpt lat="45.89064" lon="6.19146">
        <ele>1146.509521</ele>
        <time>2010-11-13T16:34:17Z</time>
      </trkpt>
      <trkpt lat="45.8906" lon="6.19156">
        <ele>1145.067383</ele>
        <time>2010-11-13T16:34:26Z</time>
      </trkpt>
      <trkpt lat="45.89057" lon="6.19157">
        <ele>1145.067383</ele>
        <time>2010-11-13T16:34:32Z</time>
      </trkpt>
      <trkpt lat="45.89049" lon="6.19161">
        <ele>1144.106201</ele>
        <time>2010-11-13T16:34:49Z</time>
      </trkpt>
      <trkpt lat="45.89043" lon="6.19152">
        <ele>1142.183594</ele>
        <time>2010-11-13T16:35:37Z</time>
      </trkpt>
      <trkpt lat="45.89039" lon="6.19146">
        <ele>1140.741455</ele>
        <time>2010-11-13T16:35:45Z</time>
      </trkpt>
      <trkpt lat="45.89039" lon="6.19147">
        <ele>1138.819092</ele>
        <time>2010-11-13T16:35:51Z</time>
      </trkpt>
      <trkpt lat="45.89035" lon="6.19146">
        <ele>1135.935059</ele>
        <time>2010-11-13T16:35:58Z</time>
      </trkpt>
      <trkpt lat="45.89034" lon="6.19146">
        <ele>1135.454346</ele>
        <time>2010-11-13T16:35:59Z</time>
      </trkpt>
      <trkpt lat="45.89026" lon="6.19142">
        <ele>1134.012451</ele>
        <time>2010-11-13T16:36:08Z</time>
      </trkpt>
      <trkpt lat="45.89023" lon="6.19142">
        <ele>1132.570557</ele>
        <time>2010-11-13T16:36:14Z</time>
      </trkpt>
      <trkpt lat="45.89024" lon="6.19148">
        <ele>1131.128418</ele>
        <time>2010-11-13T16:36:21Z</time>
      </trkpt>
      <trkpt lat="45.89018" lon="6.19144">
        <ele>1129.686279</ele>
        <time>2010-11-13T16:36:28Z</time>
      </trkpt>
      <trkpt lat="45.89013" lon="6.19137">
        <ele>1128.244385</ele>
        <time>2010-11-13T16:36:36Z</time>
      </trkpt>
      <trkpt lat="45.89012" lon="6.19139">
        <ele>1126.80249</ele>
        <time>2010-11-13T16:36:43Z</time>
      </trkpt>
      <trkpt lat="45.89011" lon="6.19143">
        <ele>1124.39917</ele>
        <time>2010-11-13T16:36:51Z</time>
      </trkpt>
      <trkpt lat="45.89006" lon="6.19147">
        <ele>1121.99585</ele>
        <time>2010-11-13T16:37:00Z</time>
      </trkpt>
      <trkpt lat="45.89001" lon="6.19143">
        <ele>1121.034668</ele>
        <time>2010-11-13T16:37:07Z</time>
      </trkpt>
      <trkpt lat="45.88993" lon="6.19137">
        <ele>1120.073242</ele>
        <time>2010-11-13T16:37:16Z</time>
      </trkpt>
      <trkpt lat="45.88987" lon="6.19137">
        <ele>1117.669922</ele>
        <time>2010-11-13T16:37:24Z</time>
      </trkpt>
      <trkpt lat="45.88986" lon="6.1914">
        <ele>1115.266602</ele>
        <time>2010-11-13T16:37:33Z</time>
      </trkpt>
      <trkpt lat="45.88989" lon="6.19146">
        <ele>1113.824463</ele>
        <time>2010-11-13T16:37:41Z</time>
      </trkpt>
      <trkpt lat="45.88988" lon="6.19147">
        <ele>1111.9021</ele>
        <time>2010-11-13T16:37:47Z</time>
      </trkpt>
      <trkpt lat="45.88982" lon="6.19144">
        <ele>1109.979248</ele>
        <time>2010-11-13T16:37:54Z</time>
      </trkpt>
      <trkpt lat="45.88977" lon="6.19139">
        <ele>1108.056885</ele>
        <time>2010-11-13T16:38:02Z</time>
      </trkpt>
      <trkpt lat="45.88968" lon="6.19137">
        <ele>1107.095459</ele>
        <time>2010-11-13T16:38:11Z</time>
      </trkpt>
      <trkpt lat="45.88961" lon="6.19134">
        <ele>1104.21167</ele>
        <time>2010-11-13T16:38:20Z</time>
      </trkpt>
      <trkpt lat="45.88955" lon="6.19129">
        <ele>1103.250244</ele>
        <time>2010-11-13T16:38:29Z</time>
      </trkpt>
      <trkpt lat="45.88949" lon="6.19123">
        <ele>1099.885498</ele>
        <time>2010-11-13T16:38:38Z</time>
      </trkpt>
      <trkpt lat="45.88948" lon="6.19122">
        <ele>1099.404785</ele>
        <time>2010-11-13T16:38:39Z</time>
      </trkpt>
      <trkpt lat="45.88942" lon="6.19108">
        <ele>1097.482178</ele>
        <time>2010-11-13T16:38:48Z</time>
      </trkpt>
      <trkpt lat="45.88935" lon="6.19099">
        <ele>1097.482178</ele>
        <time>2010-11-13T16:38:58Z</time>
      </trkpt>
      <trkpt lat="45.88925" lon="6.19093">
        <ele>1096.040283</ele>
        <time>2010-11-13T16:39:09Z</time>
      </trkpt>
      <trkpt lat="45.88921" lon="6.19093">
        <ele>1094.598145</ele>
        <time>2010-11-13T16:39:13Z</time>
      </trkpt>
      <trkpt lat="45.88913" lon="6.19089">
        <ele>1092.195068</ele>
        <time>2010-11-13T16:39:22Z</time>
      </trkpt>
      <trkpt lat="45.8891" lon="6.19087">
        <ele>1090.75293</ele>
        <time>2010-11-13T16:39:27Z</time>
      </trkpt>
      <trkpt lat="45.88903" lon="6.19075">
        <ele>1088.830566</ele>
        <time>2010-11-13T16:39:37Z</time>
      </trkpt>
      <trkpt lat="45.88898" lon="6.19065">
        <ele>1087.388428</ele>
        <time>2010-11-13T16:39:46Z</time>
      </trkpt>
      <trkpt lat="45.88894" lon="6.19058">
        <ele>1086.427246</ele>
        <time>2010-11-13T16:39:54Z</time>
      </trkpt>
      <trkpt lat="45.88888" lon="6.19051">
        <ele>1085.46582</ele>
        <time>2010-11-13T16:40:02Z</time>
      </trkpt>
      <trkpt lat="45.88881" lon="6.19046">
        <ele>1084.023926</ele>
        <time>2010-11-13T16:40:11Z</time>
      </trkpt>
      <trkpt lat="45.88878" lon="6.19043">
        <ele>1083.062256</ele>
        <time>2010-11-13T16:40:16Z</time>
      </trkpt>
      <trkpt lat="45.88866" lon="6.19039">
        <ele>1081.139893</ele>
        <time>2010-11-13T16:40:27Z</time>
      </trkpt>
      <trkpt lat="45.88861" lon="6.19033">
        <ele>1081.139893</ele>
        <time>2010-11-13T16:40:35Z</time>
      </trkpt>
      <trkpt lat="45.88859" lon="6.19025">
        <ele>1080.178467</ele>
        <time>2010-11-13T16:40:43Z</time>
      </trkpt>
      <trkpt lat="45.88859" lon="6.19014">
        <ele>1078.255859</ele>
        <time>2010-11-13T16:40:52Z</time>
      </trkpt>
      <trkpt lat="45.8886" lon="6.19005">
        <ele>1075.852539</ele>
        <time>2010-11-13T16:41:00Z</time>
      </trkpt>
      <trkpt lat="45.8886" lon="6.19004">
        <ele>1075.852539</ele>
        <time>2010-11-13T16:41:01Z</time>
      </trkpt>
      <trkpt lat="45.88862" lon="6.19">
        <ele>1073.929932</ele>
        <time>2010-11-13T16:41:10Z</time>
      </trkpt>
      <trkpt lat="45.88862" lon="6.18995">
        <ele>1072.96875</ele>
        <time>2010-11-13T16:41:19Z</time>
      </trkpt>
      <trkpt lat="45.88863" lon="6.18991">
        <ele>1071.046143</ele>
        <time>2010-11-13T16:41:27Z</time>
      </trkpt>
      <trkpt lat="45.88865" lon="6.18987">
        <ele>1069.604248</ele>
        <time>2010-11-13T16:41:34Z</time>
      </trkpt>
      <trkpt lat="45.88863" lon="6.18985">
        <ele>1068.642822</ele>
        <time>2010-11-13T16:41:43Z</time>
      </trkpt>
      <trkpt lat="45.88862" lon="6.18984">
        <ele>1068.162109</ele>
        <time>2010-11-13T16:41:57Z</time>
      </trkpt>
      <trkpt lat="45.88859" lon="6.18986">
        <ele>1068.162109</ele>
        <time>2010-11-13T16:42:08Z</time>
      </trkpt>
      <trkpt lat="45.88853" lon="6.1899">
        <ele>1066.719971</ele>
        <time>2010-11-13T16:42:19Z</time>
      </trkpt>
      <trkpt lat="45.88847" lon="6.18992">
        <ele>1065.278076</ele>
        <time>2010-11-13T16:42:26Z</time>
      </trkpt>
      <trkpt lat="45.88842" lon="6.18999">
        <ele>1062.874756</ele>
        <time>2010-11-13T16:42:36Z</time>
      </trkpt>
      <trkpt lat="45.88838" lon="6.19003">
        <ele>1060.952148</ele>
        <time>2010-11-13T16:42:43Z</time>
      </trkpt>
      <trkpt lat="45.88832" lon="6.19006">
        <ele>1058.068359</ele>
        <time>2010-11-13T16:42:53Z</time>
      </trkpt>
      <trkpt lat="45.88829" lon="6.18999">
        <ele>1056.626221</ele>
        <time>2010-11-13T16:42:59Z</time>
      </trkpt>
      <trkpt lat="45.88826" lon="6.1899">
        <ele>1055.184326</ele>
        <time>2010-11-13T16:43:08Z</time>
      </trkpt>
      <trkpt lat="45.88825" lon="6.18979">
        <ele>1053.742432</ele>
        <time>2010-11-13T16:43:17Z</time>
      </trkpt>
      <trkpt lat="45.88824" lon="6.18971">
        <ele>1053.261719</ele>
        <time>2010-11-13T16:43:24Z</time>
      </trkpt>
      <trkpt lat="45.88825" lon="6.18967">
        <ele>1051.81958</ele>
        <time>2010-11-13T16:43:27Z</time>
      </trkpt>
      <trkpt lat="45.88826" lon="6.18958">
        <ele>1050.377686</ele>
        <time>2010-11-13T16:43:35Z</time>
      </trkpt>
      <trkpt lat="45.88826" lon="6.18949">
        <ele>1047.974365</ele>
        <time>2010-11-13T16:43:42Z</time>
      </trkpt>
      <trkpt lat="45.88825" lon="6.18939">
        <ele>1047.493652</ele>
        <time>2010-11-13T16:43:49Z</time>
      </trkpt>
      <trkpt lat="45.88823" lon="6.18933">
        <ele>1045.090332</ele>
        <time>2010-11-13T16:43:58Z</time>
      </trkpt>
      <trkpt lat="45.8882" lon="6.18934">
        <ele>1044.609619</ele>
        <time>2010-11-13T16:44:04Z</time>
      </trkpt>
      <trkpt lat="45.88814" lon="6.18939">
        <ele>1042.687256</ele>
        <time>2010-11-13T16:44:14Z</time>
      </trkpt>
      <trkpt lat="45.88808" lon="6.18948">
        <ele>1042.206543</ele>
        <time>2010-11-13T16:44:23Z</time>
      </trkpt>
      <trkpt lat="45.88803" lon="6.18956">
        <ele>1040.764404</ele>
        <time>2010-11-13T16:44:31Z</time>
      </trkpt>
      <trkpt lat="45.88795" lon="6.18963">
        <ele>1039.803223</ele>
        <time>2010-11-13T16:44:40Z</time>
      </trkpt>
      <trkpt lat="45.8879" lon="6.18967">
        <ele>1037.880615</ele>
        <time>2010-11-13T16:44:49Z</time>
      </trkpt>
      <trkpt lat="45.88782" lon="6.1897">
        <ele>1035.957764</ele>
        <time>2010-11-13T16:44:58Z</time>
      </trkpt>
      <trkpt lat="45.88775" lon="6.18972">
        <ele>1034.035156</ele>
        <time>2010-11-13T16:45:07Z</time>
      </trkpt>
      <trkpt lat="45.88772" lon="6.18977">
        <ele>1032.112549</ele>
        <time>2010-11-13T16:45:16Z</time>
      </trkpt>
      <trkpt lat="45.88774" lon="6.18987">
        <ele>1030.189941</ele>
        <time>2010-11-13T16:45:26Z</time>
      </trkpt>
      <trkpt lat="45.88776" lon="6.18994">
        <ele>1028.748047</ele>
        <time>2010-11-13T16:45:33Z</time>
      </trkpt>
      <trkpt lat="45.88775" lon="6.19003">
        <ele>1026.825439</ele>
        <time>2010-11-13T16:45:43Z</time>
      </trkpt>
      <trkpt lat="45.88776" lon="6.19014">
        <ele>1025.383301</ele>
        <time>2010-11-13T16:45:52Z</time>
      </trkpt>
      <trkpt lat="45.88776" lon="6.19021">
        <ele>1023.941406</ele>
        <time>2010-11-13T16:46:00Z</time>
      </trkpt>
      <trkpt lat="45.88772" lon="6.1902">
        <ele>1021.538086</ele>
        <time>2010-11-13T16:46:09Z</time>
      </trkpt>
      <trkpt lat="45.88771" lon="6.1902">
        <ele>1021.538086</ele>
        <time>2010-11-13T16:46:10Z</time>
      </trkpt>
      <trkpt lat="45.88767" lon="6.19023">
        <ele>1020.576904</ele>
        <time>2010-11-13T16:46:16Z</time>
      </trkpt>
      <trkpt lat="45.88768" lon="6.1903">
        <ele>1018.17334</ele>
        <time>2010-11-13T16:46:24Z</time>
      </trkpt>
      <trkpt lat="45.8877" lon="6.19045">
        <ele>1016.250732</ele>
        <time>2010-11-13T16:46:35Z</time>
      </trkpt>
      <trkpt lat="45.88778" lon="6.19057">
        <ele>1013.847412</ele>
        <time>2010-11-13T16:46:48Z</time>
      </trkpt>
      <trkpt lat="45.88776" lon="6.1907">
        <ele>1012.405518</ele>
        <time>2010-11-13T16:46:56Z</time>
      </trkpt>
      <trkpt lat="45.88776" lon="6.19084">
        <ele>1011.444336</ele>
        <time>2010-11-13T16:47:04Z</time>
      </trkpt>
      <trkpt lat="45.88776" lon="6.1909">
        <ele>1010.48291</ele>
        <time>2010-11-13T16:47:11Z</time>
      </trkpt>
      <trkpt lat="45.88772" lon="6.1911">
        <ele>1008.560303</ele>
        <time>2010-11-13T16:47:21Z</time>
      </trkpt>
      <trkpt lat="45.88771" lon="6.19121">
        <ele>1008.079834</ele>
        <time>2010-11-13T16:47:28Z</time>
      </trkpt>
      <trkpt lat="45.88768" lon="6.19131">
        <ele>1006.637695</ele>
        <time>2010-11-13T16:47:36Z</time>
      </trkpt>
      <trkpt lat="45.88767" lon="6.19137">
        <ele>1004.715088</ele>
        <time>2010-11-13T16:47:42Z</time>
      </trkpt>
      <trkpt lat="45.88764" lon="6.19144">
        <ele>1005.676514</ele>
        <time>2010-11-13T16:47:50Z</time>
      </trkpt>
      <trkpt lat="45.88758" lon="6.19152">
        <ele>1004.715088</ele>
        <time>2010-11-13T16:48:00Z</time>
      </trkpt>
      <trkpt lat="45.88755" lon="6.1916">
        <ele>1003.272949</ele>
        <time>2010-11-13T16:49:23Z</time>
      </trkpt>
      <trkpt lat="45.88748" lon="6.19165">
        <ele>1000.869629</ele>
        <time>2010-11-13T16:49:32Z</time>
      </trkpt>
      <trkpt lat="45.8874" lon="6.19168">
        <ele>998.466309</ele>
        <time>2010-11-13T16:49:41Z</time>
      </trkpt>
      <trkpt lat="45.88733" lon="6.19171">
        <ele>996.543945</ele>
        <time>2010-11-13T16:49:51Z</time>
      </trkpt>
      <trkpt lat="45.88728" lon="6.19173">
        <ele>994.140625</ele>
        <time>2010-11-13T16:49:57Z</time>
      </trkpt>
      <trkpt lat="45.8872" lon="6.19177">
        <ele>992.69873</ele>
        <time>2010-11-13T16:50:06Z</time>
      </trkpt>
      <trkpt lat="45.88714" lon="6.1918">
        <ele>990.29541</ele>
        <time>2010-11-13T16:50:13Z</time>
      </trkpt>
      <trkpt lat="45.88709" lon="6.19182">
        <ele>989.333984</ele>
        <time>2010-11-13T16:50:20Z</time>
      </trkpt>
      <trkpt lat="45.88702" lon="6.19184">
        <ele>987.891846</ele>
        <time>2010-11-13T16:50:28Z</time>
      </trkpt>
      <trkpt lat="45.88701" lon="6.19185">
        <ele>987.411133</ele>
        <time>2010-11-13T16:50:29Z</time>
      </trkpt>
      <trkpt lat="45.88697" lon="6.19188">
        <ele>985.488525</ele>
        <time>2010-11-13T16:50:35Z</time>
      </trkpt>
      <trkpt lat="45.88693" lon="6.19189">
        <ele>984.046631</ele>
        <time>2010-11-13T16:50:40Z</time>
      </trkpt>
      <trkpt lat="45.8869" lon="6.1919">
        <ele>983.085205</ele>
        <time>2010-11-13T16:50:43Z</time>
      </trkpt>
      <trkpt lat="45.88681" lon="6.19189">
        <ele>981.643311</ele>
        <time>2010-11-13T16:50:50Z</time>
      </trkpt>
      <trkpt lat="45.88678" lon="6.19191">
        <ele>979.720703</ele>
        <time>2010-11-13T16:50:53Z</time>
      </trkpt>
      <trkpt lat="45.8867" lon="6.19192">
        <ele>979.23999</ele>
        <time>2010-11-13T16:51:01Z</time>
      </trkpt>
      <trkpt lat="45.88667" lon="6.19194">
        <ele>978.278809</ele>
        <time>2010-11-13T16:51:08Z</time>
      </trkpt>
      <trkpt lat="45.8866" lon="6.19195">
        <ele>976.836914</ele>
        <time>2010-11-13T16:51:16Z</time>
      </trkpt>
      <trkpt lat="45.88654" lon="6.19192">
        <ele>975.394775</ele>
        <time>2010-11-13T16:51:23Z</time>
      </trkpt>
      <trkpt lat="45.88655" lon="6.19189">
        <ele>973.472412</ele>
        <time>2010-11-13T16:51:30Z</time>
      </trkpt>
      <trkpt lat="45.88659" lon="6.19185">
        <ele>972.991699</ele>
        <time>2010-11-13T16:51:38Z</time>
      </trkpt>
      <trkpt lat="45.88663" lon="6.19182">
        <ele>972.030273</ele>
        <time>2010-11-13T16:51:44Z</time>
      </trkpt>
      <trkpt lat="45.88664" lon="6.19175">
        <ele>970.107422</ele>
        <time>2010-11-13T16:51:51Z</time>
      </trkpt>
      <trkpt lat="45.88667" lon="6.19168">
        <ele>969.626953</ele>
        <time>2010-11-13T16:51:58Z</time>
      </trkpt>
      <trkpt lat="45.88672" lon="6.19161">
        <ele>968.665527</ele>
        <time>2010-11-13T16:52:04Z</time>
      </trkpt>
      <trkpt lat="45.88674" lon="6.19154">
        <ele>967.704102</ele>
        <time>2010-11-13T16:52:14Z</time>
      </trkpt>
      <trkpt lat="45.88676" lon="6.19142">
        <ele>966.74292</ele>
        <time>2010-11-13T16:52:22Z</time>
      </trkpt>
      <trkpt lat="45.88678" lon="6.19134">
        <ele>965.781738</ele>
        <time>2010-11-13T16:52:29Z</time>
      </trkpt>
      <trkpt lat="45.88682" lon="6.19126">
        <ele>964.820313</ele>
        <time>2010-11-13T16:52:37Z</time>
      </trkpt>
      <trkpt lat="45.88683" lon="6.19123">
        <ele>962.897705</ele>
        <time>2010-11-13T16:52:45Z</time>
      </trkpt>
      <trkpt lat="45.88686" lon="6.19119">
        <ele>961.936523</ele>
        <time>2010-11-13T16:52:52Z</time>
      </trkpt>
      <trkpt lat="45.88686" lon="6.19113">
        <ele>961.455811</ele>
        <time>2010-11-13T16:52:57Z</time>
      </trkpt>
      <trkpt lat="45.88686" lon="6.19105">
        <ele>961.455811</ele>
        <time>2010-11-13T16:53:04Z</time>
      </trkpt>
      <trkpt lat="45.88684" lon="6.19104">
        <ele>960.975098</ele>
        <time>2010-11-13T16:53:06Z</time>
      </trkpt>
      <trkpt lat="45.88681" lon="6.19095">
        <ele>960.975098</ele>
        <time>2010-11-13T16:53:13Z</time>
      </trkpt>
      <trkpt lat="45.88676" lon="6.19087">
        <ele>959.05249</ele>
        <time>2010-11-13T16:53:22Z</time>
      </trkpt>
      <trkpt lat="45.88671" lon="6.19076">
        <ele>958.571777</ele>
        <time>2010-11-13T16:53:30Z</time>
      </trkpt>
      <trkpt lat="45.88665" lon="6.19072">
        <ele>957.129883</ele>
        <time>2010-11-13T16:53:37Z</time>
      </trkpt>
      <trkpt lat="45.88658" lon="6.1907">
        <ele>955.687744</ele>
        <time>2010-11-13T16:53:44Z</time>
      </trkpt>
      <trkpt lat="45.88652" lon="6.19071">
        <ele>954.726318</ele>
        <time>2010-11-13T16:53:52Z</time>
      </trkpt>
      <trkpt lat="45.88649" lon="6.1907">
        <ele>954.24585</ele>
        <time>2010-11-13T16:53:54Z</time>
      </trkpt>
      <trkpt lat="45.88642" lon="6.19071">
        <ele>953.765137</ele>
        <time>2010-11-13T16:54:00Z</time>
      </trkpt>
      <trkpt lat="45.88638" lon="6.19068">
        <ele>953.284424</ele>
        <time>2010-11-13T16:54:04Z</time>
      </trkpt>
      <trkpt lat="45.88628" lon="6.19057">
        <ele>952.803711</ele>
        <time>2010-11-13T16:54:14Z</time>
      </trkpt>
      <trkpt lat="45.88625" lon="6.19055">
        <ele>951.361816</ele>
        <time>2010-11-13T16:54:23Z</time>
      </trkpt>
      <trkpt lat="45.88629" lon="6.19054">
        <ele>950.881104</ele>
        <time>2010-11-13T16:54:29Z</time>
      </trkpt>
      <trkpt lat="45.88636" lon="6.19058">
        <ele>948.477783</ele>
        <time>2010-11-13T16:54:37Z</time>
      </trkpt>
      <trkpt lat="45.88643" lon="6.19058">
        <ele>947.516602</ele>
        <time>2010-11-13T16:54:45Z</time>
      </trkpt>
      <trkpt lat="45.8865" lon="6.19061">
        <ele>947.035889</ele>
        <time>2010-11-13T16:54:52Z</time>
      </trkpt>
      <trkpt lat="45.88652" lon="6.19064">
        <ele>944.632568</ele>
        <time>2010-11-13T16:55:01Z</time>
      </trkpt>
      <trkpt lat="45.88651" lon="6.1907">
        <ele>944.1521</ele>
        <time>2010-11-13T16:55:07Z</time>
      </trkpt>
      <trkpt lat="45.88654" lon="6.1908">
        <ele>942.710205</ele>
        <time>2010-11-13T16:55:18Z</time>
      </trkpt>
      <trkpt lat="45.88654" lon="6.19085">
        <ele>941.748779</ele>
        <time>2010-11-13T16:55:23Z</time>
      </trkpt>
      <trkpt lat="45.8865" lon="6.19097">
        <ele>937.422607</ele>
        <time>2010-11-13T16:55:42Z</time>
      </trkpt>
      <trkpt lat="45.8865" lon="6.19099">
        <ele>937.90332</ele>
        <time>2010-11-13T16:55:43Z</time>
      </trkpt>
      <trkpt lat="45.88647" lon="6.19108">
        <ele>936.941895</ele>
        <time>2010-11-13T16:55:50Z</time>
      </trkpt>
      <trkpt lat="45.88645" lon="6.19117">
        <ele>935.019531</ele>
        <time>2010-11-13T16:55:59Z</time>
      </trkpt>
      <trkpt lat="45.88641" lon="6.19118">
        <ele>935.019531</ele>
        <time>2010-11-13T16:56:04Z</time>
      </trkpt>
      <trkpt lat="45.88636" lon="6.1912">
        <ele>933.09668</ele>
        <time>2010-11-13T16:56:11Z</time>
      </trkpt>
      <trkpt lat="45.88631" lon="6.19121">
        <ele>932.616211</ele>
        <time>2010-11-13T16:56:15Z</time>
      </trkpt>
      <trkpt lat="45.88627" lon="6.19122">
        <ele>932.616211</ele>
        <time>2010-11-13T16:56:19Z</time>
      </trkpt>
      <trkpt lat="45.88622" lon="6.19126">
        <ele>931.654785</ele>
        <time>2010-11-13T16:56:25Z</time>
      </trkpt>
      <trkpt lat="45.88617" lon="6.19131">
        <ele>930.693604</ele>
        <time>2010-11-13T16:56:31Z</time>
      </trkpt>
      <trkpt lat="45.88614" lon="6.19137">
        <ele>930.693604</ele>
        <time>2010-11-13T16:56:37Z</time>
      </trkpt>
      <trkpt lat="45.8861" lon="6.19141">
        <ele>930.212891</ele>
        <time>2010-11-13T16:56:43Z</time>
      </trkpt>
      <trkpt lat="45.88603" lon="6.19142">
        <ele>928.770996</ele>
        <time>2010-11-13T16:56:51Z</time>
      </trkpt>
      <trkpt lat="45.88593" lon="6.1914">
        <ele>926.367676</ele>
        <time>2010-11-13T16:57:04Z</time>
      </trkpt>
      <trkpt lat="45.88593" lon="6.19139">
        <ele>925.886963</ele>
        <time>2010-11-13T16:57:09Z</time>
      </trkpt>
      <trkpt lat="45.88596" lon="6.19136">
        <ele>924.925781</ele>
        <time>2010-11-13T16:57:17Z</time>
      </trkpt>
      <trkpt lat="45.88603" lon="6.19128">
        <ele>923.00293</ele>
        <time>2010-11-13T16:57:26Z</time>
      </trkpt>
      <trkpt lat="45.88606" lon="6.19125">
        <ele>921.560791</ele>
        <time>2010-11-13T16:57:31Z</time>
      </trkpt>
      <trkpt lat="45.88612" lon="6.19119">
        <ele>920.599609</ele>
        <time>2010-11-13T16:57:39Z</time>
      </trkpt>
      <trkpt lat="45.88604" lon="6.19121">
        <ele>917.715576</ele>
        <time>2010-11-13T16:57:52Z</time>
      </trkpt>
      <trkpt lat="45.88606" lon="6.19117">
        <ele>917.715576</ele>
        <time>2010-11-13T16:57:59Z</time>
      </trkpt>
      <trkpt lat="45.88609" lon="6.19112">
        <ele>916.754395</ele>
        <time>2010-11-13T16:58:06Z</time>
      </trkpt>
      <trkpt lat="45.8861" lon="6.19113">
        <ele>913.389893</ele>
        <time>2010-11-13T16:58:18Z</time>
      </trkpt>
      <trkpt lat="45.88606" lon="6.19114">
        <ele>911.947998</ele>
        <time>2010-11-13T16:58:26Z</time>
      </trkpt>
      <trkpt lat="45.88597" lon="6.19115">
        <ele>910.986572</ele>
        <time>2010-11-13T16:58:33Z</time>
      </trkpt>
      <trkpt lat="45.88592" lon="6.19119">
        <ele>910.505859</ele>
        <time>2010-11-13T16:58:39Z</time>
      </trkpt>
      <trkpt lat="45.88591" lon="6.1912">
        <ele>910.505859</ele>
        <time>2010-11-13T16:58:40Z</time>
      </trkpt>
      <trkpt lat="45.88583" lon="6.19123">
        <ele>909.063965</ele>
        <time>2010-11-13T16:58:48Z</time>
      </trkpt>
      <trkpt lat="45.88577" lon="6.19128">
        <ele>907.141113</ele>
        <time>2010-11-13T16:58:56Z</time>
      </trkpt>
      <trkpt lat="45.88568" lon="6.19128">
        <ele>905.699219</ele>
        <time>2010-11-13T16:59:04Z</time>
      </trkpt>
      <trkpt lat="45.88561" lon="6.19129">
        <ele>904.737793</ele>
        <time>2010-11-13T16:59:10Z</time>
      </trkpt>
      <trkpt lat="45.88554" lon="6.19129">
        <ele>904.257324</ele>
        <time>2010-11-13T16:59:17Z</time>
      </trkpt>
      <trkpt lat="45.88548" lon="6.19133">
        <ele>903.295898</ele>
        <time>2010-11-13T16:59:24Z</time>
      </trkpt>
      <trkpt lat="45.8854" lon="6.19128">
        <ele>901.854004</ele>
        <time>2010-11-13T16:59:31Z</time>
      </trkpt>
      <trkpt lat="45.88537" lon="6.19135">
        <ele>902.334473</ele>
        <time>2010-11-13T16:59:39Z</time>
      </trkpt>
      <trkpt lat="45.88529" lon="6.1913">
        <ele>901.854004</ele>
        <time>2010-11-13T16:59:54Z</time>
      </trkpt>
      <trkpt lat="45.88527" lon="6.19133">
        <ele>903.295898</ele>
        <time>2010-11-13T17:00:07Z</time>
      </trkpt>
      <trkpt lat="45.88517" lon="6.1913">
        <ele>902.815186</ele>
        <time>2010-11-13T17:00:23Z</time>
      </trkpt>
      <trkpt lat="45.88504" lon="6.19112">
        <ele>903.776611</ele>
        <time>2010-11-13T17:02:11Z</time>
      </trkpt>
      <trkpt lat="45.88506" lon="6.19116">
        <ele>902.815186</ele>
        <time>2010-11-13T17:02:20Z</time>
      </trkpt>
      <trkpt lat="45.88512" lon="6.19112">
        <ele>901.854004</ele>
        <time>2010-11-13T17:02:27Z</time>
      </trkpt>
      <trkpt lat="45.88518" lon="6.19111">
        <ele>901.373291</ele>
        <time>2010-11-13T17:02:32Z</time>
      </trkpt>
      <trkpt lat="45.88523" lon="6.19109">
        <ele>899.931396</ele>
        <time>2010-11-13T17:02:36Z</time>
      </trkpt>
      <trkpt lat="45.88525" lon="6.19108">
        <ele>898.489258</ele>
        <time>2010-11-13T17:02:39Z</time>
      </trkpt>
      <trkpt lat="45.88525" lon="6.19104">
        <ele>896.566895</ele>
        <time>2010-11-13T17:02:49Z</time>
      </trkpt>
      <trkpt lat="45.8852" lon="6.19108">
        <ele>895.605469</ele>
        <time>2010-11-13T17:02:56Z</time>
      </trkpt>
      <trkpt lat="45.88517" lon="6.19108">
        <ele>894.644043</ele>
        <time>2010-11-13T17:03:04Z</time>
      </trkpt>
      <trkpt lat="45.8851" lon="6.19106">
        <ele>894.644043</ele>
        <time>2010-11-13T17:03:09Z</time>
      </trkpt>
      <trkpt lat="45.88503" lon="6.19104">
        <ele>893.202148</ele>
        <time>2010-11-13T17:03:15Z</time>
      </trkpt>
      <trkpt lat="45.88499" lon="6.19105">
        <ele>893.202148</ele>
        <time>2010-11-13T17:03:20Z</time>
      </trkpt>
      <trkpt lat="45.88495" lon="6.19112">
        <ele>892.72168</ele>
        <time>2010-11-13T17:03:25Z</time>
      </trkpt>
      <trkpt lat="45.88483" lon="6.19114">
        <ele>891.76001</ele>
        <time>2010-11-13T17:03:34Z</time>
      </trkpt>
      <trkpt lat="45.88479" lon="6.19118">
        <ele>890.798584</ele>
        <time>2010-11-13T17:03:40Z</time>
      </trkpt>
      <trkpt lat="45.88473" lon="6.19126">
        <ele>889.356689</ele>
        <time>2010-11-13T17:03:53Z</time>
      </trkpt>
      <trkpt lat="45.88472" lon="6.1912">
        <ele>887.434082</ele>
        <time>2010-11-13T17:03:58Z</time>
      </trkpt>
      <trkpt lat="45.88474" lon="6.19109">
        <ele>886.953369</ele>
        <time>2010-11-13T17:04:06Z</time>
      </trkpt>
      <trkpt lat="45.88477" lon="6.19105">
        <ele>885.511475</ele>
        <time>2010-11-13T17:04:12Z</time>
      </trkpt>
      <trkpt lat="45.88483" lon="6.191">
        <ele>883.588867</ele>
        <time>2010-11-13T17:04:19Z</time>
      </trkpt>
      <trkpt lat="45.88483" lon="6.19093">
        <ele>881.66626</ele>
        <time>2010-11-13T17:04:26Z</time>
      </trkpt>
      <trkpt lat="45.88481" lon="6.19089">
        <ele>881.185791</ele>
        <time>2010-11-13T17:04:32Z</time>
      </trkpt>
      <trkpt lat="45.88478" lon="6.19084">
        <ele>879.262939</ele>
        <time>2010-11-13T17:04:39Z</time>
      </trkpt>
      <trkpt lat="45.88472" lon="6.19078">
        <ele>878.782471</ele>
        <time>2010-11-13T17:04:48Z</time>
      </trkpt>
      <trkpt lat="45.88467" lon="6.19078">
        <ele>877.821045</ele>
        <time>2010-11-13T17:04:54Z</time>
      </trkpt>
      <trkpt lat="45.88464" lon="6.19074">
        <ele>877.821045</ele>
        <time>2010-11-13T17:04:58Z</time>
      </trkpt>
      <trkpt lat="45.88458" lon="6.19076">
        <ele>876.859863</ele>
        <time>2010-11-13T17:05:05Z</time>
      </trkpt>
      <trkpt lat="45.88459" lon="6.19079">
        <ele>876.859863</ele>
        <time>2010-11-13T17:05:11Z</time>
      </trkpt>
      <trkpt lat="45.88452" lon="6.19079">
        <ele>875.898193</ele>
        <time>2010-11-13T17:05:19Z</time>
      </trkpt>
      <trkpt lat="45.88443" lon="6.1908">
        <ele>874.937012</ele>
        <time>2010-11-13T17:05:27Z</time>
      </trkpt>
      <trkpt lat="45.88439" lon="6.1908">
        <ele>874.456299</ele>
        <time>2010-11-13T17:05:32Z</time>
      </trkpt>
      <trkpt lat="45.88429" lon="6.19077">
        <ele>873.014404</ele>
        <time>2010-11-13T17:05:41Z</time>
      </trkpt>
      <trkpt lat="45.88427" lon="6.19077">
        <ele>872.052979</ele>
        <time>2010-11-13T17:05:46Z</time>
      </trkpt>
      <trkpt lat="45.88422" lon="6.19066">
        <ele>871.572266</ele>
        <time>2010-11-13T17:05:55Z</time>
      </trkpt>
      <trkpt lat="45.88415" lon="6.19058">
        <ele>871.091797</ele>
        <time>2010-11-13T17:06:02Z</time>
      </trkpt>
      <trkpt lat="45.88409" lon="6.19052">
        <ele>870.611084</ele>
        <time>2010-11-13T17:06:08Z</time>
      </trkpt>
      <trkpt lat="45.88413" lon="6.19056">
        <ele>870.611084</ele>
        <time>2010-11-13T17:06:14Z</time>
      </trkpt>
      <trkpt lat="45.88405" lon="6.19038">
        <ele>867.246582</ele>
        <time>2010-11-13T17:06:30Z</time>
      </trkpt>
      <trkpt lat="45.88408" lon="6.19031">
        <ele>866.765869</ele>
        <time>2010-11-13T17:06:38Z</time>
      </trkpt>
      <trkpt lat="45.88415" lon="6.19035">
        <ele>864.843262</ele>
        <time>2010-11-13T17:06:47Z</time>
      </trkpt>
      <trkpt lat="45.88419" lon="6.19037">
        <ele>863.881836</ele>
        <time>2010-11-13T17:06:51Z</time>
      </trkpt>
      <trkpt lat="45.88424" lon="6.19036">
        <ele>862.439941</ele>
        <time>2010-11-13T17:06:57Z</time>
      </trkpt>
      <trkpt lat="45.88429" lon="6.1903">
        <ele>859.075195</ele>
        <time>2010-11-13T17:07:08Z</time>
      </trkpt>
      <trkpt lat="45.88433" lon="6.19027">
        <ele>858.594482</ele>
        <time>2010-11-13T17:07:13Z</time>
      </trkpt>
      <trkpt lat="45.88439" lon="6.19019">
        <ele>858.114014</ele>
        <time>2010-11-13T17:07:20Z</time>
      </trkpt>
      <trkpt lat="45.88441" lon="6.19008">
        <ele>856.191162</ele>
        <time>2010-11-13T17:07:33Z</time>
      </trkpt>
      <trkpt lat="45.8844" lon="6.19003">
        <ele>855.22998</ele>
        <time>2010-11-13T17:07:40Z</time>
      </trkpt>
      <trkpt lat="45.88438" lon="6.19">
        <ele>854.268799</ele>
        <time>2010-11-13T17:07:47Z</time>
      </trkpt>
      <trkpt lat="45.88435" lon="6.18996">
        <ele>853.788086</ele>
        <time>2010-11-13T17:07:54Z</time>
      </trkpt>
      <trkpt lat="45.88437" lon="6.18993">
        <ele>852.82666</ele>
        <time>2010-11-13T17:07:59Z</time>
      </trkpt>
      <trkpt lat="45.88439" lon="6.18992">
        <ele>851.865479</ele>
        <time>2010-11-13T17:08:01Z</time>
      </trkpt>
      <trkpt lat="45.88446" lon="6.18984">
        <ele>849.942871</ele>
        <time>2010-11-13T17:08:10Z</time>
      </trkpt>
      <trkpt lat="45.88449" lon="6.1898">
        <ele>848.500732</ele>
        <time>2010-11-13T17:08:22Z</time>
      </trkpt>
      <trkpt lat="45.88445" lon="6.1898">
        <ele>847.539551</ele>
        <time>2010-11-13T17:08:31Z</time>
      </trkpt>
      <trkpt lat="45.88437" lon="6.18979">
        <ele>845.13623</ele>
        <time>2010-11-13T17:08:43Z</time>
      </trkpt>
      <trkpt lat="45.88432" lon="6.18972">
        <ele>842.73291</ele>
        <time>2010-11-13T17:08:53Z</time>
      </trkpt>
      <trkpt lat="45.88428" lon="6.18968">
        <ele>841.771484</ele>
        <time>2010-11-13T17:09:00Z</time>
      </trkpt>
      <trkpt lat="45.88425" lon="6.18964">
        <ele>840.32959</ele>
        <time>2010-11-13T17:09:08Z</time>
      </trkpt>
      <trkpt lat="45.88425" lon="6.18957">
        <ele>839.848877</ele>
        <time>2010-11-13T17:09:12Z</time>
      </trkpt>
      <trkpt lat="45.88432" lon="6.18951">
        <ele>838.887695</ele>
        <time>2010-11-13T17:09:21Z</time>
      </trkpt>
      <trkpt lat="45.88435" lon="6.18946">
        <ele>836.964844</ele>
        <time>2010-11-13T17:09:27Z</time>
      </trkpt>
      <trkpt lat="45.8844" lon="6.1894">
        <ele>835.522949</ele>
        <time>2010-11-13T17:09:34Z</time>
      </trkpt>
      <trkpt lat="45.88447" lon="6.18933">
        <ele>834.561768</ele>
        <time>2010-11-13T17:09:41Z</time>
      </trkpt>
      <trkpt lat="45.88454" lon="6.18922">
        <ele>833.119629</ele>
        <time>2010-11-13T17:09:51Z</time>
      </trkpt>
      <trkpt lat="45.88455" lon="6.18912">
        <ele>832.158447</ele>
        <time>2010-11-13T17:09:59Z</time>
      </trkpt>
      <trkpt lat="45.88456" lon="6.18902">
        <ele>831.197266</ele>
        <time>2010-11-13T17:10:07Z</time>
      </trkpt>
      <trkpt lat="45.88456" lon="6.18897">
        <ele>830.716553</ele>
        <time>2010-11-13T17:10:11Z</time>
      </trkpt>
      <trkpt lat="45.8846" lon="6.18885">
        <ele>829.274414</ele>
        <time>2010-11-13T17:10:19Z</time>
      </trkpt>
      <trkpt lat="45.88465" lon="6.18874">
        <ele>828.313232</ele>
        <time>2010-11-13T17:10:27Z</time>
      </trkpt>
      <trkpt lat="45.88469" lon="6.18864">
        <ele>827.832275</ele>
        <time>2010-11-13T17:10:35Z</time>
      </trkpt>
      <trkpt lat="45.88471" lon="6.18856">
        <ele>826.871094</ele>
        <time>2010-11-13T17:10:40Z</time>
      </trkpt>
      <trkpt lat="45.88472" lon="6.1885">
        <ele>826.390381</ele>
        <time>2010-11-13T17:10:43Z</time>
      </trkpt>
      <trkpt lat="45.88476" lon="6.18841">
        <ele>824.948486</ele>
        <time>2010-11-13T17:10:50Z</time>
      </trkpt>
      <trkpt lat="45.88478" lon="6.18836">
        <ele>823.506592</ele>
        <time>2010-11-13T17:10:55Z</time>
      </trkpt>
      <trkpt lat="45.8848" lon="6.18825">
        <ele>823.025879</ele>
        <time>2010-11-13T17:11:02Z</time>
      </trkpt>
      <trkpt lat="45.88482" lon="6.18813">
        <ele>822.064453</ele>
        <time>2010-11-13T17:11:09Z</time>
      </trkpt>
      <trkpt lat="45.88486" lon="6.18804">
        <ele>820.622559</ele>
        <time>2010-11-13T17:11:15Z</time>
      </trkpt>
      <trkpt lat="45.88489" lon="6.18794">
        <ele>819.180664</ele>
        <time>2010-11-13T17:11:21Z</time>
      </trkpt>
      <trkpt lat="45.88493" lon="6.1878">
        <ele>818.219238</ele>
        <time>2010-11-13T17:11:30Z</time>
      </trkpt>
      <trkpt lat="45.885" lon="6.18768">
        <ele>816.777344</ele>
        <time>2010-11-13T17:11:39Z</time>
      </trkpt>
      <trkpt lat="45.88504" lon="6.1876">
        <ele>816.296631</ele>
        <time>2010-11-13T17:11:46Z</time>
      </trkpt>
      <trkpt lat="45.8851" lon="6.18748">
        <ele>814.374023</ele>
        <time>2010-11-13T17:11:55Z</time>
      </trkpt>
      <trkpt lat="45.88515" lon="6.18739">
        <ele>812.932129</ele>
        <time>2010-11-13T17:12:03Z</time>
      </trkpt>
      <trkpt lat="45.88521" lon="6.18729">
        <ele>812.451416</ele>
        <time>2010-11-13T17:12:11Z</time>
      </trkpt>
      <trkpt lat="45.88525" lon="6.18722">
        <ele>811.009277</ele>
        <time>2010-11-13T17:12:18Z</time>
      </trkpt>
      <trkpt lat="45.88525" lon="6.18712">
        <ele>809.567383</ele>
        <time>2010-11-13T17:12:24Z</time>
      </trkpt>
      <trkpt lat="45.88531" lon="6.18702">
        <ele>808.605957</ele>
        <time>2010-11-13T17:12:32Z</time>
      </trkpt>
      <trkpt lat="45.88536" lon="6.18689">
        <ele>807.164063</ele>
        <time>2010-11-13T17:12:41Z</time>
      </trkpt>
      <trkpt lat="45.88543" lon="6.18676">
        <ele>806.202637</ele>
        <time>2010-11-13T17:12:50Z</time>
      </trkpt>
      <trkpt lat="45.8855" lon="6.1867">
        <ele>806.202637</ele>
        <time>2010-11-13T17:12:57Z</time>
      </trkpt>
      <trkpt lat="45.88557" lon="6.18668">
        <ele>805.241455</ele>
        <time>2010-11-13T17:13:03Z</time>
      </trkpt>
      <trkpt lat="45.88563" lon="6.18664">
        <ele>805.241455</ele>
        <time>2010-11-13T17:13:08Z</time>
      </trkpt>
      <trkpt lat="45.8857" lon="6.18657">
        <ele>804.760742</ele>
        <time>2010-11-13T17:13:16Z</time>
      </trkpt>
      <trkpt lat="45.88575" lon="6.18651">
        <ele>803.318848</ele>
        <time>2010-11-13T17:13:23Z</time>
      </trkpt>
      <trkpt lat="45.88579" lon="6.18645">
        <ele>802.357422</ele>
        <time>2010-11-13T17:13:29Z</time>
      </trkpt>
      <trkpt lat="45.88588" lon="6.18638">
        <ele>800.435059</ele>
        <time>2010-11-13T17:13:38Z</time>
      </trkpt>
      <trkpt lat="45.88594" lon="6.18645">
        <ele>798.512207</ele>
        <time>2010-11-13T17:15:10Z</time>
      </trkpt>
      <trkpt lat="45.88586" lon="6.18644">
        <ele>797.551025</ele>
        <time>2010-11-13T17:15:18Z</time>
      </trkpt>
      <trkpt lat="45.88579" lon="6.1864">
        <ele>796.109131</ele>
        <time>2010-11-13T17:15:23Z</time>
      </trkpt>
      <trkpt lat="45.8857" lon="6.18638">
        <ele>794.186279</ele>
        <time>2010-11-13T17:15:29Z</time>
      </trkpt>
      <trkpt lat="45.88559" lon="6.18638">
        <ele>791.302246</ele>
        <time>2010-11-13T17:15:38Z</time>
      </trkpt>
      <trkpt lat="45.88551" lon="6.18639">
        <ele>789.379639</ele>
        <time>2010-11-13T17:15:46Z</time>
      </trkpt>
      <trkpt lat="45.88544" lon="6.18639">
        <ele>787.457031</ele>
        <time>2010-11-13T17:15:54Z</time>
      </trkpt>
      <trkpt lat="45.88538" lon="6.1864">
        <ele>786.49585</ele>
        <time>2010-11-13T17:16:00Z</time>
      </trkpt>
      <trkpt lat="45.88533" lon="6.18642">
        <ele>786.015137</ele>
        <time>2010-11-13T17:16:04Z</time>
      </trkpt>
      <trkpt lat="45.88523" lon="6.18649">
        <ele>784.573242</ele>
        <time>2010-11-13T17:16:13Z</time>
      </trkpt>
      <trkpt lat="45.88517" lon="6.18653">
        <ele>783.611816</ele>
        <time>2010-11-13T17:16:20Z</time>
      </trkpt>
      <trkpt lat="45.88511" lon="6.1866">
        <ele>782.169922</ele>
        <time>2010-11-13T17:16:28Z</time>
      </trkpt>
      <trkpt lat="45.88508" lon="6.18667">
        <ele>781.20874</ele>
        <time>2010-11-13T17:16:34Z</time>
      </trkpt>
      <trkpt lat="45.88503" lon="6.18672">
        <ele>780.247314</ele>
        <time>2010-11-13T17:16:40Z</time>
      </trkpt>
      <trkpt lat="45.88499" lon="6.18678">
        <ele>778.324463</ele>
        <time>2010-11-13T17:16:47Z</time>
      </trkpt>
      <trkpt lat="45.88492" lon="6.18681">
        <ele>775.921143</ele>
        <time>2010-11-13T17:16:59Z</time>
      </trkpt>
      <trkpt lat="45.8849" lon="6.18677">
        <ele>774.959961</ele>
        <time>2010-11-13T17:17:05Z</time>
      </trkpt>
      <trkpt lat="45.8849" lon="6.18667">
        <ele>773.518066</ele>
        <time>2010-11-13T17:17:14Z</time>
      </trkpt>
      <trkpt lat="45.88491" lon="6.18655">
        <ele>771.114746</ele>
        <time>2010-11-13T17:17:23Z</time>
      </trkpt>
      <trkpt lat="45.88493" lon="6.1865">
        <ele>770.634033</ele>
        <time>2010-11-13T17:17:28Z</time>
      </trkpt>
      <trkpt lat="45.88496" lon="6.1864">
        <ele>769.192139</ele>
        <time>2010-11-13T17:17:36Z</time>
      </trkpt>
      <trkpt lat="45.88496" lon="6.1864">
        <ele>769.192139</ele>
        <time>2010-11-13T17:17:37Z</time>
      </trkpt>
      <trkpt lat="45.88503" lon="6.18633">
        <ele>767.75</ele>
        <time>2010-11-13T17:17:44Z</time>
      </trkpt>
      <trkpt lat="45.88506" lon="6.18628">
        <ele>765.827637</ele>
        <time>2010-11-13T17:17:50Z</time>
      </trkpt>
      <trkpt lat="45.88506" lon="6.18626">
        <ele>764.385498</ele>
        <time>2010-11-13T17:17:53Z</time>
      </trkpt>
      <trkpt lat="45.88503" lon="6.18628">
        <ele>762.462646</ele>
        <time>2010-11-13T17:17:59Z</time>
      </trkpt>
      <trkpt lat="45.88498" lon="6.18631">
        <ele>761.982178</ele>
        <time>2010-11-13T17:18:05Z</time>
      </trkpt>
      <trkpt lat="45.88495" lon="6.18633">
        <ele>761.020752</ele>
        <time>2010-11-13T17:18:11Z</time>
      </trkpt>
      <trkpt lat="45.8849" lon="6.18637">
        <ele>759.578857</ele>
        <time>2010-11-13T17:18:19Z</time>
      </trkpt>
      <trkpt lat="45.88487" lon="6.18638">
        <ele>758.136963</ele>
        <time>2010-11-13T17:18:26Z</time>
      </trkpt>
      <trkpt lat="45.88487" lon="6.18636">
        <ele>758.136963</ele>
        <time>2010-11-13T17:18:27Z</time>
      </trkpt>
      <trkpt lat="45.8849" lon="6.18622">
        <ele>755.25293</ele>
        <time>2010-11-13T17:18:38Z</time>
      </trkpt>
      <trkpt lat="45.88493" lon="6.18617">
        <ele>754.772217</ele>
        <time>2010-11-13T17:18:45Z</time>
      </trkpt>
      <trkpt lat="45.88499" lon="6.18608">
        <ele>752.849609</ele>
        <time>2010-11-13T17:18:54Z</time>
      </trkpt>
      <trkpt lat="45.88504" lon="6.18598">
        <ele>749.96582</ele>
        <time>2010-11-13T17:19:02Z</time>
      </trkpt>
      <trkpt lat="45.8851" lon="6.1859">
        <ele>749.004395</ele>
        <time>2010-11-13T17:19:10Z</time>
      </trkpt>
      <trkpt lat="45.88513" lon="6.18586">
        <ele>748.523682</ele>
        <time>2010-11-13T17:19:14Z</time>
      </trkpt>
      <trkpt lat="45.88518" lon="6.18581">
        <ele>747.081543</ele>
        <time>2010-11-13T17:19:19Z</time>
      </trkpt>
      <trkpt lat="45.88522" lon="6.18576">
        <ele>746.120361</ele>
        <time>2010-11-13T17:19:25Z</time>
      </trkpt>
      <trkpt lat="45.88527" lon="6.18572">
        <ele>744.197754</ele>
        <time>2010-11-13T17:19:33Z</time>
      </trkpt>
      <trkpt lat="45.88531" lon="6.18565">
        <ele>742.755859</ele>
        <time>2010-11-13T17:19:41Z</time>
      </trkpt>
      <trkpt lat="45.88528" lon="6.18565">
        <ele>742.275146</ele>
        <time>2010-11-13T17:19:46Z</time>
      </trkpt>
      <trkpt lat="45.88522" lon="6.18567">
        <ele>740.352539</ele>
        <time>2010-11-13T17:19:53Z</time>
      </trkpt>
      <trkpt lat="45.88517" lon="6.18567">
        <ele>738.910645</ele>
        <time>2010-11-13T17:19:59Z</time>
      </trkpt>
      <trkpt lat="45.88514" lon="6.18566">
        <ele>737.949219</ele>
        <time>2010-11-13T17:20:05Z</time>
      </trkpt>
      <trkpt lat="45.88511" lon="6.18563">
        <ele>736.507324</ele>
        <time>2010-11-13T17:20:10Z</time>
      </trkpt>
      <trkpt lat="45.88515" lon="6.18556">
        <ele>735.06543</ele>
        <time>2010-11-13T17:20:17Z</time>
      </trkpt>
      <trkpt lat="45.8852" lon="6.18554">
        <ele>733.623291</ele>
        <time>2010-11-13T17:20:23Z</time>
      </trkpt>
      <trkpt lat="45.88521" lon="6.18552">
        <ele>733.142578</ele>
        <time>2010-11-13T17:20:25Z</time>
      </trkpt>
      <trkpt lat="45.88523" lon="6.18542">
        <ele>730.739258</ele>
        <time>2010-11-13T17:20:34Z</time>
      </trkpt>
      <trkpt lat="45.88528" lon="6.18534">
        <ele>729.297119</ele>
        <time>2010-11-13T17:20:41Z</time>
      </trkpt>
      <trkpt lat="45.88529" lon="6.18534">
        <ele>727.855225</ele>
        <time>2010-11-13T17:20:48Z</time>
      </trkpt>
      <trkpt lat="45.88525" lon="6.18531">
        <ele>725.451904</ele>
        <time>2010-11-13T17:20:58Z</time>
      </trkpt>
      <trkpt lat="45.88528" lon="6.18524">
        <ele>724.01001</ele>
        <time>2010-11-13T17:21:05Z</time>
      </trkpt>
      <trkpt lat="45.88528" lon="6.1852">
        <ele>723.529541</ele>
        <time>2010-11-13T17:21:10Z</time>
      </trkpt>
      <trkpt lat="45.88524" lon="6.18522">
        <ele>722.568115</ele>
        <time>2010-11-13T17:21:17Z</time>
      </trkpt>
      <trkpt lat="45.88518" lon="6.18523">
        <ele>721.606689</ele>
        <time>2010-11-13T17:21:25Z</time>
      </trkpt>
      <trkpt lat="45.88515" lon="6.18529">
        <ele>720.645508</ele>
        <time>2010-11-13T17:21:30Z</time>
      </trkpt>
      <trkpt lat="45.88514" lon="6.18535">
        <ele>720.164795</ele>
        <time>2010-11-13T17:21:35Z</time>
      </trkpt>
      <trkpt lat="45.88506" lon="6.1854">
        <ele>719.203613</ele>
        <time>2010-11-13T17:21:41Z</time>
      </trkpt>
      <trkpt lat="45.88498" lon="6.18545">
        <ele>717.281006</ele>
        <time>2010-11-13T17:21:50Z</time>
      </trkpt>
      <trkpt lat="45.88487" lon="6.18549">
        <ele>715.838867</ele>
        <time>2010-11-13T17:21:59Z</time>
      </trkpt>
      <trkpt lat="45.88483" lon="6.1855">
        <ele>715.358154</ele>
        <time>2010-11-13T17:22:05Z</time>
      </trkpt>
      <trkpt lat="45.88481" lon="6.18543">
        <ele>713.435547</ele>
        <time>2010-11-13T17:22:16Z</time>
      </trkpt>
      <trkpt lat="45.88479" lon="6.1854">
        <ele>711.512939</ele>
        <time>2010-11-13T17:22:27Z</time>
      </trkpt>
      <trkpt lat="45.88474" lon="6.18543">
        <ele>710.070801</ele>
        <time>2010-11-13T17:22:32Z</time>
      </trkpt>
      <trkpt lat="45.88467" lon="6.18546">
        <ele>709.109619</ele>
        <time>2010-11-13T17:22:40Z</time>
      </trkpt>
      <trkpt lat="45.8846" lon="6.18551">
        <ele>708.148438</ele>
        <time>2010-11-13T17:22:47Z</time>
      </trkpt>
      <trkpt lat="45.88452" lon="6.18557">
        <ele>707.187012</ele>
        <time>2010-11-13T17:22:56Z</time>
      </trkpt>
      <trkpt lat="45.88445" lon="6.18565">
        <ele>706.225586</ele>
        <time>2010-11-13T17:23:04Z</time>
      </trkpt>
      <trkpt lat="45.88441" lon="6.18568">
        <ele>704.303223</ele>
        <time>2010-11-13T17:23:12Z</time>
      </trkpt>
      <trkpt lat="45.88434" lon="6.18569">
        <ele>700.938477</ele>
        <time>2010-11-13T17:23:20Z</time>
      </trkpt>
      <trkpt lat="45.88427" lon="6.18575">
        <ele>699.496338</ele>
        <time>2010-11-13T17:23:29Z</time>
      </trkpt>
      <trkpt lat="45.88423" lon="6.18579">
        <ele>698.054443</ele>
        <time>2010-11-13T17:23:37Z</time>
      </trkpt>
      <trkpt lat="45.88418" lon="6.18583">
        <ele>697.57373</ele>
        <time>2010-11-13T17:23:43Z</time>
      </trkpt>
      <trkpt lat="45.88416" lon="6.18584">
        <ele>696.612549</ele>
        <time>2010-11-13T17:23:49Z</time>
      </trkpt>
      <trkpt lat="45.88415" lon="6.18577">
        <ele>695.17041</ele>
        <time>2010-11-13T17:23:54Z</time>
      </trkpt>
      <trkpt lat="45.88418" lon="6.1857">
        <ele>694.209229</ele>
        <time>2010-11-13T17:24:01Z</time>
      </trkpt>
      <trkpt lat="45.88418" lon="6.1857">
        <ele>692.767334</ele>
        <time>2010-11-13T17:24:07Z</time>
      </trkpt>
      <trkpt lat="45.88414" lon="6.18571">
        <ele>691.805908</ele>
        <time>2010-11-13T17:24:13Z</time>
      </trkpt>
      <trkpt lat="45.88409" lon="6.18572">
        <ele>690.364014</ele>
        <time>2010-11-13T17:24:21Z</time>
      </trkpt>
      <trkpt lat="45.8841" lon="6.18566">
        <ele>689.402588</ele>
        <time>2010-11-13T17:24:27Z</time>
      </trkpt>
      <trkpt lat="45.88414" lon="6.18561">
        <ele>688.441406</ele>
        <time>2010-11-13T17:24:34Z</time>
      </trkpt>
      <trkpt lat="45.88414" lon="6.18553">
        <ele>686.518799</ele>
        <time>2010-11-13T17:24:44Z</time>
      </trkpt>
      <trkpt lat="45.8841" lon="6.18554">
        <ele>684.115479</ele>
        <time>2010-11-13T17:24:55Z</time>
      </trkpt>
      <trkpt lat="45.88402" lon="6.18555">
        <ele>682.192627</ele>
        <time>2010-11-13T17:25:03Z</time>
      </trkpt>
      <trkpt lat="45.88406" lon="6.1855">
        <ele>681.231445</ele>
        <time>2010-11-13T17:25:11Z</time>
      </trkpt>
      <trkpt lat="45.88411" lon="6.18543">
        <ele>680.27002</ele>
        <time>2010-11-13T17:25:20Z</time>
      </trkpt>
      <trkpt lat="45.88415" lon="6.18537">
        <ele>678.828125</ele>
        <time>2010-11-13T17:25:27Z</time>
      </trkpt>
      <trkpt lat="45.88419" lon="6.18532">
        <ele>677.866699</ele>
        <time>2010-11-13T17:25:33Z</time>
      </trkpt>
      <trkpt lat="45.88416" lon="6.1853">
        <ele>675.944092</ele>
        <time>2010-11-13T17:25:41Z</time>
      </trkpt>
      <trkpt lat="45.88412" lon="6.18528">
        <ele>674.98291</ele>
        <time>2010-11-13T17:25:47Z</time>
      </trkpt>
      <trkpt lat="45.88408" lon="6.18528">
        <ele>672.098877</ele>
        <time>2010-11-13T17:25:57Z</time>
      </trkpt>
      <trkpt lat="45.88401" lon="6.18528">
        <ele>671.137695</ele>
        <time>2010-11-13T17:26:03Z</time>
      </trkpt>
      <trkpt lat="45.88395" lon="6.18529">
        <ele>669.695801</ele>
        <time>2010-11-13T17:26:10Z</time>
      </trkpt>
      <trkpt lat="45.88389" lon="6.18531">
        <ele>668.734375</ele>
        <time>2010-11-13T17:26:17Z</time>
      </trkpt>
      <trkpt lat="45.88383" lon="6.18533">
        <ele>667.772705</ele>
        <time>2010-11-13T17:26:22Z</time>
      </trkpt>
      <trkpt lat="45.88377" lon="6.18537">
        <ele>666.330811</ele>
        <time>2010-11-13T17:26:28Z</time>
      </trkpt>
      <trkpt lat="45.88373" lon="6.18536">
        <ele>664.888916</ele>
        <time>2010-11-13T17:26:37Z</time>
      </trkpt>
      <trkpt lat="45.88371" lon="6.18537">
        <ele>663.447021</ele>
        <time>2010-11-13T17:26:40Z</time>
      </trkpt>
      <trkpt lat="45.88369" lon="6.18544">
        <ele>661.524414</ele>
        <time>2010-11-13T17:26:49Z</time>
      </trkpt>
      <trkpt lat="45.88368" lon="6.18551">
        <ele>660.562988</ele>
        <time>2010-11-13T17:26:54Z</time>
      </trkpt>
      <trkpt lat="45.88359" lon="6.18553">
        <ele>658.159912</ele>
        <time>2010-11-13T17:27:06Z</time>
      </trkpt>
      <trkpt lat="45.8836" lon="6.18549">
        <ele>656.717773</ele>
        <time>2010-11-13T17:27:12Z</time>
      </trkpt>
      <trkpt lat="45.88358" lon="6.1854">
        <ele>655.275879</ele>
        <time>2010-11-13T17:27:18Z</time>
      </trkpt>
      <trkpt lat="45.88356" lon="6.18533">
        <ele>654.314697</ele>
        <time>2010-11-13T17:27:26Z</time>
      </trkpt>
      <trkpt lat="45.88356" lon="6.18538">
        <ele>652.391846</ele>
        <time>2010-11-13T17:27:33Z</time>
      </trkpt>
      <trkpt lat="45.88352" lon="6.1854">
        <ele>651.43042</ele>
        <time>2010-11-13T17:27:43Z</time>
      </trkpt>
      <trkpt lat="45.88346" lon="6.18541">
        <ele>649.988525</ele>
        <time>2010-11-13T17:27:51Z</time>
      </trkpt>
      <trkpt lat="45.88343" lon="6.18548">
        <ele>649.0271</ele>
        <time>2010-11-13T17:27:59Z</time>
      </trkpt>
      <trkpt lat="45.88337" lon="6.18547">
        <ele>647.104492</ele>
        <time>2010-11-13T17:28:05Z</time>
      </trkpt>
      <trkpt lat="45.88337" lon="6.18542">
        <ele>645.662598</ele>
        <time>2010-11-13T17:28:11Z</time>
      </trkpt>
      <trkpt lat="45.88337" lon="6.18542">
        <ele>645.662598</ele>
        <time>2010-11-13T17:28:12Z</time>
      </trkpt>
      <trkpt lat="45.88332" lon="6.18543">
        <ele>644.220703</ele>
        <time>2010-11-13T17:28:19Z</time>
      </trkpt>
      <trkpt lat="45.88332" lon="6.18538">
        <ele>641.817383</ele>
        <time>2010-11-13T17:28:27Z</time>
      </trkpt>
      <trkpt lat="45.88332" lon="6.18537">
        <ele>641.817383</ele>
        <time>2010-11-13T17:28:28Z</time>
      </trkpt>
      <trkpt lat="45.88329" lon="6.18536">
        <ele>639.894775</ele>
        <time>2010-11-13T17:28:35Z</time>
      </trkpt>
      <trkpt lat="45.88326" lon="6.18534">
        <ele>638.452881</ele>
        <time>2010-11-13T17:28:43Z</time>
      </trkpt>
      <trkpt lat="45.88324" lon="6.18532">
        <ele>637.010742</ele>
        <time>2010-11-13T17:28:50Z</time>
      </trkpt>
      <trkpt lat="45.88323" lon="6.18528">
        <ele>635.088135</ele>
        <time>2010-11-13T17:28:59Z</time>
      </trkpt>
      <trkpt lat="45.88322" lon="6.18527">
        <ele>634.607422</ele>
        <time>2010-11-13T17:29:13Z</time>
      </trkpt>
      <trkpt lat="45.88319" lon="6.18525">
        <ele>632.684814</ele>
        <time>2010-11-13T17:29:19Z</time>
      </trkpt>
      <trkpt lat="45.88317" lon="6.18518">
        <ele>630.281494</ele>
        <time>2010-11-13T17:29:26Z</time>
      </trkpt>
      <trkpt lat="45.88313" lon="6.18512">
        <ele>629.320068</ele>
        <time>2010-11-13T17:29:34Z</time>
      </trkpt>
      <trkpt lat="45.88311" lon="6.18511">
        <ele>626.916992</ele>
        <time>2010-11-13T17:29:41Z</time>
      </trkpt>
      <trkpt lat="45.88309" lon="6.1851">
        <ele>625.474854</ele>
        <time>2010-11-13T17:29:45Z</time>
      </trkpt>
      <trkpt lat="45.88303" lon="6.18501">
        <ele>623.071777</ele>
        <time>2010-11-13T17:29:52Z</time>
      </trkpt>
      <trkpt lat="45.88299" lon="6.18492">
        <ele>620.668457</ele>
        <time>2010-11-13T17:30:00Z</time>
      </trkpt>
      <trkpt lat="45.88295" lon="6.18485">
        <ele>619.226318</ele>
        <time>2010-11-13T17:30:08Z</time>
      </trkpt>
      <trkpt lat="45.88291" lon="6.18479">
        <ele>617.303711</ele>
        <time>2010-11-13T17:30:16Z</time>
      </trkpt>
      <trkpt lat="45.88288" lon="6.18473">
        <ele>615.381104</ele>
        <time>2010-11-13T17:30:24Z</time>
      </trkpt>
      <trkpt lat="45.88285" lon="6.18467">
        <ele>612.977783</ele>
        <time>2010-11-13T17:30:33Z</time>
      </trkpt>
      <trkpt lat="45.8828" lon="6.18459">
        <ele>610.574463</ele>
        <time>2010-11-13T17:30:44Z</time>
      </trkpt>
      <trkpt lat="45.88275" lon="6.18451">
        <ele>608.171387</ele>
        <time>2010-11-13T17:30:54Z</time>
      </trkpt>
      <trkpt lat="45.88272" lon="6.18444">
        <ele>605.768066</ele>
        <time>2010-11-13T17:31:01Z</time>
      </trkpt>
      <trkpt lat="45.88268" lon="6.18436">
        <ele>603.364502</ele>
        <time>2010-11-13T17:31:09Z</time>
      </trkpt>
      <trkpt lat="45.88264" lon="6.18424">
        <ele>601.441895</ele>
        <time>2010-11-13T17:31:19Z</time>
      </trkpt>
      <trkpt lat="45.88261" lon="6.18417">
        <ele>599.519287</ele>
        <time>2010-11-13T17:31:26Z</time>
      </trkpt>
      <trkpt lat="45.88259" lon="6.18408">
        <ele>598.557861</ele>
        <time>2010-11-13T17:31:34Z</time>
      </trkpt>
      <trkpt lat="45.88257" lon="6.18398">
        <ele>597.115967</ele>
        <time>2010-11-13T17:31:43Z</time>
      </trkpt>
      <trkpt lat="45.88256" lon="6.18394">
        <ele>595.193359</ele>
        <time>2010-11-13T17:31:46Z</time>
      </trkpt>
      <trkpt lat="45.88256" lon="6.18385">
        <ele>593.270752</ele>
        <time>2010-11-13T17:31:53Z</time>
      </trkpt>
      <trkpt lat="45.88255" lon="6.18381">
        <ele>592.30957</ele>
        <time>2010-11-13T17:31:56Z</time>
      </trkpt>
      <trkpt lat="45.88253" lon="6.18371">
        <ele>589.90625</ele>
        <time>2010-11-13T17:32:04Z</time>
      </trkpt>
      <trkpt lat="45.88253" lon="6.18362">
        <ele>588.945068</ele>
        <time>2010-11-13T17:32:11Z</time>
      </trkpt>
      <trkpt lat="45.88255" lon="6.18356">
        <ele>587.502686</ele>
        <time>2010-11-13T17:32:18Z</time>
      </trkpt>
      <trkpt lat="45.88256" lon="6.18353">
        <ele>586.060791</ele>
        <time>2010-11-13T17:32:20Z</time>
      </trkpt>
      <trkpt lat="45.88258" lon="6.18348">
        <ele>585.580078</ele>
        <time>2010-11-13T17:32:29Z</time>
      </trkpt>
      <trkpt lat="45.88261" lon="6.18333">
        <ele>582.215576</ele>
        <time>2010-11-13T17:32:41Z</time>
      </trkpt>
      <trkpt lat="45.88265" lon="6.18319">
        <ele>580.292969</ele>
        <time>2010-11-13T17:32:51Z</time>
      </trkpt>
      <trkpt lat="45.88265" lon="6.18304">
        <ele>577.40918</ele>
        <time>2010-11-13T17:33:02Z</time>
      </trkpt>
      <trkpt lat="45.88265" lon="6.18295">
        <ele>575.486328</ele>
        <time>2010-11-13T17:33:08Z</time>
      </trkpt>
      <trkpt lat="45.8827" lon="6.1829">
        <ele>574.044434</ele>
        <time>2010-11-13T17:33:13Z</time>
      </trkpt>
      <trkpt lat="45.88281" lon="6.18276">
        <ele>572.121826</ele>
        <time>2010-11-13T17:33:26Z</time>
      </trkpt>
      <trkpt lat="45.8829" lon="6.18267">
        <ele>572.121826</ele>
        <time>2010-11-13T17:33:37Z</time>
      </trkpt>
      <trkpt lat="45.88299" lon="6.1826">
        <ele>572.121826</ele>
        <time>2010-11-13T17:33:48Z</time>
      </trkpt>
    </trkseg>
  </trk>
</gpx>